<?xml version="1.0" encoding="UTF-8" standalone="no" ?>
<gpx xmlns="http://www.topografix.com/GPX/1/1" xmlns:xsi="http://www.w3.org/2001/XMLSchema-instance" xsi:schemaLocation="http://www.topografix.com/GPX/1/1 http://www.topografix.com/GPX/1/1/gpx.xsd" version="1.1" creator="VisuGPX - https://www.visugpx.com">
  <metadata>
    <name>VTT euromedicne / grabels / hauts de Massane</name>
    <desc><![CDATA[Une variante (encore une) des petites sorties d'une heure environ empruntant chemins et monotraces   petites zones ludiques.]]></desc>
  </metadata>
  <trk>
    <name><![CDATA[VTT euromedicne / grabels / hauts de Massane_1]]></name>
    <trkseg>
      <trkpt lat="43.63764" lon="3.82857">
        <ele>123.5</ele>
        <time>2016-05-03T10:18:46Z</time>
      </trkpt>
      <trkpt lat="43.63772" lon="3.82858">
        <ele>136.7</ele>
        <time>2016-05-03T10:18:53Z</time>
      </trkpt>
      <trkpt lat="43.63777" lon="3.82861">
        <ele>143.8</ele>
        <time>2016-05-03T10:19:00Z</time>
      </trkpt>
      <trkpt lat="43.63769" lon="3.82862">
        <ele>135.3</ele>
        <time>2016-05-03T10:19:08Z</time>
      </trkpt>
      <trkpt lat="43.63758" lon="3.82844">
        <ele>132.5</ele>
        <time>2016-05-03T10:20:09Z</time>
      </trkpt>
      <trkpt lat="43.6377" lon="3.82859">
        <ele>129.7</ele>
        <time>2016-05-03T10:21:13Z</time>
      </trkpt>
      <trkpt lat="43.63769" lon="3.82848">
        <ele>129.6</ele>
        <time>2016-05-03T10:21:14Z</time>
      </trkpt>
      <trkpt lat="43.63765" lon="3.82837">
        <ele>129.2</ele>
        <time>2016-05-03T10:21:18Z</time>
      </trkpt>
      <trkpt lat="43.63766" lon="3.82825">
        <ele>128.8</ele>
        <time>2016-05-03T10:21:21Z</time>
      </trkpt>
      <trkpt lat="43.63772" lon="3.82816">
        <ele>128.6</ele>
        <time>2016-05-03T10:21:23Z</time>
      </trkpt>
      <trkpt lat="43.63778" lon="3.82812">
        <ele>128.4</ele>
        <time>2016-05-03T10:21:25Z</time>
      </trkpt>
      <trkpt lat="43.63786" lon="3.82807">
        <ele>128.2</ele>
        <time>2016-05-03T10:21:28Z</time>
      </trkpt>
      <trkpt lat="43.63794" lon="3.82802">
        <ele>128</ele>
        <time>2016-05-03T10:21:31Z</time>
      </trkpt>
      <trkpt lat="43.63803" lon="3.82798">
        <ele>127.7</ele>
        <time>2016-05-03T10:21:34Z</time>
      </trkpt>
      <trkpt lat="43.63812" lon="3.82793">
        <ele>127.4</ele>
        <time>2016-05-03T10:21:37Z</time>
      </trkpt>
      <trkpt lat="43.63822" lon="3.82789">
        <ele>127.1</ele>
        <time>2016-05-03T10:21:40Z</time>
      </trkpt>
      <trkpt lat="43.63831" lon="3.8279">
        <ele>126.7</ele>
        <time>2016-05-03T10:21:43Z</time>
      </trkpt>
      <trkpt lat="43.6384" lon="3.82791">
        <ele>125.7</ele>
        <time>2016-05-03T10:21:45Z</time>
      </trkpt>
      <trkpt lat="43.6385" lon="3.82786">
        <ele>125.5</ele>
        <time>2016-05-03T10:21:48Z</time>
      </trkpt>
      <trkpt lat="43.63858" lon="3.82784">
        <ele>125.3</ele>
        <time>2016-05-03T10:21:50Z</time>
      </trkpt>
      <trkpt lat="43.63866" lon="3.8278">
        <ele>125.1</ele>
        <time>2016-05-03T10:21:52Z</time>
      </trkpt>
      <trkpt lat="43.63875" lon="3.82776">
        <ele>125.1</ele>
        <time>2016-05-03T10:21:55Z</time>
      </trkpt>
      <trkpt lat="43.63883" lon="3.82776">
        <ele>125.1</ele>
        <time>2016-05-03T10:21:57Z</time>
      </trkpt>
      <trkpt lat="43.63887" lon="3.82784">
        <ele>125.1</ele>
        <time>2016-05-03T10:21:59Z</time>
      </trkpt>
      <trkpt lat="43.63891" lon="3.82795">
        <ele>124.9</ele>
        <time>2016-05-03T10:22:02Z</time>
      </trkpt>
      <trkpt lat="43.63898" lon="3.82802">
        <ele>124.7</ele>
        <time>2016-05-03T10:22:05Z</time>
      </trkpt>
      <trkpt lat="43.63908" lon="3.82804">
        <ele>124.3</ele>
        <time>2016-05-03T10:22:08Z</time>
      </trkpt>
      <trkpt lat="43.63915" lon="3.82812">
        <ele>124.2</ele>
        <time>2016-05-03T10:22:11Z</time>
      </trkpt>
      <trkpt lat="43.63923" lon="3.82817">
        <ele>124.3</ele>
        <time>2016-05-03T10:22:14Z</time>
      </trkpt>
      <trkpt lat="43.63933" lon="3.82815">
        <ele>124</ele>
        <time>2016-05-03T10:22:19Z</time>
      </trkpt>
      <trkpt lat="43.63942" lon="3.82813">
        <ele>123.9</ele>
        <time>2016-05-03T10:22:22Z</time>
      </trkpt>
      <trkpt lat="43.63951" lon="3.82807">
        <ele>124</ele>
        <time>2016-05-03T10:22:26Z</time>
      </trkpt>
      <trkpt lat="43.6396" lon="3.82802">
        <ele>124</ele>
        <time>2016-05-03T10:22:29Z</time>
      </trkpt>
      <trkpt lat="43.63968" lon="3.82796">
        <ele>124.4</ele>
        <time>2016-05-03T10:22:32Z</time>
      </trkpt>
      <trkpt lat="43.63976" lon="3.82793">
        <ele>124.6</ele>
        <time>2016-05-03T10:22:35Z</time>
      </trkpt>
      <trkpt lat="43.63985" lon="3.82791">
        <ele>124.9</ele>
        <time>2016-05-03T10:22:38Z</time>
      </trkpt>
      <trkpt lat="43.63994" lon="3.82789">
        <ele>125.8</ele>
        <time>2016-05-03T10:22:40Z</time>
      </trkpt>
      <trkpt lat="43.64003" lon="3.82786">
        <ele>125.8</ele>
        <time>2016-05-03T10:22:43Z</time>
      </trkpt>
      <trkpt lat="43.6401" lon="3.82781">
        <ele>125.8</ele>
        <time>2016-05-03T10:22:45Z</time>
      </trkpt>
      <trkpt lat="43.64018" lon="3.82778">
        <ele>126</ele>
        <time>2016-05-03T10:22:47Z</time>
      </trkpt>
      <trkpt lat="43.64026" lon="3.82775">
        <ele>126</ele>
        <time>2016-05-03T10:22:49Z</time>
      </trkpt>
      <trkpt lat="43.64035" lon="3.82771">
        <ele>126.6</ele>
        <time>2016-05-03T10:22:51Z</time>
      </trkpt>
      <trkpt lat="43.64042" lon="3.82768">
        <ele>126.7</ele>
        <time>2016-05-03T10:22:53Z</time>
      </trkpt>
      <trkpt lat="43.64052" lon="3.82761">
        <ele>126.7</ele>
        <time>2016-05-03T10:22:56Z</time>
      </trkpt>
      <trkpt lat="43.64061" lon="3.82753">
        <ele>126.8</ele>
        <time>2016-05-03T10:22:59Z</time>
      </trkpt>
      <trkpt lat="43.6407" lon="3.82747">
        <ele>126.8</ele>
        <time>2016-05-03T10:23:02Z</time>
      </trkpt>
      <trkpt lat="43.64077" lon="3.82739">
        <ele>127</ele>
        <time>2016-05-03T10:23:05Z</time>
      </trkpt>
      <trkpt lat="43.64085" lon="3.82732">
        <ele>126.9</ele>
        <time>2016-05-03T10:23:08Z</time>
      </trkpt>
      <trkpt lat="43.64092" lon="3.82726">
        <ele>127.1</ele>
        <time>2016-05-03T10:23:10Z</time>
      </trkpt>
      <trkpt lat="43.64099" lon="3.8272">
        <ele>127.2</ele>
        <time>2016-05-03T10:23:13Z</time>
      </trkpt>
      <trkpt lat="43.64106" lon="3.82712">
        <ele>127.3</ele>
        <time>2016-05-03T10:23:16Z</time>
      </trkpt>
      <trkpt lat="43.64114" lon="3.82703">
        <ele>127.3</ele>
        <time>2016-05-03T10:23:19Z</time>
      </trkpt>
      <trkpt lat="43.6412" lon="3.82697">
        <ele>127.4</ele>
        <time>2016-05-03T10:23:21Z</time>
      </trkpt>
      <trkpt lat="43.64126" lon="3.8269">
        <ele>127.6</ele>
        <time>2016-05-03T10:23:23Z</time>
      </trkpt>
      <trkpt lat="43.64133" lon="3.82684">
        <ele>127.8</ele>
        <time>2016-05-03T10:23:26Z</time>
      </trkpt>
      <trkpt lat="43.64141" lon="3.82675">
        <ele>128.1</ele>
        <time>2016-05-03T10:23:29Z</time>
      </trkpt>
      <trkpt lat="43.64146" lon="3.82668">
        <ele>128.3</ele>
        <time>2016-05-03T10:23:31Z</time>
      </trkpt>
      <trkpt lat="43.64152" lon="3.82661">
        <ele>128.3</ele>
        <time>2016-05-03T10:23:33Z</time>
      </trkpt>
      <trkpt lat="43.6416" lon="3.82653">
        <ele>128.6</ele>
        <time>2016-05-03T10:23:36Z</time>
      </trkpt>
      <trkpt lat="43.64167" lon="3.82646">
        <ele>128.9</ele>
        <time>2016-05-03T10:23:39Z</time>
      </trkpt>
      <trkpt lat="43.64175" lon="3.82643">
        <ele>129.3</ele>
        <time>2016-05-03T10:23:44Z</time>
      </trkpt>
      <trkpt lat="43.64185" lon="3.82642">
        <ele>129.4</ele>
        <time>2016-05-03T10:23:47Z</time>
      </trkpt>
      <trkpt lat="43.64192" lon="3.82643">
        <ele>129.5</ele>
        <time>2016-05-03T10:23:49Z</time>
      </trkpt>
      <trkpt lat="43.64199" lon="3.82647">
        <ele>131.2</ele>
        <time>2016-05-03T10:23:51Z</time>
      </trkpt>
      <trkpt lat="43.64208" lon="3.8265">
        <ele>133.3</ele>
        <time>2016-05-03T10:23:53Z</time>
      </trkpt>
      <trkpt lat="43.64219" lon="3.82652">
        <ele>133.3</ele>
        <time>2016-05-03T10:23:55Z</time>
      </trkpt>
      <trkpt lat="43.6423" lon="3.82658">
        <ele>133.6</ele>
        <time>2016-05-03T10:23:57Z</time>
      </trkpt>
      <trkpt lat="43.64241" lon="3.82663">
        <ele>133.6</ele>
        <time>2016-05-03T10:23:59Z</time>
      </trkpt>
      <trkpt lat="43.64251" lon="3.82668">
        <ele>134.9</ele>
        <time>2016-05-03T10:24:01Z</time>
      </trkpt>
      <trkpt lat="43.64262" lon="3.82668">
        <ele>135.9</ele>
        <time>2016-05-03T10:24:03Z</time>
      </trkpt>
      <trkpt lat="43.64273" lon="3.82671">
        <ele>136.8</ele>
        <time>2016-05-03T10:24:05Z</time>
      </trkpt>
      <trkpt lat="43.64282" lon="3.82674">
        <ele>137</ele>
        <time>2016-05-03T10:24:07Z</time>
      </trkpt>
      <trkpt lat="43.64292" lon="3.82679">
        <ele>137</ele>
        <time>2016-05-03T10:24:10Z</time>
      </trkpt>
      <trkpt lat="43.64301" lon="3.82685">
        <ele>137</ele>
        <time>2016-05-03T10:24:13Z</time>
      </trkpt>
      <trkpt lat="43.64309" lon="3.8269">
        <ele>137.2</ele>
        <time>2016-05-03T10:24:15Z</time>
      </trkpt>
      <trkpt lat="43.64317" lon="3.82696">
        <ele>137.2</ele>
        <time>2016-05-03T10:24:18Z</time>
      </trkpt>
      <trkpt lat="43.64325" lon="3.82701">
        <ele>137.3</ele>
        <time>2016-05-03T10:24:21Z</time>
      </trkpt>
      <trkpt lat="43.6433" lon="3.82707">
        <ele>137.4</ele>
        <time>2016-05-03T10:24:23Z</time>
      </trkpt>
      <trkpt lat="43.64338" lon="3.82711">
        <ele>137.4</ele>
        <time>2016-05-03T10:24:26Z</time>
      </trkpt>
      <trkpt lat="43.64345" lon="3.82716">
        <ele>138</ele>
        <time>2016-05-03T10:24:28Z</time>
      </trkpt>
      <trkpt lat="43.64355" lon="3.82723">
        <ele>138.3</ele>
        <time>2016-05-03T10:24:31Z</time>
      </trkpt>
      <trkpt lat="43.64363" lon="3.82727">
        <ele>138.5</ele>
        <time>2016-05-03T10:24:34Z</time>
      </trkpt>
      <trkpt lat="43.64371" lon="3.82726">
        <ele>138.8</ele>
        <time>2016-05-03T10:24:37Z</time>
      </trkpt>
      <trkpt lat="43.64379" lon="3.82722">
        <ele>139.1</ele>
        <time>2016-05-03T10:24:41Z</time>
      </trkpt>
      <trkpt lat="43.64387" lon="3.82722">
        <ele>139.5</ele>
        <time>2016-05-03T10:24:44Z</time>
      </trkpt>
      <trkpt lat="43.64396" lon="3.82722">
        <ele>140</ele>
        <time>2016-05-03T10:24:47Z</time>
      </trkpt>
      <trkpt lat="43.64404" lon="3.82722">
        <ele>140.5</ele>
        <time>2016-05-03T10:24:50Z</time>
      </trkpt>
      <trkpt lat="43.64413" lon="3.82724">
        <ele>141.1</ele>
        <time>2016-05-03T10:24:53Z</time>
      </trkpt>
      <trkpt lat="43.64421" lon="3.82726">
        <ele>141.6</ele>
        <time>2016-05-03T10:24:56Z</time>
      </trkpt>
      <trkpt lat="43.64429" lon="3.82727">
        <ele>142.1</ele>
        <time>2016-05-03T10:24:59Z</time>
      </trkpt>
      <trkpt lat="43.64439" lon="3.82727">
        <ele>142.8</ele>
        <time>2016-05-03T10:25:03Z</time>
      </trkpt>
      <trkpt lat="43.64447" lon="3.82727">
        <ele>142.9</ele>
        <time>2016-05-03T10:25:05Z</time>
      </trkpt>
      <trkpt lat="43.64454" lon="3.82729">
        <ele>143.4</ele>
        <time>2016-05-03T10:25:08Z</time>
      </trkpt>
      <trkpt lat="43.64463" lon="3.82731">
        <ele>143.6</ele>
        <time>2016-05-03T10:25:11Z</time>
      </trkpt>
      <trkpt lat="43.64473" lon="3.82731">
        <ele>144</ele>
        <time>2016-05-03T10:25:14Z</time>
      </trkpt>
      <trkpt lat="43.64482" lon="3.82729">
        <ele>144.5</ele>
        <time>2016-05-03T10:25:17Z</time>
      </trkpt>
      <trkpt lat="43.6449" lon="3.8273">
        <ele>145.1</ele>
        <time>2016-05-03T10:25:20Z</time>
      </trkpt>
      <trkpt lat="43.64499" lon="3.8273">
        <ele>145.5</ele>
        <time>2016-05-03T10:25:23Z</time>
      </trkpt>
      <trkpt lat="43.64508" lon="3.8273">
        <ele>145.7</ele>
        <time>2016-05-03T10:25:26Z</time>
      </trkpt>
      <trkpt lat="43.64517" lon="3.82731">
        <ele>146.1</ele>
        <time>2016-05-03T10:25:29Z</time>
      </trkpt>
      <trkpt lat="43.64525" lon="3.82725">
        <ele>146.6</ele>
        <time>2016-05-03T10:25:33Z</time>
      </trkpt>
      <trkpt lat="43.64533" lon="3.82719">
        <ele>146.7</ele>
        <time>2016-05-03T10:25:36Z</time>
      </trkpt>
      <trkpt lat="43.64541" lon="3.82715">
        <ele>147</ele>
        <time>2016-05-03T10:25:39Z</time>
      </trkpt>
      <trkpt lat="43.6455" lon="3.82713">
        <ele>147.5</ele>
        <time>2016-05-03T10:25:43Z</time>
      </trkpt>
      <trkpt lat="43.64557" lon="3.82709">
        <ele>147.9</ele>
        <time>2016-05-03T10:25:46Z</time>
      </trkpt>
      <trkpt lat="43.64565" lon="3.82703">
        <ele>148.2</ele>
        <time>2016-05-03T10:25:49Z</time>
      </trkpt>
      <trkpt lat="43.64573" lon="3.82698">
        <ele>148.4</ele>
        <time>2016-05-03T10:25:52Z</time>
      </trkpt>
      <trkpt lat="43.6458" lon="3.82692">
        <ele>148.6</ele>
        <time>2016-05-03T10:25:55Z</time>
      </trkpt>
      <trkpt lat="43.64587" lon="3.82685">
        <ele>148.7</ele>
        <time>2016-05-03T10:25:58Z</time>
      </trkpt>
      <trkpt lat="43.64595" lon="3.82678">
        <ele>148.8</ele>
        <time>2016-05-03T10:26:01Z</time>
      </trkpt>
      <trkpt lat="43.64604" lon="3.82673">
        <ele>149.1</ele>
        <time>2016-05-03T10:26:04Z</time>
      </trkpt>
      <trkpt lat="43.64613" lon="3.82671">
        <ele>149.6</ele>
        <time>2016-05-03T10:26:07Z</time>
      </trkpt>
      <trkpt lat="43.64622" lon="3.82671">
        <ele>150</ele>
        <time>2016-05-03T10:26:10Z</time>
      </trkpt>
      <trkpt lat="43.64631" lon="3.8267">
        <ele>150.4</ele>
        <time>2016-05-03T10:26:13Z</time>
      </trkpt>
      <trkpt lat="43.64639" lon="3.82671">
        <ele>150.8</ele>
        <time>2016-05-03T10:26:16Z</time>
      </trkpt>
      <trkpt lat="43.64648" lon="3.82671">
        <ele>151.4</ele>
        <time>2016-05-03T10:26:19Z</time>
      </trkpt>
      <trkpt lat="43.64656" lon="3.82669">
        <ele>152</ele>
        <time>2016-05-03T10:26:22Z</time>
      </trkpt>
      <trkpt lat="43.64666" lon="3.82665">
        <ele>152.5</ele>
        <time>2016-05-03T10:26:25Z</time>
      </trkpt>
      <trkpt lat="43.64675" lon="3.82659">
        <ele>152.9</ele>
        <time>2016-05-03T10:26:28Z</time>
      </trkpt>
      <trkpt lat="43.64684" lon="3.82651">
        <ele>153.4</ele>
        <time>2016-05-03T10:26:31Z</time>
      </trkpt>
      <trkpt lat="43.64692" lon="3.82648">
        <ele>155.6</ele>
        <time>2016-05-03T10:26:33Z</time>
      </trkpt>
      <trkpt lat="43.64698" lon="3.82642">
        <ele>157.3</ele>
        <time>2016-05-03T10:26:35Z</time>
      </trkpt>
      <trkpt lat="43.64707" lon="3.82639">
        <ele>158.9</ele>
        <time>2016-05-03T10:26:37Z</time>
      </trkpt>
      <trkpt lat="43.64716" lon="3.82636">
        <ele>158.8</ele>
        <time>2016-05-03T10:26:39Z</time>
      </trkpt>
      <trkpt lat="43.64724" lon="3.82633">
        <ele>159.3</ele>
        <time>2016-05-03T10:26:41Z</time>
      </trkpt>
      <trkpt lat="43.64732" lon="3.8263">
        <ele>158.5</ele>
        <time>2016-05-03T10:26:43Z</time>
      </trkpt>
      <trkpt lat="43.64741" lon="3.82626">
        <ele>158.1</ele>
        <time>2016-05-03T10:26:45Z</time>
      </trkpt>
      <trkpt lat="43.64748" lon="3.82623">
        <ele>159.6</ele>
        <time>2016-05-03T10:26:47Z</time>
      </trkpt>
      <trkpt lat="43.6476" lon="3.82618">
        <ele>159.5</ele>
        <time>2016-05-03T10:26:50Z</time>
      </trkpt>
      <trkpt lat="43.64769" lon="3.82616">
        <ele>159.6</ele>
        <time>2016-05-03T10:26:52Z</time>
      </trkpt>
      <trkpt lat="43.64776" lon="3.82612">
        <ele>159.4</ele>
        <time>2016-05-03T10:26:54Z</time>
      </trkpt>
      <trkpt lat="43.64784" lon="3.82609">
        <ele>158.9</ele>
        <time>2016-05-03T10:26:56Z</time>
      </trkpt>
      <trkpt lat="43.64791" lon="3.82604">
        <ele>158.6</ele>
        <time>2016-05-03T10:26:58Z</time>
      </trkpt>
      <trkpt lat="43.648" lon="3.82598">
        <ele>158.9</ele>
        <time>2016-05-03T10:27:00Z</time>
      </trkpt>
      <trkpt lat="43.64808" lon="3.82597">
        <ele>158.2</ele>
        <time>2016-05-03T10:27:02Z</time>
      </trkpt>
      <trkpt lat="43.64817" lon="3.82596">
        <ele>157.2</ele>
        <time>2016-05-03T10:27:04Z</time>
      </trkpt>
      <trkpt lat="43.64826" lon="3.82594">
        <ele>156.1</ele>
        <time>2016-05-03T10:27:06Z</time>
      </trkpt>
      <trkpt lat="43.64834" lon="3.82591">
        <ele>156.1</ele>
        <time>2016-05-03T10:27:08Z</time>
      </trkpt>
      <trkpt lat="43.64845" lon="3.8259">
        <ele>156.3</ele>
        <time>2016-05-03T10:27:10Z</time>
      </trkpt>
      <trkpt lat="43.64853" lon="3.82588">
        <ele>156.3</ele>
        <time>2016-05-03T10:27:12Z</time>
      </trkpt>
      <trkpt lat="43.64861" lon="3.8259">
        <ele>156</ele>
        <time>2016-05-03T10:27:14Z</time>
      </trkpt>
      <trkpt lat="43.64869" lon="3.8259">
        <ele>156.6</ele>
        <time>2016-05-03T10:27:16Z</time>
      </trkpt>
      <trkpt lat="43.64879" lon="3.82591">
        <ele>156.8</ele>
        <time>2016-05-03T10:27:18Z</time>
      </trkpt>
      <trkpt lat="43.64887" lon="3.82592">
        <ele>156.9</ele>
        <time>2016-05-03T10:27:20Z</time>
      </trkpt>
      <trkpt lat="43.64896" lon="3.82593">
        <ele>155.9</ele>
        <time>2016-05-03T10:27:22Z</time>
      </trkpt>
      <trkpt lat="43.64906" lon="3.82593">
        <ele>155.4</ele>
        <time>2016-05-03T10:27:24Z</time>
      </trkpt>
      <trkpt lat="43.64915" lon="3.82593">
        <ele>155.1</ele>
        <time>2016-05-03T10:27:26Z</time>
      </trkpt>
      <trkpt lat="43.64925" lon="3.82592">
        <ele>155.3</ele>
        <time>2016-05-03T10:27:28Z</time>
      </trkpt>
      <trkpt lat="43.64933" lon="3.8259">
        <ele>155.8</ele>
        <time>2016-05-03T10:27:30Z</time>
      </trkpt>
      <trkpt lat="43.64941" lon="3.8259">
        <ele>155.8</ele>
        <time>2016-05-03T10:27:32Z</time>
      </trkpt>
      <trkpt lat="43.64949" lon="3.82591">
        <ele>157</ele>
        <time>2016-05-03T10:27:34Z</time>
      </trkpt>
      <trkpt lat="43.64959" lon="3.82593">
        <ele>157.5</ele>
        <time>2016-05-03T10:27:36Z</time>
      </trkpt>
      <trkpt lat="43.64967" lon="3.82593">
        <ele>157.5</ele>
        <time>2016-05-03T10:27:38Z</time>
      </trkpt>
      <trkpt lat="43.64976" lon="3.8259">
        <ele>157.7</ele>
        <time>2016-05-03T10:27:41Z</time>
      </trkpt>
      <trkpt lat="43.64983" lon="3.8259">
        <ele>158</ele>
        <time>2016-05-03T10:27:43Z</time>
      </trkpt>
      <trkpt lat="43.64993" lon="3.8259">
        <ele>158.4</ele>
        <time>2016-05-03T10:27:46Z</time>
      </trkpt>
      <trkpt lat="43.65003" lon="3.82588">
        <ele>158.8</ele>
        <time>2016-05-03T10:27:49Z</time>
      </trkpt>
      <trkpt lat="43.65012" lon="3.82588">
        <ele>159.1</ele>
        <time>2016-05-03T10:27:52Z</time>
      </trkpt>
      <trkpt lat="43.65019" lon="3.82586">
        <ele>159.1</ele>
        <time>2016-05-03T10:27:54Z</time>
      </trkpt>
      <trkpt lat="43.65028" lon="3.82585">
        <ele>159.4</ele>
        <time>2016-05-03T10:27:57Z</time>
      </trkpt>
      <trkpt lat="43.65035" lon="3.82584">
        <ele>159.6</ele>
        <time>2016-05-03T10:27:59Z</time>
      </trkpt>
      <trkpt lat="43.65044" lon="3.82582">
        <ele>159.9</ele>
        <time>2016-05-03T10:28:02Z</time>
      </trkpt>
      <trkpt lat="43.65054" lon="3.82581">
        <ele>160.1</ele>
        <time>2016-05-03T10:28:05Z</time>
      </trkpt>
      <trkpt lat="43.65062" lon="3.82579">
        <ele>160.3</ele>
        <time>2016-05-03T10:28:07Z</time>
      </trkpt>
      <trkpt lat="43.65071" lon="3.82578">
        <ele>160.9</ele>
        <time>2016-05-03T10:28:10Z</time>
      </trkpt>
      <trkpt lat="43.6508" lon="3.82576">
        <ele>161.5</ele>
        <time>2016-05-03T10:28:13Z</time>
      </trkpt>
      <trkpt lat="43.65089" lon="3.82572">
        <ele>161.9</ele>
        <time>2016-05-03T10:28:16Z</time>
      </trkpt>
      <trkpt lat="43.65095" lon="3.82566">
        <ele>162.1</ele>
        <time>2016-05-03T10:28:18Z</time>
      </trkpt>
      <trkpt lat="43.65099" lon="3.82556">
        <ele>162.3</ele>
        <time>2016-05-03T10:28:21Z</time>
      </trkpt>
      <trkpt lat="43.65107" lon="3.82546">
        <ele>162.4</ele>
        <time>2016-05-03T10:28:24Z</time>
      </trkpt>
      <trkpt lat="43.65112" lon="3.82539">
        <ele>162.5</ele>
        <time>2016-05-03T10:28:26Z</time>
      </trkpt>
      <trkpt lat="43.65118" lon="3.82531">
        <ele>162.6</ele>
        <time>2016-05-03T10:28:28Z</time>
      </trkpt>
      <trkpt lat="43.65124" lon="3.82523">
        <ele>162.6</ele>
        <time>2016-05-03T10:28:30Z</time>
      </trkpt>
      <trkpt lat="43.65131" lon="3.82513">
        <ele>162.4</ele>
        <time>2016-05-03T10:28:33Z</time>
      </trkpt>
      <trkpt lat="43.65137" lon="3.82505">
        <ele>162.5</ele>
        <time>2016-05-03T10:28:35Z</time>
      </trkpt>
      <trkpt lat="43.65143" lon="3.82499">
        <ele>162.6</ele>
        <time>2016-05-03T10:28:37Z</time>
      </trkpt>
      <trkpt lat="43.65152" lon="3.82501">
        <ele>163.3</ele>
        <time>2016-05-03T10:28:39Z</time>
      </trkpt>
      <trkpt lat="43.65158" lon="3.82512">
        <ele>162.6</ele>
        <time>2016-05-03T10:28:41Z</time>
      </trkpt>
      <trkpt lat="43.65166" lon="3.82522">
        <ele>161.9</ele>
        <time>2016-05-03T10:28:43Z</time>
      </trkpt>
      <trkpt lat="43.65174" lon="3.82529">
        <ele>163.4</ele>
        <time>2016-05-03T10:28:45Z</time>
      </trkpt>
      <trkpt lat="43.6518" lon="3.82539">
        <ele>164.2</ele>
        <time>2016-05-03T10:28:47Z</time>
      </trkpt>
      <trkpt lat="43.65189" lon="3.82547">
        <ele>164.1</ele>
        <time>2016-05-03T10:28:49Z</time>
      </trkpt>
      <trkpt lat="43.65196" lon="3.82556">
        <ele>163.5</ele>
        <time>2016-05-03T10:28:51Z</time>
      </trkpt>
      <trkpt lat="43.65203" lon="3.82568">
        <ele>163.7</ele>
        <time>2016-05-03T10:28:53Z</time>
      </trkpt>
      <trkpt lat="43.6521" lon="3.82575">
        <ele>164</ele>
        <time>2016-05-03T10:28:55Z</time>
      </trkpt>
      <trkpt lat="43.65217" lon="3.82581">
        <ele>164</ele>
        <time>2016-05-03T10:28:57Z</time>
      </trkpt>
      <trkpt lat="43.65224" lon="3.82587">
        <ele>164.8</ele>
        <time>2016-05-03T10:28:59Z</time>
      </trkpt>
      <trkpt lat="43.65229" lon="3.82594">
        <ele>164.9</ele>
        <time>2016-05-03T10:29:01Z</time>
      </trkpt>
      <trkpt lat="43.65237" lon="3.82597">
        <ele>165.1</ele>
        <time>2016-05-03T10:29:03Z</time>
      </trkpt>
      <trkpt lat="43.65245" lon="3.82606">
        <ele>165.4</ele>
        <time>2016-05-03T10:29:06Z</time>
      </trkpt>
      <trkpt lat="43.6525" lon="3.82614">
        <ele>165.7</ele>
        <time>2016-05-03T10:29:08Z</time>
      </trkpt>
      <trkpt lat="43.65256" lon="3.82621">
        <ele>166</ele>
        <time>2016-05-03T10:29:10Z</time>
      </trkpt>
      <trkpt lat="43.65261" lon="3.82632">
        <ele>166.2</ele>
        <time>2016-05-03T10:29:12Z</time>
      </trkpt>
      <trkpt lat="43.65266" lon="3.82641">
        <ele>166.3</ele>
        <time>2016-05-03T10:29:14Z</time>
      </trkpt>
      <trkpt lat="43.65271" lon="3.82649">
        <ele>166.6</ele>
        <time>2016-05-03T10:29:17Z</time>
      </trkpt>
      <trkpt lat="43.6528" lon="3.82653">
        <ele>166.8</ele>
        <time>2016-05-03T10:29:20Z</time>
      </trkpt>
      <trkpt lat="43.65287" lon="3.82656">
        <ele>167</ele>
        <time>2016-05-03T10:29:22Z</time>
      </trkpt>
      <trkpt lat="43.65295" lon="3.8266">
        <ele>167.4</ele>
        <time>2016-05-03T10:29:25Z</time>
      </trkpt>
      <trkpt lat="43.65301" lon="3.82667">
        <ele>167.8</ele>
        <time>2016-05-03T10:29:27Z</time>
      </trkpt>
      <trkpt lat="43.65308" lon="3.82675">
        <ele>168.3</ele>
        <time>2016-05-03T10:29:29Z</time>
      </trkpt>
      <trkpt lat="43.65317" lon="3.82682">
        <ele>168.7</ele>
        <time>2016-05-03T10:29:32Z</time>
      </trkpt>
      <trkpt lat="43.65325" lon="3.82687">
        <ele>168.9</ele>
        <time>2016-05-03T10:29:34Z</time>
      </trkpt>
      <trkpt lat="43.65334" lon="3.82692">
        <ele>169.1</ele>
        <time>2016-05-03T10:29:37Z</time>
      </trkpt>
      <trkpt lat="43.65341" lon="3.82694">
        <ele>169.3</ele>
        <time>2016-05-03T10:29:39Z</time>
      </trkpt>
      <trkpt lat="43.65348" lon="3.827">
        <ele>169.5</ele>
        <time>2016-05-03T10:29:41Z</time>
      </trkpt>
      <trkpt lat="43.65357" lon="3.82706">
        <ele>169.8</ele>
        <time>2016-05-03T10:29:44Z</time>
      </trkpt>
      <trkpt lat="43.65366" lon="3.82709">
        <ele>170.3</ele>
        <time>2016-05-03T10:29:47Z</time>
      </trkpt>
      <trkpt lat="43.65374" lon="3.82713">
        <ele>170.6</ele>
        <time>2016-05-03T10:29:49Z</time>
      </trkpt>
      <trkpt lat="43.65382" lon="3.82717">
        <ele>170.9</ele>
        <time>2016-05-03T10:29:51Z</time>
      </trkpt>
      <trkpt lat="43.65389" lon="3.82722">
        <ele>171.1</ele>
        <time>2016-05-03T10:29:53Z</time>
      </trkpt>
      <trkpt lat="43.65396" lon="3.82728">
        <ele>171.4</ele>
        <time>2016-05-03T10:29:55Z</time>
      </trkpt>
      <trkpt lat="43.65403" lon="3.82734">
        <ele>171.6</ele>
        <time>2016-05-03T10:29:57Z</time>
      </trkpt>
      <trkpt lat="43.6541" lon="3.8274">
        <ele>171.9</ele>
        <time>2016-05-03T10:29:59Z</time>
      </trkpt>
      <trkpt lat="43.65417" lon="3.82745">
        <ele>172.2</ele>
        <time>2016-05-03T10:30:01Z</time>
      </trkpt>
      <trkpt lat="43.65424" lon="3.82752">
        <ele>172.4</ele>
        <time>2016-05-03T10:30:03Z</time>
      </trkpt>
      <trkpt lat="43.6543" lon="3.82758">
        <ele>172.5</ele>
        <time>2016-05-03T10:30:05Z</time>
      </trkpt>
      <trkpt lat="43.65437" lon="3.82758">
        <ele>172.6</ele>
        <time>2016-05-03T10:30:07Z</time>
      </trkpt>
      <trkpt lat="43.65447" lon="3.82759">
        <ele>172.7</ele>
        <time>2016-05-03T10:30:10Z</time>
      </trkpt>
      <trkpt lat="43.65457" lon="3.82762">
        <ele>172.8</ele>
        <time>2016-05-03T10:30:13Z</time>
      </trkpt>
      <trkpt lat="43.65464" lon="3.82769">
        <ele>173</ele>
        <time>2016-05-03T10:30:15Z</time>
      </trkpt>
      <trkpt lat="43.6547" lon="3.82776">
        <ele>173.2</ele>
        <time>2016-05-03T10:30:17Z</time>
      </trkpt>
      <trkpt lat="43.65475" lon="3.82786">
        <ele>173.1</ele>
        <time>2016-05-03T10:30:19Z</time>
      </trkpt>
      <trkpt lat="43.65484" lon="3.82791">
        <ele>172.1</ele>
        <time>2016-05-03T10:30:21Z</time>
      </trkpt>
      <trkpt lat="43.65487" lon="3.82803">
        <ele>172</ele>
        <time>2016-05-03T10:30:23Z</time>
      </trkpt>
      <trkpt lat="43.65489" lon="3.82815">
        <ele>171.8</ele>
        <time>2016-05-03T10:30:25Z</time>
      </trkpt>
      <trkpt lat="43.65496" lon="3.82824">
        <ele>171.6</ele>
        <time>2016-05-03T10:30:28Z</time>
      </trkpt>
      <trkpt lat="43.655" lon="3.82837">
        <ele>171.2</ele>
        <time>2016-05-03T10:30:31Z</time>
      </trkpt>
      <trkpt lat="43.65498" lon="3.82849">
        <ele>170.8</ele>
        <time>2016-05-03T10:30:35Z</time>
      </trkpt>
      <trkpt lat="43.65495" lon="3.82861">
        <ele>170.6</ele>
        <time>2016-05-03T10:30:39Z</time>
      </trkpt>
      <trkpt lat="43.65491" lon="3.82872">
        <ele>170.7</ele>
        <time>2016-05-03T10:30:43Z</time>
      </trkpt>
      <trkpt lat="43.65486" lon="3.82881">
        <ele>171.1</ele>
        <time>2016-05-03T10:30:46Z</time>
      </trkpt>
      <trkpt lat="43.65485" lon="3.8289">
        <ele>171.9</ele>
        <time>2016-05-03T10:30:51Z</time>
      </trkpt>
      <trkpt lat="43.65482" lon="3.82901">
        <ele>172.4</ele>
        <time>2016-05-03T10:30:55Z</time>
      </trkpt>
      <trkpt lat="43.65486" lon="3.82912">
        <ele>172.8</ele>
        <time>2016-05-03T10:30:59Z</time>
      </trkpt>
      <trkpt lat="43.65491" lon="3.82924">
        <ele>173.1</ele>
        <time>2016-05-03T10:31:02Z</time>
      </trkpt>
      <trkpt lat="43.65496" lon="3.82933">
        <ele>173.2</ele>
        <time>2016-05-03T10:31:05Z</time>
      </trkpt>
      <trkpt lat="43.65503" lon="3.8294">
        <ele>173.2</ele>
        <time>2016-05-03T10:31:10Z</time>
      </trkpt>
      <trkpt lat="43.6551" lon="3.82943">
        <ele>173.4</ele>
        <time>2016-05-03T10:31:13Z</time>
      </trkpt>
      <trkpt lat="43.65515" lon="3.8295">
        <ele>173.9</ele>
        <time>2016-05-03T10:31:16Z</time>
      </trkpt>
      <trkpt lat="43.65519" lon="3.8296">
        <ele>174.5</ele>
        <time>2016-05-03T10:31:19Z</time>
      </trkpt>
      <trkpt lat="43.65525" lon="3.82968">
        <ele>175</ele>
        <time>2016-05-03T10:31:22Z</time>
      </trkpt>
      <trkpt lat="43.65535" lon="3.82975">
        <ele>175.4</ele>
        <time>2016-05-03T10:31:25Z</time>
      </trkpt>
      <trkpt lat="43.65544" lon="3.82978">
        <ele>175.3</ele>
        <time>2016-05-03T10:31:29Z</time>
      </trkpt>
      <trkpt lat="43.65548" lon="3.82988">
        <ele>176</ele>
        <time>2016-05-03T10:31:35Z</time>
      </trkpt>
      <trkpt lat="43.65551" lon="3.82992">
        <ele>177</ele>
        <time>2016-05-03T10:31:49Z</time>
      </trkpt>
      <trkpt lat="43.6555" lon="3.83003">
        <ele>176.8</ele>
        <time>2016-05-03T10:31:54Z</time>
      </trkpt>
      <trkpt lat="43.65544" lon="3.83011">
        <ele>176.3</ele>
        <time>2016-05-03T10:31:57Z</time>
      </trkpt>
      <trkpt lat="43.65541" lon="3.83018">
        <ele>175.5</ele>
        <time>2016-05-03T10:32:04Z</time>
      </trkpt>
      <trkpt lat="43.65538" lon="3.83026">
        <ele>174.6</ele>
        <time>2016-05-03T10:32:11Z</time>
      </trkpt>
      <trkpt lat="43.6554" lon="3.83038">
        <ele>173.7</ele>
        <time>2016-05-03T10:32:16Z</time>
      </trkpt>
      <trkpt lat="43.65535" lon="3.83048">
        <ele>173.1</ele>
        <time>2016-05-03T10:32:19Z</time>
      </trkpt>
      <trkpt lat="43.65539" lon="3.83054">
        <ele>171.7</ele>
        <time>2016-05-03T10:32:26Z</time>
      </trkpt>
      <trkpt lat="43.65551" lon="3.83053">
        <ele>169.4</ele>
        <time>2016-05-03T10:32:39Z</time>
      </trkpt>
      <trkpt lat="43.65559" lon="3.83045">
        <ele>168.3</ele>
        <time>2016-05-03T10:32:42Z</time>
      </trkpt>
      <trkpt lat="43.65564" lon="3.83036">
        <ele>168.1</ele>
        <time>2016-05-03T10:32:44Z</time>
      </trkpt>
      <trkpt lat="43.65569" lon="3.83024">
        <ele>167.8</ele>
        <time>2016-05-03T10:32:47Z</time>
      </trkpt>
      <trkpt lat="43.65574" lon="3.83016">
        <ele>167.4</ele>
        <time>2016-05-03T10:32:50Z</time>
      </trkpt>
      <trkpt lat="43.6558" lon="3.83005">
        <ele>167.1</ele>
        <time>2016-05-03T10:32:53Z</time>
      </trkpt>
      <trkpt lat="43.65583" lon="3.82994">
        <ele>166.6</ele>
        <time>2016-05-03T10:32:59Z</time>
      </trkpt>
      <trkpt lat="43.65593" lon="3.8299">
        <ele>166.1</ele>
        <time>2016-05-03T10:33:02Z</time>
      </trkpt>
      <trkpt lat="43.65598" lon="3.82996">
        <ele>164.8</ele>
        <time>2016-05-03T10:33:04Z</time>
      </trkpt>
      <trkpt lat="43.6561" lon="3.83">
        <ele>164.5</ele>
        <time>2016-05-03T10:33:07Z</time>
      </trkpt>
      <trkpt lat="43.65619" lon="3.83002">
        <ele>162.8</ele>
        <time>2016-05-03T10:33:08Z</time>
      </trkpt>
      <trkpt lat="43.65626" lon="3.83001">
        <ele>162.2</ele>
        <time>2016-05-03T10:33:12Z</time>
      </trkpt>
      <trkpt lat="43.65624" lon="3.83012">
        <ele>159</ele>
        <time>2016-05-03T10:33:33Z</time>
      </trkpt>
      <trkpt lat="43.65615" lon="3.83012">
        <ele>157.6</ele>
        <time>2016-05-03T10:33:41Z</time>
      </trkpt>
      <trkpt lat="43.65606" lon="3.83004">
        <ele>157.8</ele>
        <time>2016-05-03T10:33:44Z</time>
      </trkpt>
      <trkpt lat="43.65599" lon="3.83">
        <ele>158.1</ele>
        <time>2016-05-03T10:33:48Z</time>
      </trkpt>
      <trkpt lat="43.65596" lon="3.82992">
        <ele>157.6</ele>
        <time>2016-05-03T10:34:02Z</time>
      </trkpt>
      <trkpt lat="43.65604" lon="3.83">
        <ele>159.3</ele>
        <time>2016-05-03T10:34:06Z</time>
      </trkpt>
      <trkpt lat="43.65614" lon="3.83004">
        <ele>159.8</ele>
        <time>2016-05-03T10:34:08Z</time>
      </trkpt>
      <trkpt lat="43.65624" lon="3.83005">
        <ele>159.6</ele>
        <time>2016-05-03T10:34:10Z</time>
      </trkpt>
      <trkpt lat="43.65633" lon="3.82999">
        <ele>159.5</ele>
        <time>2016-05-03T10:34:13Z</time>
      </trkpt>
      <trkpt lat="43.65644" lon="3.8299">
        <ele>157.8</ele>
        <time>2016-05-03T10:34:15Z</time>
      </trkpt>
      <trkpt lat="43.65651" lon="3.82986">
        <ele>157.7</ele>
        <time>2016-05-03T10:34:17Z</time>
      </trkpt>
      <trkpt lat="43.65655" lon="3.82985">
        <ele>156.3</ele>
        <time>2016-05-03T10:34:24Z</time>
      </trkpt>
      <trkpt lat="43.6566" lon="3.82983">
        <ele>154</ele>
        <time>2016-05-03T10:34:35Z</time>
      </trkpt>
      <trkpt lat="43.65669" lon="3.82985">
        <ele>153</ele>
        <time>2016-05-03T10:34:40Z</time>
      </trkpt>
      <trkpt lat="43.6568" lon="3.82982">
        <ele>151.1</ele>
        <time>2016-05-03T10:34:47Z</time>
      </trkpt>
      <trkpt lat="43.65687" lon="3.82978">
        <ele>151</ele>
        <time>2016-05-03T10:34:49Z</time>
      </trkpt>
      <trkpt lat="43.65694" lon="3.82977">
        <ele>150.8</ele>
        <time>2016-05-03T10:34:52Z</time>
      </trkpt>
      <trkpt lat="43.65699" lon="3.82968">
        <ele>150.3</ele>
        <time>2016-05-03T10:34:57Z</time>
      </trkpt>
      <trkpt lat="43.65703" lon="3.82956">
        <ele>150</ele>
        <time>2016-05-03T10:35:00Z</time>
      </trkpt>
      <trkpt lat="43.65707" lon="3.82946">
        <ele>149.7</ele>
        <time>2016-05-03T10:35:02Z</time>
      </trkpt>
      <trkpt lat="43.65713" lon="3.82934">
        <ele>149.1</ele>
        <time>2016-05-03T10:35:05Z</time>
      </trkpt>
      <trkpt lat="43.65723" lon="3.82922">
        <ele>148.8</ele>
        <time>2016-05-03T10:35:07Z</time>
      </trkpt>
      <trkpt lat="43.65735" lon="3.82917">
        <ele>147</ele>
        <time>2016-05-03T10:35:09Z</time>
      </trkpt>
      <trkpt lat="43.65743" lon="3.82924">
        <ele>144.7</ele>
        <time>2016-05-03T10:35:11Z</time>
      </trkpt>
      <trkpt lat="43.6575" lon="3.82937">
        <ele>143.5</ele>
        <time>2016-05-03T10:35:13Z</time>
      </trkpt>
      <trkpt lat="43.65755" lon="3.82953">
        <ele>142.5</ele>
        <time>2016-05-03T10:35:15Z</time>
      </trkpt>
      <trkpt lat="43.6576" lon="3.82966">
        <ele>140.6</ele>
        <time>2016-05-03T10:35:17Z</time>
      </trkpt>
      <trkpt lat="43.65765" lon="3.82983">
        <ele>140.5</ele>
        <time>2016-05-03T10:35:19Z</time>
      </trkpt>
      <trkpt lat="43.6577" lon="3.82998">
        <ele>139.9</ele>
        <time>2016-05-03T10:35:21Z</time>
      </trkpt>
      <trkpt lat="43.65775" lon="3.83012">
        <ele>138.4</ele>
        <time>2016-05-03T10:35:23Z</time>
      </trkpt>
      <trkpt lat="43.65778" lon="3.83026">
        <ele>137.3</ele>
        <time>2016-05-03T10:35:25Z</time>
      </trkpt>
      <trkpt lat="43.65783" lon="3.83035">
        <ele>137</ele>
        <time>2016-05-03T10:35:27Z</time>
      </trkpt>
      <trkpt lat="43.65791" lon="3.83028">
        <ele>137</ele>
        <time>2016-05-03T10:35:31Z</time>
      </trkpt>
      <trkpt lat="43.65799" lon="3.83023">
        <ele>136.9</ele>
        <time>2016-05-03T10:35:34Z</time>
      </trkpt>
      <trkpt lat="43.65806" lon="3.83018">
        <ele>137</ele>
        <time>2016-05-03T10:35:37Z</time>
      </trkpt>
      <trkpt lat="43.65813" lon="3.83008">
        <ele>137.1</ele>
        <time>2016-05-03T10:35:41Z</time>
      </trkpt>
      <trkpt lat="43.65822" lon="3.83001">
        <ele>137.1</ele>
        <time>2016-05-03T10:35:44Z</time>
      </trkpt>
      <trkpt lat="43.65828" lon="3.8299">
        <ele>136.8</ele>
        <time>2016-05-03T10:35:47Z</time>
      </trkpt>
      <trkpt lat="43.65831" lon="3.82982">
        <ele>136.7</ele>
        <time>2016-05-03T10:35:49Z</time>
      </trkpt>
      <trkpt lat="43.65831" lon="3.82966">
        <ele>135.8</ele>
        <time>2016-05-03T10:35:52Z</time>
      </trkpt>
      <trkpt lat="43.65832" lon="3.82954">
        <ele>135.7</ele>
        <time>2016-05-03T10:35:54Z</time>
      </trkpt>
      <trkpt lat="43.65834" lon="3.82942">
        <ele>135.6</ele>
        <time>2016-05-03T10:35:56Z</time>
      </trkpt>
      <trkpt lat="43.65837" lon="3.82929">
        <ele>135.2</ele>
        <time>2016-05-03T10:35:59Z</time>
      </trkpt>
      <trkpt lat="43.65842" lon="3.82918">
        <ele>135.1</ele>
        <time>2016-05-03T10:36:01Z</time>
      </trkpt>
      <trkpt lat="43.65849" lon="3.82908">
        <ele>133.8</ele>
        <time>2016-05-03T10:36:03Z</time>
      </trkpt>
      <trkpt lat="43.65855" lon="3.82902">
        <ele>133.5</ele>
        <time>2016-05-03T10:36:05Z</time>
      </trkpt>
      <trkpt lat="43.65861" lon="3.82897">
        <ele>133.5</ele>
        <time>2016-05-03T10:36:07Z</time>
      </trkpt>
      <trkpt lat="43.65872" lon="3.82893">
        <ele>133.5</ele>
        <time>2016-05-03T10:36:10Z</time>
      </trkpt>
      <trkpt lat="43.6588" lon="3.82892">
        <ele>133.5</ele>
        <time>2016-05-03T10:36:12Z</time>
      </trkpt>
      <trkpt lat="43.65887" lon="3.82889">
        <ele>133.6</ele>
        <time>2016-05-03T10:36:14Z</time>
      </trkpt>
      <trkpt lat="43.65897" lon="3.82886">
        <ele>134.2</ele>
        <time>2016-05-03T10:36:18Z</time>
      </trkpt>
      <trkpt lat="43.65905" lon="3.82884">
        <ele>134.5</ele>
        <time>2016-05-03T10:36:20Z</time>
      </trkpt>
      <trkpt lat="43.65915" lon="3.82883">
        <ele>134.8</ele>
        <time>2016-05-03T10:36:23Z</time>
      </trkpt>
      <trkpt lat="43.65924" lon="3.82881">
        <ele>135</ele>
        <time>2016-05-03T10:36:26Z</time>
      </trkpt>
      <trkpt lat="43.65932" lon="3.82879">
        <ele>135.3</ele>
        <time>2016-05-03T10:36:29Z</time>
      </trkpt>
      <trkpt lat="43.65939" lon="3.82874">
        <ele>135.5</ele>
        <time>2016-05-03T10:36:32Z</time>
      </trkpt>
      <trkpt lat="43.65944" lon="3.82863">
        <ele>135.7</ele>
        <time>2016-05-03T10:36:35Z</time>
      </trkpt>
      <trkpt lat="43.65947" lon="3.82849">
        <ele>136.2</ele>
        <time>2016-05-03T10:36:38Z</time>
      </trkpt>
      <trkpt lat="43.65952" lon="3.82838">
        <ele>136.9</ele>
        <time>2016-05-03T10:36:41Z</time>
      </trkpt>
      <trkpt lat="43.65958" lon="3.82825">
        <ele>137.4</ele>
        <time>2016-05-03T10:36:44Z</time>
      </trkpt>
      <trkpt lat="43.65963" lon="3.82814">
        <ele>137.8</ele>
        <time>2016-05-03T10:36:47Z</time>
      </trkpt>
      <trkpt lat="43.65967" lon="3.82804">
        <ele>137.9</ele>
        <time>2016-05-03T10:36:49Z</time>
      </trkpt>
      <trkpt lat="43.65971" lon="3.82794">
        <ele>138.7</ele>
        <time>2016-05-03T10:36:51Z</time>
      </trkpt>
      <trkpt lat="43.65976" lon="3.82787">
        <ele>139.9</ele>
        <time>2016-05-03T10:36:53Z</time>
      </trkpt>
      <trkpt lat="43.65982" lon="3.82774">
        <ele>140.3</ele>
        <time>2016-05-03T10:36:55Z</time>
      </trkpt>
      <trkpt lat="43.65986" lon="3.82763">
        <ele>139.9</ele>
        <time>2016-05-03T10:36:57Z</time>
      </trkpt>
      <trkpt lat="43.65992" lon="3.82752">
        <ele>139.8</ele>
        <time>2016-05-03T10:36:59Z</time>
      </trkpt>
      <trkpt lat="43.65996" lon="3.82741">
        <ele>140</ele>
        <time>2016-05-03T10:37:01Z</time>
      </trkpt>
      <trkpt lat="43.66001" lon="3.82729">
        <ele>140.1</ele>
        <time>2016-05-03T10:37:03Z</time>
      </trkpt>
      <trkpt lat="43.66006" lon="3.82716">
        <ele>139</ele>
        <time>2016-05-03T10:37:05Z</time>
      </trkpt>
      <trkpt lat="43.66013" lon="3.82702">
        <ele>137.1</ele>
        <time>2016-05-03T10:37:07Z</time>
      </trkpt>
      <trkpt lat="43.66018" lon="3.82689">
        <ele>136</ele>
        <time>2016-05-03T10:37:09Z</time>
      </trkpt>
      <trkpt lat="43.66022" lon="3.82677">
        <ele>135.5</ele>
        <time>2016-05-03T10:37:11Z</time>
      </trkpt>
      <trkpt lat="43.66028" lon="3.82667">
        <ele>134.9</ele>
        <time>2016-05-03T10:37:13Z</time>
      </trkpt>
      <trkpt lat="43.66038" lon="3.82664">
        <ele>134.6</ele>
        <time>2016-05-03T10:37:15Z</time>
      </trkpt>
      <trkpt lat="43.66047" lon="3.82667">
        <ele>134.2</ele>
        <time>2016-05-03T10:37:17Z</time>
      </trkpt>
      <trkpt lat="43.66056" lon="3.82675">
        <ele>135.6</ele>
        <time>2016-05-03T10:37:20Z</time>
      </trkpt>
      <trkpt lat="43.66063" lon="3.8268">
        <ele>136.4</ele>
        <time>2016-05-03T10:37:22Z</time>
      </trkpt>
      <trkpt lat="43.66073" lon="3.82686">
        <ele>137.3</ele>
        <time>2016-05-03T10:37:25Z</time>
      </trkpt>
      <trkpt lat="43.6608" lon="3.82685">
        <ele>138.1</ele>
        <time>2016-05-03T10:37:27Z</time>
      </trkpt>
      <trkpt lat="43.66086" lon="3.82679">
        <ele>138.2</ele>
        <time>2016-05-03T10:37:29Z</time>
      </trkpt>
      <trkpt lat="43.66094" lon="3.82675">
        <ele>138.3</ele>
        <time>2016-05-03T10:37:31Z</time>
      </trkpt>
      <trkpt lat="43.66102" lon="3.82676">
        <ele>138.4</ele>
        <time>2016-05-03T10:37:33Z</time>
      </trkpt>
      <trkpt lat="43.66108" lon="3.82681">
        <ele>138.7</ele>
        <time>2016-05-03T10:37:36Z</time>
      </trkpt>
      <trkpt lat="43.66116" lon="3.82685">
        <ele>138.8</ele>
        <time>2016-05-03T10:37:39Z</time>
      </trkpt>
      <trkpt lat="43.66124" lon="3.82684">
        <ele>139.2</ele>
        <time>2016-05-03T10:37:42Z</time>
      </trkpt>
      <trkpt lat="43.66133" lon="3.82684">
        <ele>139.5</ele>
        <time>2016-05-03T10:37:45Z</time>
      </trkpt>
      <trkpt lat="43.66141" lon="3.82685">
        <ele>139.7</ele>
        <time>2016-05-03T10:37:48Z</time>
      </trkpt>
      <trkpt lat="43.66149" lon="3.82686">
        <ele>140.3</ele>
        <time>2016-05-03T10:37:51Z</time>
      </trkpt>
      <trkpt lat="43.66156" lon="3.8269">
        <ele>140.9</ele>
        <time>2016-05-03T10:37:54Z</time>
      </trkpt>
      <trkpt lat="43.66163" lon="3.82695">
        <ele>141.4</ele>
        <time>2016-05-03T10:37:57Z</time>
      </trkpt>
      <trkpt lat="43.66169" lon="3.82701">
        <ele>141.9</ele>
        <time>2016-05-03T10:38:00Z</time>
      </trkpt>
      <trkpt lat="43.66175" lon="3.82707">
        <ele>142.4</ele>
        <time>2016-05-03T10:38:03Z</time>
      </trkpt>
      <trkpt lat="43.66179" lon="3.82709">
        <ele>142.7</ele>
        <time>2016-05-03T10:38:10Z</time>
      </trkpt>
      <trkpt lat="43.66184" lon="3.82716">
        <ele>142.8</ele>
        <time>2016-05-03T10:38:17Z</time>
      </trkpt>
      <trkpt lat="43.66183" lon="3.82719">
        <ele>142.7</ele>
        <time>2016-05-03T10:38:24Z</time>
      </trkpt>
      <trkpt lat="43.66177" lon="3.82713">
        <ele>142.4</ele>
        <time>2016-05-03T10:38:38Z</time>
      </trkpt>
      <trkpt lat="43.66178" lon="3.82706">
        <ele>142.6</ele>
        <time>2016-05-03T10:38:45Z</time>
      </trkpt>
      <trkpt lat="43.66184" lon="3.82693">
        <ele>145.8</ele>
        <time>2016-05-03T10:38:56Z</time>
      </trkpt>
      <trkpt lat="43.6619" lon="3.82678">
        <ele>147.2</ele>
        <time>2016-05-03T10:38:58Z</time>
      </trkpt>
      <trkpt lat="43.66198" lon="3.82663">
        <ele>147</ele>
        <time>2016-05-03T10:39:00Z</time>
      </trkpt>
      <trkpt lat="43.66205" lon="3.82648">
        <ele>146.1</ele>
        <time>2016-05-03T10:39:02Z</time>
      </trkpt>
      <trkpt lat="43.66211" lon="3.82632">
        <ele>144.5</ele>
        <time>2016-05-03T10:39:04Z</time>
      </trkpt>
      <trkpt lat="43.6622" lon="3.82617">
        <ele>142.5</ele>
        <time>2016-05-03T10:39:06Z</time>
      </trkpt>
      <trkpt lat="43.66229" lon="3.8261">
        <ele>142.9</ele>
        <time>2016-05-03T10:39:08Z</time>
      </trkpt>
      <trkpt lat="43.66238" lon="3.82604">
        <ele>143.7</ele>
        <time>2016-05-03T10:39:10Z</time>
      </trkpt>
      <trkpt lat="43.66246" lon="3.82601">
        <ele>144.1</ele>
        <time>2016-05-03T10:39:12Z</time>
      </trkpt>
      <trkpt lat="43.66253" lon="3.82597">
        <ele>144.2</ele>
        <time>2016-05-03T10:39:14Z</time>
      </trkpt>
      <trkpt lat="43.66262" lon="3.82592">
        <ele>144.5</ele>
        <time>2016-05-03T10:39:17Z</time>
      </trkpt>
      <trkpt lat="43.66271" lon="3.82587">
        <ele>144.8</ele>
        <time>2016-05-03T10:39:20Z</time>
      </trkpt>
      <trkpt lat="43.66278" lon="3.82584">
        <ele>145.1</ele>
        <time>2016-05-03T10:39:22Z</time>
      </trkpt>
      <trkpt lat="43.66286" lon="3.82579">
        <ele>145.7</ele>
        <time>2016-05-03T10:39:26Z</time>
      </trkpt>
      <trkpt lat="43.66295" lon="3.82572">
        <ele>146.3</ele>
        <time>2016-05-03T10:39:29Z</time>
      </trkpt>
      <trkpt lat="43.663" lon="3.82563">
        <ele>147</ele>
        <time>2016-05-03T10:39:33Z</time>
      </trkpt>
      <trkpt lat="43.66297" lon="3.82552">
        <ele>147.1</ele>
        <time>2016-05-03T10:39:37Z</time>
      </trkpt>
      <trkpt lat="43.66295" lon="3.82538">
        <ele>147.5</ele>
        <time>2016-05-03T10:39:39Z</time>
      </trkpt>
      <trkpt lat="43.66297" lon="3.82525">
        <ele>148.4</ele>
        <time>2016-05-03T10:39:41Z</time>
      </trkpt>
      <trkpt lat="43.66297" lon="3.82511">
        <ele>148.6</ele>
        <time>2016-05-03T10:39:44Z</time>
      </trkpt>
      <trkpt lat="43.66298" lon="3.82499">
        <ele>148.8</ele>
        <time>2016-05-03T10:39:46Z</time>
      </trkpt>
      <trkpt lat="43.663" lon="3.82487">
        <ele>149.1</ele>
        <time>2016-05-03T10:39:49Z</time>
      </trkpt>
      <trkpt lat="43.66302" lon="3.82472">
        <ele>149</ele>
        <time>2016-05-03T10:39:51Z</time>
      </trkpt>
      <trkpt lat="43.66304" lon="3.82459">
        <ele>148.6</ele>
        <time>2016-05-03T10:39:53Z</time>
      </trkpt>
      <trkpt lat="43.6631" lon="3.82451">
        <ele>148.5</ele>
        <time>2016-05-03T10:39:55Z</time>
      </trkpt>
      <trkpt lat="43.66318" lon="3.82444">
        <ele>148.8</ele>
        <time>2016-05-03T10:39:58Z</time>
      </trkpt>
      <trkpt lat="43.66325" lon="3.82436">
        <ele>148.9</ele>
        <time>2016-05-03T10:40:01Z</time>
      </trkpt>
      <trkpt lat="43.66331" lon="3.82429">
        <ele>148.8</ele>
        <time>2016-05-03T10:40:04Z</time>
      </trkpt>
      <trkpt lat="43.6634" lon="3.82424">
        <ele>148.9</ele>
        <time>2016-05-03T10:40:07Z</time>
      </trkpt>
      <trkpt lat="43.66348" lon="3.82419">
        <ele>149.1</ele>
        <time>2016-05-03T10:40:10Z</time>
      </trkpt>
      <trkpt lat="43.66357" lon="3.82412">
        <ele>149.6</ele>
        <time>2016-05-03T10:40:14Z</time>
      </trkpt>
      <trkpt lat="43.66362" lon="3.82404">
        <ele>150.2</ele>
        <time>2016-05-03T10:40:18Z</time>
      </trkpt>
      <trkpt lat="43.66359" lon="3.82392">
        <ele>152.3</ele>
        <time>2016-05-03T10:40:22Z</time>
      </trkpt>
      <trkpt lat="43.66357" lon="3.82381">
        <ele>154.4</ele>
        <time>2016-05-03T10:40:24Z</time>
      </trkpt>
      <trkpt lat="43.66352" lon="3.82369">
        <ele>154.6</ele>
        <time>2016-05-03T10:40:26Z</time>
      </trkpt>
      <trkpt lat="43.66347" lon="3.8236">
        <ele>154</ele>
        <time>2016-05-03T10:40:28Z</time>
      </trkpt>
      <trkpt lat="43.66341" lon="3.82349">
        <ele>153.4</ele>
        <time>2016-05-03T10:40:30Z</time>
      </trkpt>
      <trkpt lat="43.66333" lon="3.82344">
        <ele>152.8</ele>
        <time>2016-05-03T10:40:32Z</time>
      </trkpt>
      <trkpt lat="43.66328" lon="3.82327">
        <ele>150.8</ele>
        <time>2016-05-03T10:40:34Z</time>
      </trkpt>
      <trkpt lat="43.66322" lon="3.82311">
        <ele>150.4</ele>
        <time>2016-05-03T10:40:36Z</time>
      </trkpt>
      <trkpt lat="43.66319" lon="3.82301">
        <ele>150.3</ele>
        <time>2016-05-03T10:40:38Z</time>
      </trkpt>
      <trkpt lat="43.66316" lon="3.8229">
        <ele>150.8</ele>
        <time>2016-05-03T10:40:40Z</time>
      </trkpt>
      <trkpt lat="43.66312" lon="3.82277">
        <ele>151</ele>
        <time>2016-05-03T10:40:43Z</time>
      </trkpt>
      <trkpt lat="43.66313" lon="3.82264">
        <ele>151.1</ele>
        <time>2016-05-03T10:40:46Z</time>
      </trkpt>
      <trkpt lat="43.66312" lon="3.82253">
        <ele>151.6</ele>
        <time>2016-05-03T10:40:49Z</time>
      </trkpt>
      <trkpt lat="43.66311" lon="3.82241">
        <ele>151.9</ele>
        <time>2016-05-03T10:40:52Z</time>
      </trkpt>
      <trkpt lat="43.66311" lon="3.8223">
        <ele>152.2</ele>
        <time>2016-05-03T10:40:54Z</time>
      </trkpt>
      <trkpt lat="43.6631" lon="3.82218">
        <ele>152.5</ele>
        <time>2016-05-03T10:40:57Z</time>
      </trkpt>
      <trkpt lat="43.66309" lon="3.82206">
        <ele>152.6</ele>
        <time>2016-05-03T10:41:00Z</time>
      </trkpt>
      <trkpt lat="43.66307" lon="3.82193">
        <ele>152.8</ele>
        <time>2016-05-03T10:41:03Z</time>
      </trkpt>
      <trkpt lat="43.66304" lon="3.82181">
        <ele>153.3</ele>
        <time>2016-05-03T10:41:05Z</time>
      </trkpt>
      <trkpt lat="43.663" lon="3.82172">
        <ele>153.6</ele>
        <time>2016-05-03T10:41:07Z</time>
      </trkpt>
      <trkpt lat="43.66296" lon="3.82163">
        <ele>155.2</ele>
        <time>2016-05-03T10:41:09Z</time>
      </trkpt>
      <trkpt lat="43.66291" lon="3.82154">
        <ele>155.8</ele>
        <time>2016-05-03T10:41:11Z</time>
      </trkpt>
      <trkpt lat="43.66284" lon="3.82142">
        <ele>156</ele>
        <time>2016-05-03T10:41:13Z</time>
      </trkpt>
      <trkpt lat="43.66276" lon="3.82127">
        <ele>155.5</ele>
        <time>2016-05-03T10:41:15Z</time>
      </trkpt>
      <trkpt lat="43.66271" lon="3.82113">
        <ele>155.5</ele>
        <time>2016-05-03T10:41:17Z</time>
      </trkpt>
      <trkpt lat="43.66267" lon="3.821">
        <ele>156.2</ele>
        <time>2016-05-03T10:41:19Z</time>
      </trkpt>
      <trkpt lat="43.6626" lon="3.82085">
        <ele>157.6</ele>
        <time>2016-05-03T10:41:21Z</time>
      </trkpt>
      <trkpt lat="43.66253" lon="3.82067">
        <ele>157.4</ele>
        <time>2016-05-03T10:41:23Z</time>
      </trkpt>
      <trkpt lat="43.66249" lon="3.82057">
        <ele>156</ele>
        <time>2016-05-03T10:41:24Z</time>
      </trkpt>
      <trkpt lat="43.66247" lon="3.82038">
        <ele>155.3</ele>
        <time>2016-05-03T10:41:26Z</time>
      </trkpt>
      <trkpt lat="43.66245" lon="3.82026">
        <ele>155.1</ele>
        <time>2016-05-03T10:41:28Z</time>
      </trkpt>
      <trkpt lat="43.66237" lon="3.8202">
        <ele>155.3</ele>
        <time>2016-05-03T10:41:30Z</time>
      </trkpt>
      <trkpt lat="43.66227" lon="3.82016">
        <ele>153.5</ele>
        <time>2016-05-03T10:41:32Z</time>
      </trkpt>
      <trkpt lat="43.66215" lon="3.82011">
        <ele>152.2</ele>
        <time>2016-05-03T10:41:34Z</time>
      </trkpt>
      <trkpt lat="43.66205" lon="3.82002">
        <ele>152.9</ele>
        <time>2016-05-03T10:41:36Z</time>
      </trkpt>
      <trkpt lat="43.66204" lon="3.8199">
        <ele>154.6</ele>
        <time>2016-05-03T10:41:38Z</time>
      </trkpt>
      <trkpt lat="43.66207" lon="3.81979">
        <ele>155.2</ele>
        <time>2016-05-03T10:41:40Z</time>
      </trkpt>
      <trkpt lat="43.66207" lon="3.81969">
        <ele>155.2</ele>
        <time>2016-05-03T10:41:42Z</time>
      </trkpt>
      <trkpt lat="43.66204" lon="3.81956">
        <ele>155.2</ele>
        <time>2016-05-03T10:41:45Z</time>
      </trkpt>
      <trkpt lat="43.66203" lon="3.81941">
        <ele>154.8</ele>
        <time>2016-05-03T10:41:48Z</time>
      </trkpt>
      <trkpt lat="43.66204" lon="3.81931">
        <ele>152.8</ele>
        <time>2016-05-03T10:41:50Z</time>
      </trkpt>
      <trkpt lat="43.66207" lon="3.81921">
        <ele>152.6</ele>
        <time>2016-05-03T10:41:52Z</time>
      </trkpt>
      <trkpt lat="43.66209" lon="3.81912">
        <ele>152.3</ele>
        <time>2016-05-03T10:41:54Z</time>
      </trkpt>
      <trkpt lat="43.66211" lon="3.81902">
        <ele>152.2</ele>
        <time>2016-05-03T10:41:56Z</time>
      </trkpt>
      <trkpt lat="43.66211" lon="3.81891">
        <ele>152.3</ele>
        <time>2016-05-03T10:41:58Z</time>
      </trkpt>
      <trkpt lat="43.66212" lon="3.81879">
        <ele>153.9</ele>
        <time>2016-05-03T10:42:00Z</time>
      </trkpt>
      <trkpt lat="43.66213" lon="3.81869">
        <ele>154.1</ele>
        <time>2016-05-03T10:42:02Z</time>
      </trkpt>
      <trkpt lat="43.66214" lon="3.81855">
        <ele>154.2</ele>
        <time>2016-05-03T10:42:04Z</time>
      </trkpt>
      <trkpt lat="43.66219" lon="3.81846">
        <ele>154.5</ele>
        <time>2016-05-03T10:42:06Z</time>
      </trkpt>
      <trkpt lat="43.66222" lon="3.81836">
        <ele>154.8</ele>
        <time>2016-05-03T10:42:09Z</time>
      </trkpt>
      <trkpt lat="43.6622" lon="3.81824">
        <ele>156.2</ele>
        <time>2016-05-03T10:42:12Z</time>
      </trkpt>
      <trkpt lat="43.66221" lon="3.81812">
        <ele>156.9</ele>
        <time>2016-05-03T10:42:14Z</time>
      </trkpt>
      <trkpt lat="43.66224" lon="3.81799">
        <ele>157.5</ele>
        <time>2016-05-03T10:42:16Z</time>
      </trkpt>
      <trkpt lat="43.66226" lon="3.81785">
        <ele>156.6</ele>
        <time>2016-05-03T10:42:19Z</time>
      </trkpt>
      <trkpt lat="43.66227" lon="3.81775">
        <ele>156.5</ele>
        <time>2016-05-03T10:42:22Z</time>
      </trkpt>
      <trkpt lat="43.66226" lon="3.81762">
        <ele>156.2</ele>
        <time>2016-05-03T10:42:25Z</time>
      </trkpt>
      <trkpt lat="43.66224" lon="3.81751">
        <ele>156</ele>
        <time>2016-05-03T10:42:28Z</time>
      </trkpt>
      <trkpt lat="43.66222" lon="3.81738">
        <ele>155.1</ele>
        <time>2016-05-03T10:42:30Z</time>
      </trkpt>
      <trkpt lat="43.66221" lon="3.81727">
        <ele>156</ele>
        <time>2016-05-03T10:42:33Z</time>
      </trkpt>
      <trkpt lat="43.6622" lon="3.81714">
        <ele>156.1</ele>
        <time>2016-05-03T10:42:35Z</time>
      </trkpt>
      <trkpt lat="43.6622" lon="3.81702">
        <ele>156.4</ele>
        <time>2016-05-03T10:42:38Z</time>
      </trkpt>
      <trkpt lat="43.66219" lon="3.81691">
        <ele>156.7</ele>
        <time>2016-05-03T10:42:40Z</time>
      </trkpt>
      <trkpt lat="43.66217" lon="3.81678">
        <ele>157</ele>
        <time>2016-05-03T10:42:43Z</time>
      </trkpt>
      <trkpt lat="43.66216" lon="3.81666">
        <ele>158.3</ele>
        <time>2016-05-03T10:42:46Z</time>
      </trkpt>
      <trkpt lat="43.66214" lon="3.81655">
        <ele>158</ele>
        <time>2016-05-03T10:42:48Z</time>
      </trkpt>
      <trkpt lat="43.66213" lon="3.8164">
        <ele>156</ele>
        <time>2016-05-03T10:42:50Z</time>
      </trkpt>
      <trkpt lat="43.66213" lon="3.81628">
        <ele>154.5</ele>
        <time>2016-05-03T10:42:52Z</time>
      </trkpt>
      <trkpt lat="43.66208" lon="3.81615">
        <ele>155.2</ele>
        <time>2016-05-03T10:42:55Z</time>
      </trkpt>
      <trkpt lat="43.66208" lon="3.81601">
        <ele>156.3</ele>
        <time>2016-05-03T10:42:57Z</time>
      </trkpt>
      <trkpt lat="43.66207" lon="3.81586">
        <ele>156.5</ele>
        <time>2016-05-03T10:42:59Z</time>
      </trkpt>
      <trkpt lat="43.66201" lon="3.81575">
        <ele>155.3</ele>
        <time>2016-05-03T10:43:02Z</time>
      </trkpt>
      <trkpt lat="43.66206" lon="3.81561">
        <ele>154.6</ele>
        <time>2016-05-03T10:43:04Z</time>
      </trkpt>
      <trkpt lat="43.66205" lon="3.81551">
        <ele>154.5</ele>
        <time>2016-05-03T10:43:06Z</time>
      </trkpt>
      <trkpt lat="43.66201" lon="3.81542">
        <ele>154.5</ele>
        <time>2016-05-03T10:43:09Z</time>
      </trkpt>
      <trkpt lat="43.66197" lon="3.8153">
        <ele>154.5</ele>
        <time>2016-05-03T10:43:11Z</time>
      </trkpt>
      <trkpt lat="43.66191" lon="3.81521">
        <ele>154</ele>
        <time>2016-05-03T10:43:13Z</time>
      </trkpt>
      <trkpt lat="43.66186" lon="3.81505">
        <ele>152.8</ele>
        <time>2016-05-03T10:43:15Z</time>
      </trkpt>
      <trkpt lat="43.66184" lon="3.8149">
        <ele>152.6</ele>
        <time>2016-05-03T10:43:17Z</time>
      </trkpt>
      <trkpt lat="43.66176" lon="3.8148">
        <ele>152</ele>
        <time>2016-05-03T10:43:20Z</time>
      </trkpt>
      <trkpt lat="43.66169" lon="3.81469">
        <ele>150</ele>
        <time>2016-05-03T10:43:22Z</time>
      </trkpt>
      <trkpt lat="43.66162" lon="3.81455">
        <ele>147.9</ele>
        <time>2016-05-03T10:43:24Z</time>
      </trkpt>
      <trkpt lat="43.66164" lon="3.81443">
        <ele>147</ele>
        <time>2016-05-03T10:43:26Z</time>
      </trkpt>
      <trkpt lat="43.66164" lon="3.81423">
        <ele>144.8</ele>
        <time>2016-05-03T10:43:29Z</time>
      </trkpt>
      <trkpt lat="43.66159" lon="3.81412">
        <ele>141.3</ele>
        <time>2016-05-03T10:43:31Z</time>
      </trkpt>
      <trkpt lat="43.66153" lon="3.81396">
        <ele>138.8</ele>
        <time>2016-05-03T10:43:33Z</time>
      </trkpt>
      <trkpt lat="43.66151" lon="3.81387">
        <ele>137.3</ele>
        <time>2016-05-03T10:43:34Z</time>
      </trkpt>
      <trkpt lat="43.66147" lon="3.81369">
        <ele>134.7</ele>
        <time>2016-05-03T10:43:36Z</time>
      </trkpt>
      <trkpt lat="43.66145" lon="3.81359">
        <ele>133.4</ele>
        <time>2016-05-03T10:43:37Z</time>
      </trkpt>
      <trkpt lat="43.66141" lon="3.81343">
        <ele>133.2</ele>
        <time>2016-05-03T10:43:39Z</time>
      </trkpt>
      <trkpt lat="43.66141" lon="3.8133">
        <ele>132.4</ele>
        <time>2016-05-03T10:43:41Z</time>
      </trkpt>
      <trkpt lat="43.66141" lon="3.81324">
        <ele>132.1</ele>
        <time>2016-05-03T10:43:48Z</time>
      </trkpt>
      <trkpt lat="43.66149" lon="3.81319">
        <ele>131.5</ele>
        <time>2016-05-03T10:43:28Z</time>
      </trkpt>
      <trkpt lat="43.66157" lon="3.81315">
        <ele>131.6</ele>
        <time>2016-05-03T10:44:36Z</time>
      </trkpt>
      <trkpt lat="43.66163" lon="3.8131">
        <ele>131.6</ele>
        <time>2016-05-03T10:44:40Z</time>
      </trkpt>
      <trkpt lat="43.66171" lon="3.81304">
        <ele>131.7</ele>
        <time>2016-05-03T10:44:43Z</time>
      </trkpt>
      <trkpt lat="43.66181" lon="3.81299">
        <ele>132</ele>
        <time>2016-05-03T10:44:47Z</time>
      </trkpt>
      <trkpt lat="43.66189" lon="3.81295">
        <ele>132.1</ele>
        <time>2016-05-03T10:44:51Z</time>
      </trkpt>
      <trkpt lat="43.66196" lon="3.8129">
        <ele>132</ele>
        <time>2016-05-03T10:44:55Z</time>
      </trkpt>
      <trkpt lat="43.66206" lon="3.81285">
        <ele>132.1</ele>
        <time>2016-05-03T10:44:59Z</time>
      </trkpt>
      <trkpt lat="43.66215" lon="3.81281">
        <ele>132.3</ele>
        <time>2016-05-03T10:45:03Z</time>
      </trkpt>
      <trkpt lat="43.66223" lon="3.81278">
        <ele>132.7</ele>
        <time>2016-05-03T10:45:07Z</time>
      </trkpt>
      <trkpt lat="43.66233" lon="3.81276">
        <ele>132.8</ele>
        <time>2016-05-03T10:45:11Z</time>
      </trkpt>
      <trkpt lat="43.66243" lon="3.81274">
        <ele>133</ele>
        <time>2016-05-03T10:45:15Z</time>
      </trkpt>
      <trkpt lat="43.6625" lon="3.81271">
        <ele>133.4</ele>
        <time>2016-05-03T10:45:19Z</time>
      </trkpt>
      <trkpt lat="43.66258" lon="3.81268">
        <ele>133.6</ele>
        <time>2016-05-03T10:45:22Z</time>
      </trkpt>
      <trkpt lat="43.66265" lon="3.81267">
        <ele>133.9</ele>
        <time>2016-05-03T10:45:25Z</time>
      </trkpt>
      <trkpt lat="43.66272" lon="3.81263">
        <ele>134.2</ele>
        <time>2016-05-03T10:45:28Z</time>
      </trkpt>
      <trkpt lat="43.66279" lon="3.81257">
        <ele>134.8</ele>
        <time>2016-05-03T10:45:32Z</time>
      </trkpt>
      <trkpt lat="43.66286" lon="3.81251">
        <ele>135.3</ele>
        <time>2016-05-03T10:45:36Z</time>
      </trkpt>
      <trkpt lat="43.66293" lon="3.81246">
        <ele>135.8</ele>
        <time>2016-05-03T10:45:40Z</time>
      </trkpt>
      <trkpt lat="43.66302" lon="3.81242">
        <ele>136.4</ele>
        <time>2016-05-03T10:45:44Z</time>
      </trkpt>
      <trkpt lat="43.6631" lon="3.81239">
        <ele>136.7</ele>
        <time>2016-05-03T10:45:48Z</time>
      </trkpt>
      <trkpt lat="43.66318" lon="3.81237">
        <ele>137</ele>
        <time>2016-05-03T10:45:52Z</time>
      </trkpt>
      <trkpt lat="43.66327" lon="3.81236">
        <ele>137.7</ele>
        <time>2016-05-03T10:45:56Z</time>
      </trkpt>
      <trkpt lat="43.66335" lon="3.81236">
        <ele>138.1</ele>
        <time>2016-05-03T10:46:00Z</time>
      </trkpt>
      <trkpt lat="43.66343" lon="3.81234">
        <ele>139.3</ele>
        <time>2016-05-03T10:46:05Z</time>
      </trkpt>
      <trkpt lat="43.6635" lon="3.81232">
        <ele>140.7</ele>
        <time>2016-05-03T10:46:09Z</time>
      </trkpt>
      <trkpt lat="43.66358" lon="3.81233">
        <ele>141.9</ele>
        <time>2016-05-03T10:46:14Z</time>
      </trkpt>
      <trkpt lat="43.66367" lon="3.81231">
        <ele>143</ele>
        <time>2016-05-03T10:46:19Z</time>
      </trkpt>
      <trkpt lat="43.66374" lon="3.81233">
        <ele>143.8</ele>
        <time>2016-05-03T10:46:23Z</time>
      </trkpt>
      <trkpt lat="43.66382" lon="3.81235">
        <ele>144.7</ele>
        <time>2016-05-03T10:46:27Z</time>
      </trkpt>
      <trkpt lat="43.66389" lon="3.81236">
        <ele>145.6</ele>
        <time>2016-05-03T10:46:31Z</time>
      </trkpt>
      <trkpt lat="43.66397" lon="3.81234">
        <ele>146.5</ele>
        <time>2016-05-03T10:46:35Z</time>
      </trkpt>
      <trkpt lat="43.66406" lon="3.81231">
        <ele>147.9</ele>
        <time>2016-05-03T10:46:40Z</time>
      </trkpt>
      <trkpt lat="43.66414" lon="3.8123">
        <ele>149.5</ele>
        <time>2016-05-03T10:46:44Z</time>
      </trkpt>
      <trkpt lat="43.66422" lon="3.81231">
        <ele>151.2</ele>
        <time>2016-05-03T10:46:48Z</time>
      </trkpt>
      <trkpt lat="43.6643" lon="3.81231">
        <ele>152.8</ele>
        <time>2016-05-03T10:46:52Z</time>
      </trkpt>
      <trkpt lat="43.66438" lon="3.8123">
        <ele>153.8</ele>
        <time>2016-05-03T10:46:56Z</time>
      </trkpt>
      <trkpt lat="43.66445" lon="3.8123">
        <ele>154.5</ele>
        <time>2016-05-03T10:46:59Z</time>
      </trkpt>
      <trkpt lat="43.66452" lon="3.81231">
        <ele>155.1</ele>
        <time>2016-05-03T10:47:02Z</time>
      </trkpt>
      <trkpt lat="43.66462" lon="3.81231">
        <ele>156</ele>
        <time>2016-05-03T10:47:06Z</time>
      </trkpt>
      <trkpt lat="43.66469" lon="3.81232">
        <ele>156.6</ele>
        <time>2016-05-03T10:47:09Z</time>
      </trkpt>
      <trkpt lat="43.66477" lon="3.81232">
        <ele>157.5</ele>
        <time>2016-05-03T10:47:13Z</time>
      </trkpt>
      <trkpt lat="43.66486" lon="3.81232">
        <ele>158.3</ele>
        <time>2016-05-03T10:47:17Z</time>
      </trkpt>
      <trkpt lat="43.66495" lon="3.81234">
        <ele>159.2</ele>
        <time>2016-05-03T10:47:21Z</time>
      </trkpt>
      <trkpt lat="43.66504" lon="3.81235">
        <ele>160.2</ele>
        <time>2016-05-03T10:47:25Z</time>
      </trkpt>
      <trkpt lat="43.66512" lon="3.81238">
        <ele>161.2</ele>
        <time>2016-05-03T10:47:29Z</time>
      </trkpt>
      <trkpt lat="43.66522" lon="3.81238">
        <ele>162.3</ele>
        <time>2016-05-03T10:47:34Z</time>
      </trkpt>
      <trkpt lat="43.66531" lon="3.81239">
        <ele>163.1</ele>
        <time>2016-05-03T10:47:38Z</time>
      </trkpt>
      <trkpt lat="43.66539" lon="3.81238">
        <ele>163.9</ele>
        <time>2016-05-03T10:47:41Z</time>
      </trkpt>
      <trkpt lat="43.66548" lon="3.81234">
        <ele>165</ele>
        <time>2016-05-03T10:47:45Z</time>
      </trkpt>
      <trkpt lat="43.66555" lon="3.81232">
        <ele>166.3</ele>
        <time>2016-05-03T10:47:49Z</time>
      </trkpt>
      <trkpt lat="43.66562" lon="3.81231">
        <ele>167.7</ele>
        <time>2016-05-03T10:47:53Z</time>
      </trkpt>
      <trkpt lat="43.66571" lon="3.81232">
        <ele>168.8</ele>
        <time>2016-05-03T10:47:56Z</time>
      </trkpt>
      <trkpt lat="43.66579" lon="3.81234">
        <ele>169.8</ele>
        <time>2016-05-03T10:48:00Z</time>
      </trkpt>
      <trkpt lat="43.66588" lon="3.81237">
        <ele>171.2</ele>
        <time>2016-05-03T10:48:04Z</time>
      </trkpt>
      <trkpt lat="43.66596" lon="3.81238">
        <ele>172</ele>
        <time>2016-05-03T10:48:07Z</time>
      </trkpt>
      <trkpt lat="43.66603" lon="3.81237">
        <ele>173.4</ele>
        <time>2016-05-03T10:48:12Z</time>
      </trkpt>
      <trkpt lat="43.66611" lon="3.81234">
        <ele>174.5</ele>
        <time>2016-05-03T10:48:18Z</time>
      </trkpt>
      <trkpt lat="43.66619" lon="3.81231">
        <ele>175.3</ele>
        <time>2016-05-03T10:48:23Z</time>
      </trkpt>
      <trkpt lat="43.66627" lon="3.81227">
        <ele>176.1</ele>
        <time>2016-05-03T10:48:28Z</time>
      </trkpt>
      <trkpt lat="43.66635" lon="3.81225">
        <ele>176.9</ele>
        <time>2016-05-03T10:48:33Z</time>
      </trkpt>
      <trkpt lat="43.66642" lon="3.81224">
        <ele>177.7</ele>
        <time>2016-05-03T10:48:38Z</time>
      </trkpt>
      <trkpt lat="43.66651" lon="3.81224">
        <ele>178.6</ele>
        <time>2016-05-03T10:48:42Z</time>
      </trkpt>
      <trkpt lat="43.6666" lon="3.81222">
        <ele>179.2</ele>
        <time>2016-05-03T10:48:47Z</time>
      </trkpt>
      <trkpt lat="43.66668" lon="3.8122">
        <ele>180.1</ele>
        <time>2016-05-03T10:48:53Z</time>
      </trkpt>
      <trkpt lat="43.66665" lon="3.81218">
        <ele>180.9</ele>
        <time>2016-05-03T10:49:00Z</time>
      </trkpt>
      <trkpt lat="43.66657" lon="3.81215">
        <ele>181.5</ele>
        <time>2016-05-03T10:49:05Z</time>
      </trkpt>
      <trkpt lat="43.66653" lon="3.81206">
        <ele>181.9</ele>
        <time>2016-05-03T10:49:09Z</time>
      </trkpt>
      <trkpt lat="43.66656" lon="3.81195">
        <ele>182.4</ele>
        <time>2016-05-03T10:49:15Z</time>
      </trkpt>
      <trkpt lat="43.6666" lon="3.81185">
        <ele>183</ele>
        <time>2016-05-03T10:49:20Z</time>
      </trkpt>
      <trkpt lat="43.66664" lon="3.81175">
        <ele>183.6</ele>
        <time>2016-05-03T10:49:24Z</time>
      </trkpt>
      <trkpt lat="43.66666" lon="3.81165">
        <ele>184.3</ele>
        <time>2016-05-03T10:49:28Z</time>
      </trkpt>
      <trkpt lat="43.6667" lon="3.81154">
        <ele>184.6</ele>
        <time>2016-05-03T10:49:32Z</time>
      </trkpt>
      <trkpt lat="43.66675" lon="3.81144">
        <ele>184.8</ele>
        <time>2016-05-03T10:49:36Z</time>
      </trkpt>
      <trkpt lat="43.66677" lon="3.81133">
        <ele>185.1</ele>
        <time>2016-05-03T10:49:40Z</time>
      </trkpt>
      <trkpt lat="43.66672" lon="3.81121">
        <ele>185.2</ele>
        <time>2016-05-03T10:49:45Z</time>
      </trkpt>
      <trkpt lat="43.66666" lon="3.81111">
        <ele>185.5</ele>
        <time>2016-05-03T10:49:49Z</time>
      </trkpt>
      <trkpt lat="43.66662" lon="3.811">
        <ele>185.8</ele>
        <time>2016-05-03T10:49:52Z</time>
      </trkpt>
      <trkpt lat="43.66656" lon="3.81089">
        <ele>186.4</ele>
        <time>2016-05-03T10:49:56Z</time>
      </trkpt>
      <trkpt lat="43.66653" lon="3.81079">
        <ele>186.6</ele>
        <time>2016-05-03T10:49:59Z</time>
      </trkpt>
      <trkpt lat="43.66652" lon="3.81066">
        <ele>186.9</ele>
        <time>2016-05-03T10:50:02Z</time>
      </trkpt>
      <trkpt lat="43.66652" lon="3.81054">
        <ele>187.1</ele>
        <time>2016-05-03T10:50:05Z</time>
      </trkpt>
      <trkpt lat="43.66654" lon="3.81043">
        <ele>187.1</ele>
        <time>2016-05-03T10:50:08Z</time>
      </trkpt>
      <trkpt lat="43.66653" lon="3.81031">
        <ele>187.2</ele>
        <time>2016-05-03T10:50:11Z</time>
      </trkpt>
      <trkpt lat="43.66651" lon="3.81019">
        <ele>187.5</ele>
        <time>2016-05-03T10:50:15Z</time>
      </trkpt>
      <trkpt lat="43.66647" lon="3.81009">
        <ele>187.7</ele>
        <time>2016-05-03T10:50:18Z</time>
      </trkpt>
      <trkpt lat="43.66643" lon="3.80997">
        <ele>187.8</ele>
        <time>2016-05-03T10:50:22Z</time>
      </trkpt>
      <trkpt lat="43.6664" lon="3.80987">
        <ele>187.8</ele>
        <time>2016-05-03T10:50:25Z</time>
      </trkpt>
      <trkpt lat="43.66637" lon="3.80975">
        <ele>188.1</ele>
        <time>2016-05-03T10:50:28Z</time>
      </trkpt>
      <trkpt lat="43.66634" lon="3.80962">
        <ele>188.5</ele>
        <time>2016-05-03T10:50:31Z</time>
      </trkpt>
      <trkpt lat="43.66631" lon="3.80951">
        <ele>188.8</ele>
        <time>2016-05-03T10:50:34Z</time>
      </trkpt>
      <trkpt lat="43.66628" lon="3.80939">
        <ele>189</ele>
        <time>2016-05-03T10:50:37Z</time>
      </trkpt>
      <trkpt lat="43.66624" lon="3.80928">
        <ele>189.2</ele>
        <time>2016-05-03T10:50:40Z</time>
      </trkpt>
      <trkpt lat="43.66622" lon="3.80916">
        <ele>189.6</ele>
        <time>2016-05-03T10:50:43Z</time>
      </trkpt>
      <trkpt lat="43.66619" lon="3.80904">
        <ele>189.8</ele>
        <time>2016-05-03T10:50:46Z</time>
      </trkpt>
      <trkpt lat="43.66616" lon="3.80893">
        <ele>190.3</ele>
        <time>2016-05-03T10:50:49Z</time>
      </trkpt>
      <trkpt lat="43.66614" lon="3.80882">
        <ele>190.6</ele>
        <time>2016-05-03T10:50:51Z</time>
      </trkpt>
      <trkpt lat="43.66611" lon="3.80869">
        <ele>191.7</ele>
        <time>2016-05-03T10:50:54Z</time>
      </trkpt>
      <trkpt lat="43.66609" lon="3.80854">
        <ele>192.3</ele>
        <time>2016-05-03T10:50:57Z</time>
      </trkpt>
      <trkpt lat="43.66608" lon="3.80843">
        <ele>192.1</ele>
        <time>2016-05-03T10:50:59Z</time>
      </trkpt>
      <trkpt lat="43.66607" lon="3.8083">
        <ele>192.6</ele>
        <time>2016-05-03T10:51:01Z</time>
      </trkpt>
      <trkpt lat="43.66606" lon="3.80818">
        <ele>192.3</ele>
        <time>2016-05-03T10:51:03Z</time>
      </trkpt>
      <trkpt lat="43.66605" lon="3.80807">
        <ele>192.1</ele>
        <time>2016-05-03T10:51:05Z</time>
      </trkpt>
      <trkpt lat="43.66604" lon="3.80795">
        <ele>191.8</ele>
        <time>2016-05-03T10:51:07Z</time>
      </trkpt>
      <trkpt lat="43.66603" lon="3.80782">
        <ele>193.1</ele>
        <time>2016-05-03T10:51:09Z</time>
      </trkpt>
      <trkpt lat="43.66601" lon="3.8077">
        <ele>193.4</ele>
        <time>2016-05-03T10:51:11Z</time>
      </trkpt>
      <trkpt lat="43.666" lon="3.80758">
        <ele>194</ele>
        <time>2016-05-03T10:51:13Z</time>
      </trkpt>
      <trkpt lat="43.66598" lon="3.80747">
        <ele>194.9</ele>
        <time>2016-05-03T10:51:15Z</time>
      </trkpt>
      <trkpt lat="43.66597" lon="3.80733">
        <ele>195.2</ele>
        <time>2016-05-03T10:51:17Z</time>
      </trkpt>
      <trkpt lat="43.66594" lon="3.80722">
        <ele>195.5</ele>
        <time>2016-05-03T10:51:19Z</time>
      </trkpt>
      <trkpt lat="43.66589" lon="3.80712">
        <ele>193.9</ele>
        <time>2016-05-03T10:51:21Z</time>
      </trkpt>
      <trkpt lat="43.66585" lon="3.80701">
        <ele>192.1</ele>
        <time>2016-05-03T10:51:23Z</time>
      </trkpt>
      <trkpt lat="43.6658" lon="3.80689">
        <ele>191.9</ele>
        <time>2016-05-03T10:51:25Z</time>
      </trkpt>
      <trkpt lat="43.66576" lon="3.80679">
        <ele>191.4</ele>
        <time>2016-05-03T10:51:27Z</time>
      </trkpt>
      <trkpt lat="43.6657" lon="3.80668">
        <ele>190.9</ele>
        <time>2016-05-03T10:51:29Z</time>
      </trkpt>
      <trkpt lat="43.66565" lon="3.80656">
        <ele>190.7</ele>
        <time>2016-05-03T10:51:31Z</time>
      </trkpt>
      <trkpt lat="43.66559" lon="3.80644">
        <ele>192.3</ele>
        <time>2016-05-03T10:51:33Z</time>
      </trkpt>
      <trkpt lat="43.66553" lon="3.80632">
        <ele>192.7</ele>
        <time>2016-05-03T10:51:35Z</time>
      </trkpt>
      <trkpt lat="43.66546" lon="3.80622">
        <ele>191.6</ele>
        <time>2016-05-03T10:51:37Z</time>
      </trkpt>
      <trkpt lat="43.66541" lon="3.80612">
        <ele>191.4</ele>
        <time>2016-05-03T10:51:39Z</time>
      </trkpt>
      <trkpt lat="43.66535" lon="3.80601">
        <ele>191.9</ele>
        <time>2016-05-03T10:51:41Z</time>
      </trkpt>
      <trkpt lat="43.66529" lon="3.8059">
        <ele>191.5</ele>
        <time>2016-05-03T10:51:43Z</time>
      </trkpt>
      <trkpt lat="43.66523" lon="3.80579">
        <ele>191.4</ele>
        <time>2016-05-03T10:51:45Z</time>
      </trkpt>
      <trkpt lat="43.66514" lon="3.80568">
        <ele>191.8</ele>
        <time>2016-05-03T10:51:47Z</time>
      </trkpt>
      <trkpt lat="43.66508" lon="3.80559">
        <ele>192.2</ele>
        <time>2016-05-03T10:51:49Z</time>
      </trkpt>
      <trkpt lat="43.665" lon="3.8055">
        <ele>191.9</ele>
        <time>2016-05-03T10:51:51Z</time>
      </trkpt>
      <trkpt lat="43.66493" lon="3.80541">
        <ele>192.1</ele>
        <time>2016-05-03T10:51:53Z</time>
      </trkpt>
      <trkpt lat="43.66485" lon="3.80532">
        <ele>192.9</ele>
        <time>2016-05-03T10:51:55Z</time>
      </trkpt>
      <trkpt lat="43.66477" lon="3.80525">
        <ele>192.4</ele>
        <time>2016-05-03T10:51:57Z</time>
      </trkpt>
      <trkpt lat="43.66469" lon="3.80518">
        <ele>192.2</ele>
        <time>2016-05-03T10:51:59Z</time>
      </trkpt>
      <trkpt lat="43.66462" lon="3.80512">
        <ele>191.6</ele>
        <time>2016-05-03T10:52:01Z</time>
      </trkpt>
      <trkpt lat="43.66454" lon="3.80506">
        <ele>192.4</ele>
        <time>2016-05-03T10:52:03Z</time>
      </trkpt>
      <trkpt lat="43.66446" lon="3.805">
        <ele>193.6</ele>
        <time>2016-05-03T10:52:05Z</time>
      </trkpt>
      <trkpt lat="43.66437" lon="3.80494">
        <ele>194.6</ele>
        <time>2016-05-03T10:52:07Z</time>
      </trkpt>
      <trkpt lat="43.66428" lon="3.80488">
        <ele>194.9</ele>
        <time>2016-05-03T10:52:09Z</time>
      </trkpt>
      <trkpt lat="43.66418" lon="3.8048">
        <ele>195.1</ele>
        <time>2016-05-03T10:52:11Z</time>
      </trkpt>
      <trkpt lat="43.66409" lon="3.80469">
        <ele>194.1</ele>
        <time>2016-05-03T10:52:13Z</time>
      </trkpt>
      <trkpt lat="43.664" lon="3.80459">
        <ele>193.8</ele>
        <time>2016-05-03T10:52:15Z</time>
      </trkpt>
      <trkpt lat="43.66391" lon="3.80452">
        <ele>192.8</ele>
        <time>2016-05-03T10:52:17Z</time>
      </trkpt>
      <trkpt lat="43.66382" lon="3.80445">
        <ele>192.2</ele>
        <time>2016-05-03T10:52:19Z</time>
      </trkpt>
      <trkpt lat="43.66371" lon="3.80439">
        <ele>191.4</ele>
        <time>2016-05-03T10:52:21Z</time>
      </trkpt>
      <trkpt lat="43.66363" lon="3.80431">
        <ele>191.1</ele>
        <time>2016-05-03T10:52:23Z</time>
      </trkpt>
      <trkpt lat="43.66355" lon="3.80426">
        <ele>189.6</ele>
        <time>2016-05-03T10:52:25Z</time>
      </trkpt>
      <trkpt lat="43.66344" lon="3.80418">
        <ele>189.8</ele>
        <time>2016-05-03T10:52:27Z</time>
      </trkpt>
      <trkpt lat="43.66336" lon="3.80411">
        <ele>189.1</ele>
        <time>2016-05-03T10:52:29Z</time>
      </trkpt>
      <trkpt lat="43.66328" lon="3.80402">
        <ele>189.8</ele>
        <time>2016-05-03T10:52:31Z</time>
      </trkpt>
      <trkpt lat="43.6632" lon="3.80393">
        <ele>190.6</ele>
        <time>2016-05-03T10:52:33Z</time>
      </trkpt>
      <trkpt lat="43.6631" lon="3.80385">
        <ele>189.7</ele>
        <time>2016-05-03T10:52:35Z</time>
      </trkpt>
      <trkpt lat="43.66301" lon="3.80374">
        <ele>189</ele>
        <time>2016-05-03T10:52:37Z</time>
      </trkpt>
      <trkpt lat="43.66292" lon="3.80366">
        <ele>188.5</ele>
        <time>2016-05-03T10:52:39Z</time>
      </trkpt>
      <trkpt lat="43.66283" lon="3.80359">
        <ele>188.7</ele>
        <time>2016-05-03T10:52:41Z</time>
      </trkpt>
      <trkpt lat="43.66273" lon="3.80348">
        <ele>188.8</ele>
        <time>2016-05-03T10:52:43Z</time>
      </trkpt>
      <trkpt lat="43.66263" lon="3.80341">
        <ele>189.9</ele>
        <time>2016-05-03T10:52:45Z</time>
      </trkpt>
      <trkpt lat="43.66255" lon="3.80335">
        <ele>190.5</ele>
        <time>2016-05-03T10:52:47Z</time>
      </trkpt>
      <trkpt lat="43.66247" lon="3.80327">
        <ele>190.6</ele>
        <time>2016-05-03T10:52:49Z</time>
      </trkpt>
      <trkpt lat="43.66237" lon="3.80318">
        <ele>190.5</ele>
        <time>2016-05-03T10:52:51Z</time>
      </trkpt>
      <trkpt lat="43.66227" lon="3.80309">
        <ele>191.8</ele>
        <time>2016-05-03T10:52:53Z</time>
      </trkpt>
      <trkpt lat="43.66217" lon="3.803">
        <ele>192.8</ele>
        <time>2016-05-03T10:52:55Z</time>
      </trkpt>
      <trkpt lat="43.66207" lon="3.80291">
        <ele>193.5</ele>
        <time>2016-05-03T10:52:57Z</time>
      </trkpt>
      <trkpt lat="43.66198" lon="3.80282">
        <ele>193.8</ele>
        <time>2016-05-03T10:52:59Z</time>
      </trkpt>
      <trkpt lat="43.66188" lon="3.80274">
        <ele>194.1</ele>
        <time>2016-05-03T10:53:01Z</time>
      </trkpt>
      <trkpt lat="43.66178" lon="3.80266">
        <ele>194.1</ele>
        <time>2016-05-03T10:53:03Z</time>
      </trkpt>
      <trkpt lat="43.66168" lon="3.80258">
        <ele>195</ele>
        <time>2016-05-03T10:53:05Z</time>
      </trkpt>
      <trkpt lat="43.66158" lon="3.8025">
        <ele>196.7</ele>
        <time>2016-05-03T10:53:07Z</time>
      </trkpt>
      <trkpt lat="43.66149" lon="3.80244">
        <ele>196.5</ele>
        <time>2016-05-03T10:53:09Z</time>
      </trkpt>
      <trkpt lat="43.6614" lon="3.80238">
        <ele>196.3</ele>
        <time>2016-05-03T10:53:11Z</time>
      </trkpt>
      <trkpt lat="43.66131" lon="3.80233">
        <ele>196.3</ele>
        <time>2016-05-03T10:53:13Z</time>
      </trkpt>
      <trkpt lat="43.66123" lon="3.80228">
        <ele>197.6</ele>
        <time>2016-05-03T10:53:15Z</time>
      </trkpt>
      <trkpt lat="43.66113" lon="3.80223">
        <ele>198.2</ele>
        <time>2016-05-03T10:53:17Z</time>
      </trkpt>
      <trkpt lat="43.66103" lon="3.80221">
        <ele>198</ele>
        <time>2016-05-03T10:53:19Z</time>
      </trkpt>
      <trkpt lat="43.66091" lon="3.80226">
        <ele>199</ele>
        <time>2016-05-03T10:53:21Z</time>
      </trkpt>
      <trkpt lat="43.6608" lon="3.80232">
        <ele>198.6</ele>
        <time>2016-05-03T10:53:23Z</time>
      </trkpt>
      <trkpt lat="43.66068" lon="3.80237">
        <ele>198.9</ele>
        <time>2016-05-03T10:53:25Z</time>
      </trkpt>
      <trkpt lat="43.66057" lon="3.8024">
        <ele>198.6</ele>
        <time>2016-05-03T10:53:27Z</time>
      </trkpt>
      <trkpt lat="43.66044" lon="3.80243">
        <ele>196</ele>
        <time>2016-05-03T10:53:29Z</time>
      </trkpt>
      <trkpt lat="43.66037" lon="3.80244">
        <ele>195.6</ele>
        <time>2016-05-03T10:53:30Z</time>
      </trkpt>
      <trkpt lat="43.66024" lon="3.80245">
        <ele>194.6</ele>
        <time>2016-05-03T10:53:32Z</time>
      </trkpt>
      <trkpt lat="43.66012" lon="3.80245">
        <ele>194.5</ele>
        <time>2016-05-03T10:53:34Z</time>
      </trkpt>
      <trkpt lat="43.66004" lon="3.80245">
        <ele>194.6</ele>
        <time>2016-05-03T10:53:35Z</time>
      </trkpt>
      <trkpt lat="43.65991" lon="3.80242">
        <ele>195.3</ele>
        <time>2016-05-03T10:53:37Z</time>
      </trkpt>
      <trkpt lat="43.65977" lon="3.80237">
        <ele>195</ele>
        <time>2016-05-03T10:53:39Z</time>
      </trkpt>
      <trkpt lat="43.6597" lon="3.80231">
        <ele>195.2</ele>
        <time>2016-05-03T10:53:40Z</time>
      </trkpt>
      <trkpt lat="43.65964" lon="3.80227">
        <ele>195.4</ele>
        <time>2016-05-03T10:53:41Z</time>
      </trkpt>
      <trkpt lat="43.65957" lon="3.80223">
        <ele>195.7</ele>
        <time>2016-05-03T10:53:42Z</time>
      </trkpt>
      <trkpt lat="43.65949" lon="3.80219">
        <ele>195.9</ele>
        <time>2016-05-03T10:53:43Z</time>
      </trkpt>
      <trkpt lat="43.65943" lon="3.80214">
        <ele>196.2</ele>
        <time>2016-05-03T10:53:44Z</time>
      </trkpt>
      <trkpt lat="43.6593" lon="3.80207">
        <ele>195.5</ele>
        <time>2016-05-03T10:53:46Z</time>
      </trkpt>
      <trkpt lat="43.65918" lon="3.802">
        <ele>193.7</ele>
        <time>2016-05-03T10:53:48Z</time>
      </trkpt>
      <trkpt lat="43.65911" lon="3.80196">
        <ele>192.9</ele>
        <time>2016-05-03T10:53:49Z</time>
      </trkpt>
      <trkpt lat="43.65899" lon="3.80188">
        <ele>191.6</ele>
        <time>2016-05-03T10:53:51Z</time>
      </trkpt>
      <trkpt lat="43.6589" lon="3.80176">
        <ele>189.9</ele>
        <time>2016-05-03T10:53:53Z</time>
      </trkpt>
      <trkpt lat="43.6588" lon="3.80162">
        <ele>189.1</ele>
        <time>2016-05-03T10:53:55Z</time>
      </trkpt>
      <trkpt lat="43.65874" lon="3.80154">
        <ele>188.9</ele>
        <time>2016-05-03T10:53:56Z</time>
      </trkpt>
      <trkpt lat="43.65866" lon="3.80141">
        <ele>189.6</ele>
        <time>2016-05-03T10:53:58Z</time>
      </trkpt>
      <trkpt lat="43.65857" lon="3.80125">
        <ele>191</ele>
        <time>2016-05-03T10:54:00Z</time>
      </trkpt>
      <trkpt lat="43.65849" lon="3.8011">
        <ele>191.2</ele>
        <time>2016-05-03T10:54:02Z</time>
      </trkpt>
      <trkpt lat="43.6584" lon="3.80096">
        <ele>190.1</ele>
        <time>2016-05-03T10:54:04Z</time>
      </trkpt>
      <trkpt lat="43.6583" lon="3.80081">
        <ele>188.4</ele>
        <time>2016-05-03T10:54:06Z</time>
      </trkpt>
      <trkpt lat="43.65825" lon="3.80073">
        <ele>187.2</ele>
        <time>2016-05-03T10:54:07Z</time>
      </trkpt>
      <trkpt lat="43.6582" lon="3.80066">
        <ele>186.1</ele>
        <time>2016-05-03T10:54:08Z</time>
      </trkpt>
      <trkpt lat="43.65814" lon="3.80059">
        <ele>184.9</ele>
        <time>2016-05-03T10:54:09Z</time>
      </trkpt>
      <trkpt lat="43.65807" lon="3.80047">
        <ele>183.9</ele>
        <time>2016-05-03T10:54:11Z</time>
      </trkpt>
      <trkpt lat="43.65799" lon="3.80036">
        <ele>182.6</ele>
        <time>2016-05-03T10:54:13Z</time>
      </trkpt>
      <trkpt lat="43.65793" lon="3.80025">
        <ele>181</ele>
        <time>2016-05-03T10:54:15Z</time>
      </trkpt>
      <trkpt lat="43.65789" lon="3.80007">
        <ele>179.8</ele>
        <time>2016-05-03T10:54:19Z</time>
      </trkpt>
      <trkpt lat="43.65787" lon="3.79994">
        <ele>179.5</ele>
        <time>2016-05-03T10:54:22Z</time>
      </trkpt>
      <trkpt lat="43.65784" lon="3.79982">
        <ele>179.6</ele>
        <time>2016-05-03T10:54:27Z</time>
      </trkpt>
      <trkpt lat="43.6578" lon="3.79971">
        <ele>179.9</ele>
        <time>2016-05-03T10:54:32Z</time>
      </trkpt>
      <trkpt lat="43.65778" lon="3.79958">
        <ele>180.2</ele>
        <time>2016-05-03T10:54:36Z</time>
      </trkpt>
      <trkpt lat="43.65774" lon="3.79947">
        <ele>180.4</ele>
        <time>2016-05-03T10:54:40Z</time>
      </trkpt>
      <trkpt lat="43.65773" lon="3.79936">
        <ele>180.8</ele>
        <time>2016-05-03T10:54:44Z</time>
      </trkpt>
      <trkpt lat="43.65771" lon="3.79925">
        <ele>181.3</ele>
        <time>2016-05-03T10:54:48Z</time>
      </trkpt>
      <trkpt lat="43.65768" lon="3.79913">
        <ele>182</ele>
        <time>2016-05-03T10:54:52Z</time>
      </trkpt>
      <trkpt lat="43.65766" lon="3.79902">
        <ele>182.5</ele>
        <time>2016-05-03T10:54:56Z</time>
      </trkpt>
      <trkpt lat="43.65762" lon="3.79894">
        <ele>182.8</ele>
        <time>2016-05-03T10:54:59Z</time>
      </trkpt>
      <trkpt lat="43.65759" lon="3.79885">
        <ele>183.1</ele>
        <time>2016-05-03T10:55:02Z</time>
      </trkpt>
      <trkpt lat="43.65755" lon="3.79874">
        <ele>183.4</ele>
        <time>2016-05-03T10:55:06Z</time>
      </trkpt>
      <trkpt lat="43.6575" lon="3.79865">
        <ele>184</ele>
        <time>2016-05-03T10:55:11Z</time>
      </trkpt>
      <trkpt lat="43.65743" lon="3.79861">
        <ele>184.2</ele>
        <time>2016-05-03T10:55:16Z</time>
      </trkpt>
      <trkpt lat="43.65734" lon="3.79861">
        <ele>184.4</ele>
        <time>2016-05-03T10:55:20Z</time>
      </trkpt>
      <trkpt lat="43.65726" lon="3.79857">
        <ele>184.7</ele>
        <time>2016-05-03T10:55:24Z</time>
      </trkpt>
      <trkpt lat="43.6572" lon="3.79852">
        <ele>184.8</ele>
        <time>2016-05-03T10:55:27Z</time>
      </trkpt>
      <trkpt lat="43.65712" lon="3.79846">
        <ele>185.1</ele>
        <time>2016-05-03T10:55:30Z</time>
      </trkpt>
      <trkpt lat="43.65704" lon="3.79841">
        <ele>185.5</ele>
        <time>2016-05-03T10:55:33Z</time>
      </trkpt>
      <trkpt lat="43.65695" lon="3.79836">
        <ele>185.8</ele>
        <time>2016-05-03T10:55:36Z</time>
      </trkpt>
      <trkpt lat="43.65687" lon="3.79831">
        <ele>186</ele>
        <time>2016-05-03T10:55:39Z</time>
      </trkpt>
      <trkpt lat="43.65677" lon="3.79823">
        <ele>186.6</ele>
        <time>2016-05-03T10:55:42Z</time>
      </trkpt>
      <trkpt lat="43.6567" lon="3.79818">
        <ele>186.9</ele>
        <time>2016-05-03T10:55:44Z</time>
      </trkpt>
      <trkpt lat="43.65662" lon="3.79811">
        <ele>187.4</ele>
        <time>2016-05-03T10:55:47Z</time>
      </trkpt>
      <trkpt lat="43.65656" lon="3.79806">
        <ele>187.6</ele>
        <time>2016-05-03T10:55:49Z</time>
      </trkpt>
      <trkpt lat="43.65649" lon="3.79802">
        <ele>190.1</ele>
        <time>2016-05-03T10:55:51Z</time>
      </trkpt>
      <trkpt lat="43.65642" lon="3.79796">
        <ele>192.3</ele>
        <time>2016-05-03T10:55:53Z</time>
      </trkpt>
      <trkpt lat="43.65634" lon="3.7979">
        <ele>193.4</ele>
        <time>2016-05-03T10:55:55Z</time>
      </trkpt>
      <trkpt lat="43.65626" lon="3.79785">
        <ele>192.1</ele>
        <time>2016-05-03T10:55:58Z</time>
      </trkpt>
      <trkpt lat="43.65618" lon="3.79779">
        <ele>191.5</ele>
        <time>2016-05-03T10:55:59Z</time>
      </trkpt>
      <trkpt lat="43.65607" lon="3.79773">
        <ele>189.4</ele>
        <time>2016-05-03T10:56:01Z</time>
      </trkpt>
      <trkpt lat="43.65596" lon="3.79766">
        <ele>187.9</ele>
        <time>2016-05-03T10:56:03Z</time>
      </trkpt>
      <trkpt lat="43.65584" lon="3.79759">
        <ele>187.4</ele>
        <time>2016-05-03T10:56:05Z</time>
      </trkpt>
      <trkpt lat="43.65571" lon="3.79752">
        <ele>186.9</ele>
        <time>2016-05-03T10:56:07Z</time>
      </trkpt>
      <trkpt lat="43.65558" lon="3.79742">
        <ele>185.9</ele>
        <time>2016-05-03T10:56:09Z</time>
      </trkpt>
      <trkpt lat="43.65553" lon="3.79734">
        <ele>185.8</ele>
        <time>2016-05-03T10:56:10Z</time>
      </trkpt>
      <trkpt lat="43.65548" lon="3.79725">
        <ele>185.1</ele>
        <time>2016-05-03T10:56:11Z</time>
      </trkpt>
      <trkpt lat="43.65543" lon="3.79714">
        <ele>185.1</ele>
        <time>2016-05-03T10:56:12Z</time>
      </trkpt>
      <trkpt lat="43.6554" lon="3.79704">
        <ele>184.9</ele>
        <time>2016-05-03T10:56:13Z</time>
      </trkpt>
      <trkpt lat="43.65535" lon="3.7969">
        <ele>184.9</ele>
        <time>2016-05-03T10:56:15Z</time>
      </trkpt>
      <trkpt lat="43.65531" lon="3.79675">
        <ele>184.6</ele>
        <time>2016-05-03T10:56:17Z</time>
      </trkpt>
      <trkpt lat="43.65527" lon="3.79663">
        <ele>184.2</ele>
        <time>2016-05-03T10:56:19Z</time>
      </trkpt>
      <trkpt lat="43.65524" lon="3.79652">
        <ele>184.1</ele>
        <time>2016-05-03T10:56:21Z</time>
      </trkpt>
      <trkpt lat="43.65522" lon="3.7964">
        <ele>184.1</ele>
        <time>2016-05-03T10:56:23Z</time>
      </trkpt>
      <trkpt lat="43.65518" lon="3.79629">
        <ele>184.3</ele>
        <time>2016-05-03T10:56:25Z</time>
      </trkpt>
      <trkpt lat="43.65514" lon="3.79619">
        <ele>184.1</ele>
        <time>2016-05-03T10:56:27Z</time>
      </trkpt>
      <trkpt lat="43.65506" lon="3.79611">
        <ele>184</ele>
        <time>2016-05-03T10:56:30Z</time>
      </trkpt>
      <trkpt lat="43.655" lon="3.79606">
        <ele>184.2</ele>
        <time>2016-05-03T10:56:33Z</time>
      </trkpt>
      <trkpt lat="43.65493" lon="3.79597">
        <ele>184.4</ele>
        <time>2016-05-03T10:56:36Z</time>
      </trkpt>
      <trkpt lat="43.65486" lon="3.79587">
        <ele>184.6</ele>
        <time>2016-05-03T10:56:39Z</time>
      </trkpt>
      <trkpt lat="43.65481" lon="3.79579">
        <ele>184.8</ele>
        <time>2016-05-03T10:56:41Z</time>
      </trkpt>
      <trkpt lat="43.65475" lon="3.7957">
        <ele>184.9</ele>
        <time>2016-05-03T10:56:44Z</time>
      </trkpt>
      <trkpt lat="43.6547" lon="3.79562">
        <ele>185.1</ele>
        <time>2016-05-03T10:56:47Z</time>
      </trkpt>
      <trkpt lat="43.65464" lon="3.79555">
        <ele>185</ele>
        <time>2016-05-03T10:56:50Z</time>
      </trkpt>
      <trkpt lat="43.65458" lon="3.79547">
        <ele>185.1</ele>
        <time>2016-05-03T10:56:53Z</time>
      </trkpt>
      <trkpt lat="43.65451" lon="3.7954">
        <ele>185.3</ele>
        <time>2016-05-03T10:56:57Z</time>
      </trkpt>
      <trkpt lat="43.65443" lon="3.79532">
        <ele>185.7</ele>
        <time>2016-05-03T10:57:01Z</time>
      </trkpt>
      <trkpt lat="43.65434" lon="3.79525">
        <ele>186.1</ele>
        <time>2016-05-03T10:57:04Z</time>
      </trkpt>
      <trkpt lat="43.65427" lon="3.7952">
        <ele>186.3</ele>
        <time>2016-05-03T10:57:06Z</time>
      </trkpt>
      <trkpt lat="43.65418" lon="3.79511">
        <ele>189.2</ele>
        <time>2016-05-03T10:57:09Z</time>
      </trkpt>
      <trkpt lat="43.65411" lon="3.79503">
        <ele>189.5</ele>
        <time>2016-05-03T10:57:11Z</time>
      </trkpt>
      <trkpt lat="43.65397" lon="3.79497">
        <ele>187.9</ele>
        <time>2016-05-03T10:57:13Z</time>
      </trkpt>
      <trkpt lat="43.65389" lon="3.79498">
        <ele>187.6</ele>
        <time>2016-05-03T10:57:14Z</time>
      </trkpt>
      <trkpt lat="43.65381" lon="3.79498">
        <ele>187.3</ele>
        <time>2016-05-03T10:57:15Z</time>
      </trkpt>
      <trkpt lat="43.65371" lon="3.79499">
        <ele>186.7</ele>
        <time>2016-05-03T10:57:16Z</time>
      </trkpt>
      <trkpt lat="43.65361" lon="3.79499">
        <ele>186.1</ele>
        <time>2016-05-03T10:57:17Z</time>
      </trkpt>
      <trkpt lat="43.6535" lon="3.79499">
        <ele>185.1</ele>
        <time>2016-05-03T10:57:18Z</time>
      </trkpt>
      <trkpt lat="43.65339" lon="3.79499">
        <ele>184</ele>
        <time>2016-05-03T10:57:19Z</time>
      </trkpt>
      <trkpt lat="43.65329" lon="3.79498">
        <ele>182.7</ele>
        <time>2016-05-03T10:57:20Z</time>
      </trkpt>
      <trkpt lat="43.65319" lon="3.79497">
        <ele>181.3</ele>
        <time>2016-05-03T10:57:21Z</time>
      </trkpt>
      <trkpt lat="43.65308" lon="3.79494">
        <ele>180.3</ele>
        <time>2016-05-03T10:57:22Z</time>
      </trkpt>
      <trkpt lat="43.65296" lon="3.79492">
        <ele>178.5</ele>
        <time>2016-05-03T10:57:23Z</time>
      </trkpt>
      <trkpt lat="43.65285" lon="3.79484">
        <ele>177.5</ele>
        <time>2016-05-03T10:57:24Z</time>
      </trkpt>
      <trkpt lat="43.65276" lon="3.79476">
        <ele>176.3</ele>
        <time>2016-05-03T10:57:25Z</time>
      </trkpt>
      <trkpt lat="43.65269" lon="3.79464">
        <ele>175.3</ele>
        <time>2016-05-03T10:57:26Z</time>
      </trkpt>
      <trkpt lat="43.65261" lon="3.79452">
        <ele>174.1</ele>
        <time>2016-05-03T10:57:27Z</time>
      </trkpt>
      <trkpt lat="43.65252" lon="3.79446">
        <ele>173.2</ele>
        <time>2016-05-03T10:57:28Z</time>
      </trkpt>
      <trkpt lat="43.65244" lon="3.7944">
        <ele>172.4</ele>
        <time>2016-05-03T10:57:29Z</time>
      </trkpt>
      <trkpt lat="43.65237" lon="3.79436">
        <ele>171.2</ele>
        <time>2016-05-03T10:57:30Z</time>
      </trkpt>
      <trkpt lat="43.65229" lon="3.79429">
        <ele>170.8</ele>
        <time>2016-05-03T10:57:31Z</time>
      </trkpt>
      <trkpt lat="43.65221" lon="3.79421">
        <ele>169.8</ele>
        <time>2016-05-03T10:57:32Z</time>
      </trkpt>
      <trkpt lat="43.65215" lon="3.79413">
        <ele>168.8</ele>
        <time>2016-05-03T10:57:33Z</time>
      </trkpt>
      <trkpt lat="43.65208" lon="3.79406">
        <ele>168.3</ele>
        <time>2016-05-03T10:57:34Z</time>
      </trkpt>
      <trkpt lat="43.65203" lon="3.79399">
        <ele>168.1</ele>
        <time>2016-05-03T10:57:35Z</time>
      </trkpt>
      <trkpt lat="43.65198" lon="3.79392">
        <ele>168.4</ele>
        <time>2016-05-03T10:57:36Z</time>
      </trkpt>
      <trkpt lat="43.65192" lon="3.79376">
        <ele>168.3</ele>
        <time>2016-05-03T10:57:38Z</time>
      </trkpt>
      <trkpt lat="43.65182" lon="3.79362">
        <ele>169.2</ele>
        <time>2016-05-03T10:57:40Z</time>
      </trkpt>
      <trkpt lat="43.65176" lon="3.79355">
        <ele>169.8</ele>
        <time>2016-05-03T10:57:41Z</time>
      </trkpt>
      <trkpt lat="43.65172" lon="3.79346">
        <ele>169.3</ele>
        <time>2016-05-03T10:57:42Z</time>
      </trkpt>
      <trkpt lat="43.65168" lon="3.79335">
        <ele>167.8</ele>
        <time>2016-05-03T10:57:44Z</time>
      </trkpt>
      <trkpt lat="43.65166" lon="3.79326">
        <ele>167.5</ele>
        <time>2016-05-03T10:57:51Z</time>
      </trkpt>
      <trkpt lat="43.65171" lon="3.79314">
        <ele>167.1</ele>
        <time>2016-05-03T10:57:55Z</time>
      </trkpt>
      <trkpt lat="43.65173" lon="3.79304">
        <ele>165.5</ele>
        <time>2016-05-03T10:57:57Z</time>
      </trkpt>
      <trkpt lat="43.65176" lon="3.7929">
        <ele>164.5</ele>
        <time>2016-05-03T10:57:59Z</time>
      </trkpt>
      <trkpt lat="43.6518" lon="3.79273">
        <ele>162.8</ele>
        <time>2016-05-03T10:58:01Z</time>
      </trkpt>
      <trkpt lat="43.65182" lon="3.79261">
        <ele>162.2</ele>
        <time>2016-05-03T10:58:02Z</time>
      </trkpt>
      <trkpt lat="43.65187" lon="3.79246">
        <ele>158.6</ele>
        <time>2016-05-03T10:58:04Z</time>
      </trkpt>
      <trkpt lat="43.65196" lon="3.79233">
        <ele>155.4</ele>
        <time>2016-05-03T10:58:06Z</time>
      </trkpt>
      <trkpt lat="43.652" lon="3.79222">
        <ele>154.2</ele>
        <time>2016-05-03T10:58:08Z</time>
      </trkpt>
      <trkpt lat="43.65204" lon="3.79213">
        <ele>154.2</ele>
        <time>2016-05-03T10:58:10Z</time>
      </trkpt>
      <trkpt lat="43.65215" lon="3.79201">
        <ele>153.2</ele>
        <time>2016-05-03T10:58:12Z</time>
      </trkpt>
      <trkpt lat="43.65221" lon="3.79191">
        <ele>151.3</ele>
        <time>2016-05-03T10:58:14Z</time>
      </trkpt>
      <trkpt lat="43.65228" lon="3.79185">
        <ele>150.8</ele>
        <time>2016-05-03T10:58:17Z</time>
      </trkpt>
      <trkpt lat="43.65233" lon="3.79174">
        <ele>150.2</ele>
        <time>2016-05-03T10:58:20Z</time>
      </trkpt>
      <trkpt lat="43.65239" lon="3.79161">
        <ele>149.4</ele>
        <time>2016-05-03T10:58:23Z</time>
      </trkpt>
      <trkpt lat="43.65248" lon="3.79158">
        <ele>148.7</ele>
        <time>2016-05-03T10:58:25Z</time>
      </trkpt>
      <trkpt lat="43.65254" lon="3.79152">
        <ele>147.6</ele>
        <time>2016-05-03T10:58:28Z</time>
      </trkpt>
      <trkpt lat="43.65258" lon="3.7914">
        <ele>146.1</ele>
        <time>2016-05-03T10:58:32Z</time>
      </trkpt>
      <trkpt lat="43.65255" lon="3.79126">
        <ele>144.6</ele>
        <time>2016-05-03T10:58:35Z</time>
      </trkpt>
      <trkpt lat="43.65256" lon="3.79117">
        <ele>141.8</ele>
        <time>2016-05-03T10:58:42Z</time>
      </trkpt>
      <trkpt lat="43.65252" lon="3.79108">
        <ele>138.8</ele>
        <time>2016-05-03T10:58:53Z</time>
      </trkpt>
      <trkpt lat="43.65246" lon="3.79101">
        <ele>133.4</ele>
        <time>2016-05-03T10:58:55Z</time>
      </trkpt>
      <trkpt lat="43.65236" lon="3.79093">
        <ele>125.5</ele>
        <time>2016-05-03T10:58:57Z</time>
      </trkpt>
      <trkpt lat="43.65228" lon="3.79088">
        <ele>121.1</ele>
        <time>2016-05-03T10:58:59Z</time>
      </trkpt>
      <trkpt lat="43.65218" lon="3.79084">
        <ele>118.4</ele>
        <time>2016-05-03T10:59:01Z</time>
      </trkpt>
      <trkpt lat="43.65211" lon="3.79079">
        <ele>114.6</ele>
        <time>2016-05-03T10:59:03Z</time>
      </trkpt>
      <trkpt lat="43.652" lon="3.79077">
        <ele>112.4</ele>
        <time>2016-05-03T10:59:05Z</time>
      </trkpt>
      <trkpt lat="43.65194" lon="3.79068">
        <ele>111.7</ele>
        <time>2016-05-03T10:59:07Z</time>
      </trkpt>
      <trkpt lat="43.6519" lon="3.79058">
        <ele>111.4</ele>
        <time>2016-05-03T10:59:11Z</time>
      </trkpt>
      <trkpt lat="43.65181" lon="3.79058">
        <ele>111.1</ele>
        <time>2016-05-03T10:59:15Z</time>
      </trkpt>
      <trkpt lat="43.65171" lon="3.79055">
        <ele>110.7</ele>
        <time>2016-05-03T10:59:19Z</time>
      </trkpt>
      <trkpt lat="43.65162" lon="3.79056">
        <ele>110.4</ele>
        <time>2016-05-03T10:59:22Z</time>
      </trkpt>
      <trkpt lat="43.65152" lon="3.79055">
        <ele>109.1</ele>
        <time>2016-05-03T10:59:25Z</time>
      </trkpt>
      <trkpt lat="43.65143" lon="3.79055">
        <ele>108.8</ele>
        <time>2016-05-03T10:59:28Z</time>
      </trkpt>
      <trkpt lat="43.65135" lon="3.79055">
        <ele>108.6</ele>
        <time>2016-05-03T10:59:30Z</time>
      </trkpt>
      <trkpt lat="43.65127" lon="3.79056">
        <ele>108.5</ele>
        <time>2016-05-03T10:59:32Z</time>
      </trkpt>
      <trkpt lat="43.6512" lon="3.79058">
        <ele>108.2</ele>
        <time>2016-05-03T10:59:34Z</time>
      </trkpt>
      <trkpt lat="43.6511" lon="3.79063">
        <ele>109.1</ele>
        <time>2016-05-03T10:59:37Z</time>
      </trkpt>
      <trkpt lat="43.65102" lon="3.79067">
        <ele>110.5</ele>
        <time>2016-05-03T10:59:39Z</time>
      </trkpt>
      <trkpt lat="43.65096" lon="3.79072">
        <ele>111.6</ele>
        <time>2016-05-03T10:59:41Z</time>
      </trkpt>
      <trkpt lat="43.65086" lon="3.79079">
        <ele>113.3</ele>
        <time>2016-05-03T10:59:44Z</time>
      </trkpt>
      <trkpt lat="43.65077" lon="3.79082">
        <ele>113.2</ele>
        <time>2016-05-03T10:59:47Z</time>
      </trkpt>
      <trkpt lat="43.65072" lon="3.79074">
        <ele>113.4</ele>
        <time>2016-05-03T10:59:50Z</time>
      </trkpt>
      <trkpt lat="43.65077" lon="3.79063">
        <ele>111.8</ele>
        <time>2016-05-03T10:59:52Z</time>
      </trkpt>
      <trkpt lat="43.65083" lon="3.79055">
        <ele>108.7</ele>
        <time>2016-05-03T10:59:54Z</time>
      </trkpt>
      <trkpt lat="43.65089" lon="3.79043">
        <ele>106.5</ele>
        <time>2016-05-03T10:59:56Z</time>
      </trkpt>
      <trkpt lat="43.65094" lon="3.7903">
        <ele>105.8</ele>
        <time>2016-05-03T10:59:58Z</time>
      </trkpt>
      <trkpt lat="43.65099" lon="3.79015">
        <ele>105.3</ele>
        <time>2016-05-03T11:00:00Z</time>
      </trkpt>
      <trkpt lat="43.65098" lon="3.79">
        <ele>104.6</ele>
        <time>2016-05-03T11:00:02Z</time>
      </trkpt>
      <trkpt lat="43.65098" lon="3.78984">
        <ele>104.5</ele>
        <time>2016-05-03T11:00:04Z</time>
      </trkpt>
      <trkpt lat="43.65096" lon="3.78973">
        <ele>104.4</ele>
        <time>2016-05-03T11:00:06Z</time>
      </trkpt>
      <trkpt lat="43.65092" lon="3.78963">
        <ele>104.4</ele>
        <time>2016-05-03T11:00:08Z</time>
      </trkpt>
      <trkpt lat="43.65089" lon="3.78954">
        <ele>104.3</ele>
        <time>2016-05-03T11:00:10Z</time>
      </trkpt>
      <trkpt lat="43.65085" lon="3.78945">
        <ele>104.2</ele>
        <time>2016-05-03T11:00:12Z</time>
      </trkpt>
      <trkpt lat="43.6508" lon="3.78934">
        <ele>104.4</ele>
        <time>2016-05-03T11:00:14Z</time>
      </trkpt>
      <trkpt lat="43.65075" lon="3.78925">
        <ele>104.4</ele>
        <time>2016-05-03T11:00:16Z</time>
      </trkpt>
      <trkpt lat="43.6507" lon="3.78915">
        <ele>104.5</ele>
        <time>2016-05-03T11:00:18Z</time>
      </trkpt>
      <trkpt lat="43.65067" lon="3.78906">
        <ele>104.7</ele>
        <time>2016-05-03T11:00:20Z</time>
      </trkpt>
      <trkpt lat="43.65059" lon="3.78906">
        <ele>105.5</ele>
        <time>2016-05-03T11:00:23Z</time>
      </trkpt>
      <trkpt lat="43.65051" lon="3.78912">
        <ele>106.5</ele>
        <time>2016-05-03T11:00:25Z</time>
      </trkpt>
      <trkpt lat="43.65042" lon="3.78919">
        <ele>105.7</ele>
        <time>2016-05-03T11:00:27Z</time>
      </trkpt>
      <trkpt lat="43.6504" lon="3.78931">
        <ele>105.6</ele>
        <time>2016-05-03T11:00:30Z</time>
      </trkpt>
      <trkpt lat="43.65032" lon="3.78941">
        <ele>105.3</ele>
        <time>2016-05-03T11:00:33Z</time>
      </trkpt>
      <trkpt lat="43.65025" lon="3.78946">
        <ele>105.2</ele>
        <time>2016-05-03T11:00:35Z</time>
      </trkpt>
      <trkpt lat="43.65018" lon="3.78953">
        <ele>105.2</ele>
        <time>2016-05-03T11:00:37Z</time>
      </trkpt>
      <trkpt lat="43.65011" lon="3.7896">
        <ele>104.3</ele>
        <time>2016-05-03T11:00:39Z</time>
      </trkpt>
      <trkpt lat="43.65004" lon="3.78965">
        <ele>103.8</ele>
        <time>2016-05-03T11:00:41Z</time>
      </trkpt>
      <trkpt lat="43.64997" lon="3.78973">
        <ele>104.1</ele>
        <time>2016-05-03T11:00:43Z</time>
      </trkpt>
      <trkpt lat="43.64989" lon="3.78979">
        <ele>103.8</ele>
        <time>2016-05-03T11:00:45Z</time>
      </trkpt>
      <trkpt lat="43.64979" lon="3.78988">
        <ele>103.7</ele>
        <time>2016-05-03T11:00:48Z</time>
      </trkpt>
      <trkpt lat="43.6497" lon="3.78995">
        <ele>104.5</ele>
        <time>2016-05-03T11:00:50Z</time>
      </trkpt>
      <trkpt lat="43.64962" lon="3.79">
        <ele>104.3</ele>
        <time>2016-05-03T11:00:52Z</time>
      </trkpt>
      <trkpt lat="43.64953" lon="3.79004">
        <ele>103.4</ele>
        <time>2016-05-03T11:00:54Z</time>
      </trkpt>
      <trkpt lat="43.64945" lon="3.79012">
        <ele>103.5</ele>
        <time>2016-05-03T11:00:56Z</time>
      </trkpt>
      <trkpt lat="43.64938" lon="3.79018">
        <ele>104.5</ele>
        <time>2016-05-03T11:00:58Z</time>
      </trkpt>
      <trkpt lat="43.64929" lon="3.79025">
        <ele>104.6</ele>
        <time>2016-05-03T11:01:00Z</time>
      </trkpt>
      <trkpt lat="43.64921" lon="3.7903">
        <ele>104.8</ele>
        <time>2016-05-03T11:01:02Z</time>
      </trkpt>
      <trkpt lat="43.64914" lon="3.79034">
        <ele>104.8</ele>
        <time>2016-05-03T11:01:04Z</time>
      </trkpt>
      <trkpt lat="43.64906" lon="3.79039">
        <ele>105</ele>
        <time>2016-05-03T11:01:06Z</time>
      </trkpt>
      <trkpt lat="43.64899" lon="3.79044">
        <ele>105.1</ele>
        <time>2016-05-03T11:01:08Z</time>
      </trkpt>
      <trkpt lat="43.6489" lon="3.79051">
        <ele>105.3</ele>
        <time>2016-05-03T11:01:11Z</time>
      </trkpt>
      <trkpt lat="43.64882" lon="3.79057">
        <ele>106.3</ele>
        <time>2016-05-03T11:01:13Z</time>
      </trkpt>
      <trkpt lat="43.64874" lon="3.79063">
        <ele>106.7</ele>
        <time>2016-05-03T11:01:15Z</time>
      </trkpt>
      <trkpt lat="43.64865" lon="3.7907">
        <ele>105.1</ele>
        <time>2016-05-03T11:01:17Z</time>
      </trkpt>
      <trkpt lat="43.64856" lon="3.79073">
        <ele>104.8</ele>
        <time>2016-05-03T11:01:19Z</time>
      </trkpt>
      <trkpt lat="43.64848" lon="3.7908">
        <ele>104.9</ele>
        <time>2016-05-03T11:01:23Z</time>
      </trkpt>
      <trkpt lat="43.64841" lon="3.79088">
        <ele>104.9</ele>
        <time>2016-05-03T11:01:26Z</time>
      </trkpt>
      <trkpt lat="43.64837" lon="3.79097">
        <ele>104.9</ele>
        <time>2016-05-03T11:01:28Z</time>
      </trkpt>
      <trkpt lat="43.64831" lon="3.79107">
        <ele>104.9</ele>
        <time>2016-05-03T11:01:30Z</time>
      </trkpt>
      <trkpt lat="43.64824" lon="3.79117">
        <ele>104.8</ele>
        <time>2016-05-03T11:01:32Z</time>
      </trkpt>
      <trkpt lat="43.64815" lon="3.79121">
        <ele>104.8</ele>
        <time>2016-05-03T11:01:34Z</time>
      </trkpt>
      <trkpt lat="43.64808" lon="3.79128">
        <ele>104.6</ele>
        <time>2016-05-03T11:01:37Z</time>
      </trkpt>
      <trkpt lat="43.648" lon="3.79133">
        <ele>104.6</ele>
        <time>2016-05-03T11:01:40Z</time>
      </trkpt>
      <trkpt lat="43.64793" lon="3.79137">
        <ele>104.8</ele>
        <time>2016-05-03T11:01:42Z</time>
      </trkpt>
      <trkpt lat="43.64785" lon="3.79142">
        <ele>105</ele>
        <time>2016-05-03T11:01:45Z</time>
      </trkpt>
      <trkpt lat="43.64776" lon="3.79147">
        <ele>105.3</ele>
        <time>2016-05-03T11:01:48Z</time>
      </trkpt>
      <trkpt lat="43.64769" lon="3.7915">
        <ele>105.8</ele>
        <time>2016-05-03T11:01:52Z</time>
      </trkpt>
      <trkpt lat="43.64762" lon="3.79159">
        <ele>106.2</ele>
        <time>2016-05-03T11:01:55Z</time>
      </trkpt>
      <trkpt lat="43.64756" lon="3.79166">
        <ele>106.6</ele>
        <time>2016-05-03T11:01:57Z</time>
      </trkpt>
      <trkpt lat="43.64748" lon="3.7917">
        <ele>107</ele>
        <time>2016-05-03T11:01:59Z</time>
      </trkpt>
      <trkpt lat="43.64741" lon="3.79179">
        <ele>107.6</ele>
        <time>2016-05-03T11:02:02Z</time>
      </trkpt>
      <trkpt lat="43.64732" lon="3.79186">
        <ele>108.2</ele>
        <time>2016-05-03T11:02:05Z</time>
      </trkpt>
      <trkpt lat="43.64723" lon="3.79193">
        <ele>108.8</ele>
        <time>2016-05-03T11:02:08Z</time>
      </trkpt>
      <trkpt lat="43.64715" lon="3.79195">
        <ele>109.3</ele>
        <time>2016-05-03T11:02:11Z</time>
      </trkpt>
      <trkpt lat="43.64708" lon="3.792">
        <ele>109.6</ele>
        <time>2016-05-03T11:02:14Z</time>
      </trkpt>
      <trkpt lat="43.64704" lon="3.79213">
        <ele>110.3</ele>
        <time>2016-05-03T11:02:20Z</time>
      </trkpt>
      <trkpt lat="43.64706" lon="3.79228">
        <ele>110.2</ele>
        <time>2016-05-03T11:02:22Z</time>
      </trkpt>
      <trkpt lat="43.6471" lon="3.79241">
        <ele>108.7</ele>
        <time>2016-05-03T11:02:24Z</time>
      </trkpt>
      <trkpt lat="43.64711" lon="3.79251">
        <ele>108.7</ele>
        <time>2016-05-03T11:02:25Z</time>
      </trkpt>
      <trkpt lat="43.64712" lon="3.79262">
        <ele>108.8</ele>
        <time>2016-05-03T11:02:26Z</time>
      </trkpt>
      <trkpt lat="43.64705" lon="3.79282">
        <ele>108.1</ele>
        <time>2016-05-03T11:02:32Z</time>
      </trkpt>
      <trkpt lat="43.64698" lon="3.79289">
        <ele>107.6</ele>
        <time>2016-05-03T11:02:35Z</time>
      </trkpt>
      <trkpt lat="43.6469" lon="3.7929">
        <ele>107.3</ele>
        <time>2016-05-03T11:02:37Z</time>
      </trkpt>
      <trkpt lat="43.64683" lon="3.7929">
        <ele>107.2</ele>
        <time>2016-05-03T11:02:39Z</time>
      </trkpt>
      <trkpt lat="43.64674" lon="3.79287">
        <ele>107.1</ele>
        <time>2016-05-03T11:02:41Z</time>
      </trkpt>
      <trkpt lat="43.6467" lon="3.79299">
        <ele>106.9</ele>
        <time>2016-05-03T11:02:53Z</time>
      </trkpt>
      <trkpt lat="43.64668" lon="3.79312">
        <ele>106.8</ele>
        <time>2016-05-03T11:02:57Z</time>
      </trkpt>
      <trkpt lat="43.64665" lon="3.79323">
        <ele>106.7</ele>
        <time>2016-05-03T11:03:00Z</time>
      </trkpt>
      <trkpt lat="43.64661" lon="3.79334">
        <ele>106.3</ele>
        <time>2016-05-03T11:03:03Z</time>
      </trkpt>
      <trkpt lat="43.64658" lon="3.79343">
        <ele>106.1</ele>
        <time>2016-05-03T11:03:05Z</time>
      </trkpt>
      <trkpt lat="43.64655" lon="3.79356">
        <ele>106.6</ele>
        <time>2016-05-03T11:03:07Z</time>
      </trkpt>
      <trkpt lat="43.64651" lon="3.7937">
        <ele>108</ele>
        <time>2016-05-03T11:03:09Z</time>
      </trkpt>
      <trkpt lat="43.64644" lon="3.79385">
        <ele>109.4</ele>
        <time>2016-05-03T11:03:11Z</time>
      </trkpt>
      <trkpt lat="43.64635" lon="3.79397">
        <ele>110.4</ele>
        <time>2016-05-03T11:03:13Z</time>
      </trkpt>
      <trkpt lat="43.64627" lon="3.79409">
        <ele>108.7</ele>
        <time>2016-05-03T11:03:15Z</time>
      </trkpt>
      <trkpt lat="43.6462" lon="3.7942">
        <ele>108.1</ele>
        <time>2016-05-03T11:03:17Z</time>
      </trkpt>
      <trkpt lat="43.64612" lon="3.79431">
        <ele>106.7</ele>
        <time>2016-05-03T11:03:19Z</time>
      </trkpt>
      <trkpt lat="43.64609" lon="3.7944">
        <ele>106.9</ele>
        <time>2016-05-03T11:03:21Z</time>
      </trkpt>
      <trkpt lat="43.64602" lon="3.7945">
        <ele>106.8</ele>
        <time>2016-05-03T11:03:24Z</time>
      </trkpt>
      <trkpt lat="43.64601" lon="3.7946">
        <ele>106.6</ele>
        <time>2016-05-03T11:03:26Z</time>
      </trkpt>
      <trkpt lat="43.64603" lon="3.79471">
        <ele>105.3</ele>
        <time>2016-05-03T11:03:31Z</time>
      </trkpt>
      <trkpt lat="43.64603" lon="3.79482">
        <ele>105</ele>
        <time>2016-05-03T11:03:34Z</time>
      </trkpt>
      <trkpt lat="43.64598" lon="3.79492">
        <ele>104.8</ele>
        <time>2016-05-03T11:03:36Z</time>
      </trkpt>
      <trkpt lat="43.64592" lon="3.79503">
        <ele>104.7</ele>
        <time>2016-05-03T11:03:38Z</time>
      </trkpt>
      <trkpt lat="43.64588" lon="3.79513">
        <ele>104.8</ele>
        <time>2016-05-03T11:03:40Z</time>
      </trkpt>
      <trkpt lat="43.64583" lon="3.79524">
        <ele>104.7</ele>
        <time>2016-05-03T11:03:42Z</time>
      </trkpt>
      <trkpt lat="43.64579" lon="3.79533">
        <ele>104.5</ele>
        <time>2016-05-03T11:03:44Z</time>
      </trkpt>
      <trkpt lat="43.64573" lon="3.79544">
        <ele>103.1</ele>
        <time>2016-05-03T11:03:46Z</time>
      </trkpt>
      <trkpt lat="43.64572" lon="3.79555">
        <ele>101</ele>
        <time>2016-05-03T11:03:48Z</time>
      </trkpt>
      <trkpt lat="43.64569" lon="3.79568">
        <ele>100.1</ele>
        <time>2016-05-03T11:03:50Z</time>
      </trkpt>
      <trkpt lat="43.64566" lon="3.79581">
        <ele>98.6</ele>
        <time>2016-05-03T11:03:52Z</time>
      </trkpt>
      <trkpt lat="43.64565" lon="3.79592">
        <ele>98.1</ele>
        <time>2016-05-03T11:03:54Z</time>
      </trkpt>
      <trkpt lat="43.64562" lon="3.79602">
        <ele>97.5</ele>
        <time>2016-05-03T11:03:56Z</time>
      </trkpt>
      <trkpt lat="43.64558" lon="3.79613">
        <ele>97</ele>
        <time>2016-05-03T11:03:58Z</time>
      </trkpt>
      <trkpt lat="43.64554" lon="3.79627">
        <ele>98.7</ele>
        <time>2016-05-03T11:04:00Z</time>
      </trkpt>
      <trkpt lat="43.64549" lon="3.79639">
        <ele>100</ele>
        <time>2016-05-03T11:04:02Z</time>
      </trkpt>
      <trkpt lat="43.64546" lon="3.79649">
        <ele>101.1</ele>
        <time>2016-05-03T11:04:04Z</time>
      </trkpt>
      <trkpt lat="43.64543" lon="3.7966">
        <ele>100.7</ele>
        <time>2016-05-03T11:04:06Z</time>
      </trkpt>
      <trkpt lat="43.64538" lon="3.7967">
        <ele>100.2</ele>
        <time>2016-05-03T11:04:08Z</time>
      </trkpt>
      <trkpt lat="43.64531" lon="3.7968">
        <ele>99.5</ele>
        <time>2016-05-03T11:04:10Z</time>
      </trkpt>
      <trkpt lat="43.64524" lon="3.7969">
        <ele>99.8</ele>
        <time>2016-05-03T11:04:12Z</time>
      </trkpt>
      <trkpt lat="43.64517" lon="3.79703">
        <ele>98.3</ele>
        <time>2016-05-03T11:04:14Z</time>
      </trkpt>
      <trkpt lat="43.64512" lon="3.79714">
        <ele>97.9</ele>
        <time>2016-05-03T11:04:16Z</time>
      </trkpt>
      <trkpt lat="43.64506" lon="3.79729">
        <ele>99</ele>
        <time>2016-05-03T11:04:18Z</time>
      </trkpt>
      <trkpt lat="43.64501" lon="3.7974">
        <ele>98.7</ele>
        <time>2016-05-03T11:04:20Z</time>
      </trkpt>
      <trkpt lat="43.64495" lon="3.79749">
        <ele>98.1</ele>
        <time>2016-05-03T11:04:22Z</time>
      </trkpt>
      <trkpt lat="43.64487" lon="3.79757">
        <ele>98</ele>
        <time>2016-05-03T11:04:24Z</time>
      </trkpt>
      <trkpt lat="43.64479" lon="3.79764">
        <ele>98</ele>
        <time>2016-05-03T11:04:26Z</time>
      </trkpt>
      <trkpt lat="43.6447" lon="3.79771">
        <ele>97.9</ele>
        <time>2016-05-03T11:04:28Z</time>
      </trkpt>
      <trkpt lat="43.64464" lon="3.7978">
        <ele>98</ele>
        <time>2016-05-03T11:04:30Z</time>
      </trkpt>
      <trkpt lat="43.64456" lon="3.79788">
        <ele>99.6</ele>
        <time>2016-05-03T11:04:32Z</time>
      </trkpt>
      <trkpt lat="43.64448" lon="3.79791">
        <ele>100.4</ele>
        <time>2016-05-03T11:04:34Z</time>
      </trkpt>
      <trkpt lat="43.64437" lon="3.79795">
        <ele>100.5</ele>
        <time>2016-05-03T11:04:36Z</time>
      </trkpt>
      <trkpt lat="43.64425" lon="3.79796">
        <ele>100.9</ele>
        <time>2016-05-03T11:04:38Z</time>
      </trkpt>
      <trkpt lat="43.64415" lon="3.79795">
        <ele>101.6</ele>
        <time>2016-05-03T11:04:40Z</time>
      </trkpt>
      <trkpt lat="43.64404" lon="3.79791">
        <ele>102.6</ele>
        <time>2016-05-03T11:04:42Z</time>
      </trkpt>
      <trkpt lat="43.64393" lon="3.79789">
        <ele>103.7</ele>
        <time>2016-05-03T11:04:44Z</time>
      </trkpt>
      <trkpt lat="43.64376" lon="3.79789">
        <ele>105.1</ele>
        <time>2016-05-03T11:04:47Z</time>
      </trkpt>
      <trkpt lat="43.64364" lon="3.79794">
        <ele>104.7</ele>
        <time>2016-05-03T11:04:49Z</time>
      </trkpt>
      <trkpt lat="43.6435" lon="3.79796">
        <ele>103.8</ele>
        <time>2016-05-03T11:04:51Z</time>
      </trkpt>
      <trkpt lat="43.64341" lon="3.79799">
        <ele>103.1</ele>
        <time>2016-05-03T11:04:53Z</time>
      </trkpt>
      <trkpt lat="43.6433" lon="3.79807">
        <ele>103.4</ele>
        <time>2016-05-03T11:04:56Z</time>
      </trkpt>
      <trkpt lat="43.64322" lon="3.7981">
        <ele>103.4</ele>
        <time>2016-05-03T11:04:58Z</time>
      </trkpt>
      <trkpt lat="43.64314" lon="3.79816">
        <ele>104.6</ele>
        <time>2016-05-03T11:05:00Z</time>
      </trkpt>
      <trkpt lat="43.64306" lon="3.79818">
        <ele>104.5</ele>
        <time>2016-05-03T11:05:02Z</time>
      </trkpt>
      <trkpt lat="43.64297" lon="3.79819">
        <ele>104.1</ele>
        <time>2016-05-03T11:05:04Z</time>
      </trkpt>
      <trkpt lat="43.64289" lon="3.79822">
        <ele>102.2</ele>
        <time>2016-05-03T11:05:06Z</time>
      </trkpt>
      <trkpt lat="43.6428" lon="3.79826">
        <ele>102.1</ele>
        <time>2016-05-03T11:05:08Z</time>
      </trkpt>
      <trkpt lat="43.64271" lon="3.79831">
        <ele>101.6</ele>
        <time>2016-05-03T11:05:11Z</time>
      </trkpt>
      <trkpt lat="43.64264" lon="3.79836">
        <ele>101</ele>
        <time>2016-05-03T11:05:12Z</time>
      </trkpt>
      <trkpt lat="43.64256" lon="3.79843">
        <ele>99.8</ele>
        <time>2016-05-03T11:05:14Z</time>
      </trkpt>
      <trkpt lat="43.64246" lon="3.79848">
        <ele>99.6</ele>
        <time>2016-05-03T11:05:16Z</time>
      </trkpt>
      <trkpt lat="43.64238" lon="3.79852">
        <ele>99</ele>
        <time>2016-05-03T11:05:18Z</time>
      </trkpt>
      <trkpt lat="43.64229" lon="3.79858">
        <ele>99</ele>
        <time>2016-05-03T11:05:21Z</time>
      </trkpt>
      <trkpt lat="43.64224" lon="3.7987">
        <ele>97.8</ele>
        <time>2016-05-03T11:05:24Z</time>
      </trkpt>
      <trkpt lat="43.64224" lon="3.79881">
        <ele>97.4</ele>
        <time>2016-05-03T11:05:26Z</time>
      </trkpt>
      <trkpt lat="43.64218" lon="3.79893">
        <ele>97.7</ele>
        <time>2016-05-03T11:05:28Z</time>
      </trkpt>
      <trkpt lat="43.64207" lon="3.79893">
        <ele>98.7</ele>
        <time>2016-05-03T11:05:31Z</time>
      </trkpt>
      <trkpt lat="43.64198" lon="3.79893">
        <ele>98.7</ele>
        <time>2016-05-03T11:05:33Z</time>
      </trkpt>
      <trkpt lat="43.64188" lon="3.79898">
        <ele>98.8</ele>
        <time>2016-05-03T11:05:35Z</time>
      </trkpt>
      <trkpt lat="43.64179" lon="3.79905">
        <ele>100.5</ele>
        <time>2016-05-03T11:05:37Z</time>
      </trkpt>
      <trkpt lat="43.6417" lon="3.79912">
        <ele>100.8</ele>
        <time>2016-05-03T11:05:39Z</time>
      </trkpt>
      <trkpt lat="43.64162" lon="3.79917">
        <ele>100.5</ele>
        <time>2016-05-03T11:05:41Z</time>
      </trkpt>
      <trkpt lat="43.64154" lon="3.79923">
        <ele>99.1</ele>
        <time>2016-05-03T11:05:43Z</time>
      </trkpt>
      <trkpt lat="43.64147" lon="3.79931">
        <ele>97.7</ele>
        <time>2016-05-03T11:05:45Z</time>
      </trkpt>
      <trkpt lat="43.64138" lon="3.79938">
        <ele>96.2</ele>
        <time>2016-05-03T11:05:47Z</time>
      </trkpt>
      <trkpt lat="43.64129" lon="3.79946">
        <ele>94.4</ele>
        <time>2016-05-03T11:05:49Z</time>
      </trkpt>
      <trkpt lat="43.64119" lon="3.79952">
        <ele>92.8</ele>
        <time>2016-05-03T11:05:51Z</time>
      </trkpt>
      <trkpt lat="43.64113" lon="3.7996">
        <ele>92</ele>
        <time>2016-05-03T11:05:53Z</time>
      </trkpt>
      <trkpt lat="43.64106" lon="3.79969">
        <ele>91.6</ele>
        <time>2016-05-03T11:05:55Z</time>
      </trkpt>
      <trkpt lat="43.64095" lon="3.79976">
        <ele>90.5</ele>
        <time>2016-05-03T11:05:57Z</time>
      </trkpt>
      <trkpt lat="43.64086" lon="3.79982">
        <ele>90.4</ele>
        <time>2016-05-03T11:05:59Z</time>
      </trkpt>
      <trkpt lat="43.64078" lon="3.79986">
        <ele>91</ele>
        <time>2016-05-03T11:06:01Z</time>
      </trkpt>
      <trkpt lat="43.64069" lon="3.79992">
        <ele>91.3</ele>
        <time>2016-05-03T11:06:03Z</time>
      </trkpt>
      <trkpt lat="43.6406" lon="3.79998">
        <ele>91.7</ele>
        <time>2016-05-03T11:06:06Z</time>
      </trkpt>
      <trkpt lat="43.64053" lon="3.80003">
        <ele>92.3</ele>
        <time>2016-05-03T11:06:08Z</time>
      </trkpt>
      <trkpt lat="43.64045" lon="3.80008">
        <ele>92.3</ele>
        <time>2016-05-03T11:06:10Z</time>
      </trkpt>
      <trkpt lat="43.64038" lon="3.80015">
        <ele>92.4</ele>
        <time>2016-05-03T11:06:12Z</time>
      </trkpt>
      <trkpt lat="43.6403" lon="3.80022">
        <ele>92.8</ele>
        <time>2016-05-03T11:06:14Z</time>
      </trkpt>
      <trkpt lat="43.64022" lon="3.80028">
        <ele>93.6</ele>
        <time>2016-05-03T11:06:16Z</time>
      </trkpt>
      <trkpt lat="43.64014" lon="3.80033">
        <ele>95.2</ele>
        <time>2016-05-03T11:06:18Z</time>
      </trkpt>
      <trkpt lat="43.64005" lon="3.8004">
        <ele>96</ele>
        <time>2016-05-03T11:06:20Z</time>
      </trkpt>
      <trkpt lat="43.63999" lon="3.80046">
        <ele>95.9</ele>
        <time>2016-05-03T11:06:22Z</time>
      </trkpt>
      <trkpt lat="43.63991" lon="3.80052">
        <ele>94.4</ele>
        <time>2016-05-03T11:06:24Z</time>
      </trkpt>
      <trkpt lat="43.63982" lon="3.80058">
        <ele>93.3</ele>
        <time>2016-05-03T11:06:26Z</time>
      </trkpt>
      <trkpt lat="43.63974" lon="3.80061">
        <ele>93.7</ele>
        <time>2016-05-03T11:06:28Z</time>
      </trkpt>
      <trkpt lat="43.63964" lon="3.80068">
        <ele>93.2</ele>
        <time>2016-05-03T11:06:31Z</time>
      </trkpt>
      <trkpt lat="43.63955" lon="3.80075">
        <ele>93.3</ele>
        <time>2016-05-03T11:06:34Z</time>
      </trkpt>
      <trkpt lat="43.63948" lon="3.8008">
        <ele>94.6</ele>
        <time>2016-05-03T11:06:36Z</time>
      </trkpt>
      <trkpt lat="43.63941" lon="3.80085">
        <ele>95.3</ele>
        <time>2016-05-03T11:06:38Z</time>
      </trkpt>
      <trkpt lat="43.63931" lon="3.8009">
        <ele>95.7</ele>
        <time>2016-05-03T11:06:40Z</time>
      </trkpt>
      <trkpt lat="43.63924" lon="3.80092">
        <ele>95.3</ele>
        <time>2016-05-03T11:06:42Z</time>
      </trkpt>
      <trkpt lat="43.63917" lon="3.80094">
        <ele>95.1</ele>
        <time>2016-05-03T11:06:44Z</time>
      </trkpt>
      <trkpt lat="43.63909" lon="3.80098">
        <ele>95</ele>
        <time>2016-05-03T11:06:46Z</time>
      </trkpt>
      <trkpt lat="43.63898" lon="3.80102">
        <ele>94.8</ele>
        <time>2016-05-03T11:06:49Z</time>
      </trkpt>
      <trkpt lat="43.63891" lon="3.80106">
        <ele>94.7</ele>
        <time>2016-05-03T11:06:52Z</time>
      </trkpt>
      <trkpt lat="43.63883" lon="3.80111">
        <ele>94.7</ele>
        <time>2016-05-03T11:06:55Z</time>
      </trkpt>
      <trkpt lat="43.63875" lon="3.80117">
        <ele>94.6</ele>
        <time>2016-05-03T11:06:58Z</time>
      </trkpt>
      <trkpt lat="43.63872" lon="3.80126">
        <ele>94.8</ele>
        <time>2016-05-03T11:07:02Z</time>
      </trkpt>
      <trkpt lat="43.63865" lon="3.80136">
        <ele>94.8</ele>
        <time>2016-05-03T11:07:05Z</time>
      </trkpt>
      <trkpt lat="43.6386" lon="3.80145">
        <ele>94.8</ele>
        <time>2016-05-03T11:07:09Z</time>
      </trkpt>
      <trkpt lat="43.63855" lon="3.80154">
        <ele>94.7</ele>
        <time>2016-05-03T11:07:12Z</time>
      </trkpt>
      <trkpt lat="43.63849" lon="3.80162">
        <ele>94.9</ele>
        <time>2016-05-03T11:07:15Z</time>
      </trkpt>
      <trkpt lat="43.63842" lon="3.80169">
        <ele>95</ele>
        <time>2016-05-03T11:07:18Z</time>
      </trkpt>
      <trkpt lat="43.63838" lon="3.8018">
        <ele>95.3</ele>
        <time>2016-05-03T11:07:23Z</time>
      </trkpt>
      <trkpt lat="43.63837" lon="3.80192">
        <ele>95.6</ele>
        <time>2016-05-03T11:07:27Z</time>
      </trkpt>
      <trkpt lat="43.63836" lon="3.80202">
        <ele>95.9</ele>
        <time>2016-05-03T11:07:30Z</time>
      </trkpt>
      <trkpt lat="43.63832" lon="3.80213">
        <ele>96.3</ele>
        <time>2016-05-03T11:07:34Z</time>
      </trkpt>
      <trkpt lat="43.63832" lon="3.80226">
        <ele>96.4</ele>
        <time>2016-05-03T11:07:38Z</time>
      </trkpt>
      <trkpt lat="43.63829" lon="3.80239">
        <ele>96.3</ele>
        <time>2016-05-03T11:07:42Z</time>
      </trkpt>
      <trkpt lat="43.6383" lon="3.8025">
        <ele>96.4</ele>
        <time>2016-05-03T11:07:45Z</time>
      </trkpt>
      <trkpt lat="43.63831" lon="3.80261">
        <ele>96.5</ele>
        <time>2016-05-03T11:07:48Z</time>
      </trkpt>
      <trkpt lat="43.63834" lon="3.8027">
        <ele>96.7</ele>
        <time>2016-05-03T11:07:51Z</time>
      </trkpt>
      <trkpt lat="43.63839" lon="3.80281">
        <ele>97</ele>
        <time>2016-05-03T11:07:55Z</time>
      </trkpt>
      <trkpt lat="43.63843" lon="3.80291">
        <ele>97.2</ele>
        <time>2016-05-03T11:07:58Z</time>
      </trkpt>
      <trkpt lat="43.63849" lon="3.80301">
        <ele>97.1</ele>
        <time>2016-05-03T11:08:02Z</time>
      </trkpt>
      <trkpt lat="43.63852" lon="3.80314">
        <ele>97.2</ele>
        <time>2016-05-03T11:08:05Z</time>
      </trkpt>
      <trkpt lat="43.63852" lon="3.80325">
        <ele>97.3</ele>
        <time>2016-05-03T11:08:07Z</time>
      </trkpt>
      <trkpt lat="43.6385" lon="3.80336">
        <ele>97.4</ele>
        <time>2016-05-03T11:08:09Z</time>
      </trkpt>
      <trkpt lat="43.63847" lon="3.8035">
        <ele>97.7</ele>
        <time>2016-05-03T11:08:12Z</time>
      </trkpt>
      <trkpt lat="43.63844" lon="3.8036">
        <ele>98.1</ele>
        <time>2016-05-03T11:08:14Z</time>
      </trkpt>
      <trkpt lat="43.63843" lon="3.80371">
        <ele>99.1</ele>
        <time>2016-05-03T11:08:16Z</time>
      </trkpt>
      <trkpt lat="43.63844" lon="3.80382">
        <ele>98.8</ele>
        <time>2016-05-03T11:08:18Z</time>
      </trkpt>
      <trkpt lat="43.6385" lon="3.80389">
        <ele>98.3</ele>
        <time>2016-05-03T11:08:20Z</time>
      </trkpt>
      <trkpt lat="43.63857" lon="3.80401">
        <ele>97.6</ele>
        <time>2016-05-03T11:08:23Z</time>
      </trkpt>
      <trkpt lat="43.63863" lon="3.80409">
        <ele>97.3</ele>
        <time>2016-05-03T11:08:25Z</time>
      </trkpt>
      <trkpt lat="43.63868" lon="3.80417">
        <ele>97.2</ele>
        <time>2016-05-03T11:08:27Z</time>
      </trkpt>
      <trkpt lat="43.63873" lon="3.80425">
        <ele>96.5</ele>
        <time>2016-05-03T11:08:29Z</time>
      </trkpt>
      <trkpt lat="43.63877" lon="3.80432">
        <ele>96.1</ele>
        <time>2016-05-03T11:08:31Z</time>
      </trkpt>
      <trkpt lat="43.63883" lon="3.80439">
        <ele>96.1</ele>
        <time>2016-05-03T11:08:33Z</time>
      </trkpt>
      <trkpt lat="43.63889" lon="3.80447">
        <ele>96.1</ele>
        <time>2016-05-03T11:08:35Z</time>
      </trkpt>
      <trkpt lat="43.63895" lon="3.80459">
        <ele>96.1</ele>
        <time>2016-05-03T11:08:38Z</time>
      </trkpt>
      <trkpt lat="43.639" lon="3.80467">
        <ele>96</ele>
        <time>2016-05-03T11:08:40Z</time>
      </trkpt>
      <trkpt lat="43.63904" lon="3.80475">
        <ele>96.1</ele>
        <time>2016-05-03T11:08:42Z</time>
      </trkpt>
      <trkpt lat="43.63911" lon="3.80479">
        <ele>96.3</ele>
        <time>2016-05-03T11:08:45Z</time>
      </trkpt>
      <trkpt lat="43.63912" lon="3.80492">
        <ele>96.5</ele>
        <time>2016-05-03T11:08:49Z</time>
      </trkpt>
      <trkpt lat="43.63911" lon="3.80505">
        <ele>96.9</ele>
        <time>2016-05-03T11:08:52Z</time>
      </trkpt>
      <trkpt lat="43.6391" lon="3.80516">
        <ele>97.8</ele>
        <time>2016-05-03T11:08:54Z</time>
      </trkpt>
      <trkpt lat="43.6391" lon="3.80532">
        <ele>98.6</ele>
        <time>2016-05-03T11:08:56Z</time>
      </trkpt>
      <trkpt lat="43.6391" lon="3.80546">
        <ele>99</ele>
        <time>2016-05-03T11:08:58Z</time>
      </trkpt>
      <trkpt lat="43.63911" lon="3.8056">
        <ele>99.8</ele>
        <time>2016-05-03T11:09:00Z</time>
      </trkpt>
      <trkpt lat="43.63911" lon="3.80574">
        <ele>99</ele>
        <time>2016-05-03T11:09:02Z</time>
      </trkpt>
      <trkpt lat="43.63911" lon="3.8059">
        <ele>99.4</ele>
        <time>2016-05-03T11:09:04Z</time>
      </trkpt>
      <trkpt lat="43.63911" lon="3.80604">
        <ele>99.1</ele>
        <time>2016-05-03T11:09:06Z</time>
      </trkpt>
      <trkpt lat="43.63912" lon="3.80617">
        <ele>97.5</ele>
        <time>2016-05-03T11:09:08Z</time>
      </trkpt>
      <trkpt lat="43.63911" lon="3.80629">
        <ele>96.8</ele>
        <time>2016-05-03T11:09:10Z</time>
      </trkpt>
      <trkpt lat="43.63911" lon="3.80647">
        <ele>95.3</ele>
        <time>2016-05-03T11:09:12Z</time>
      </trkpt>
      <trkpt lat="43.63912" lon="3.80661">
        <ele>94.2</ele>
        <time>2016-05-03T11:09:14Z</time>
      </trkpt>
      <trkpt lat="43.63918" lon="3.80667">
        <ele>94.4</ele>
        <time>2016-05-03T11:09:17Z</time>
      </trkpt>
      <trkpt lat="43.63926" lon="3.80668">
        <ele>94.8</ele>
        <time>2016-05-03T11:09:21Z</time>
      </trkpt>
      <trkpt lat="43.63934" lon="3.80667">
        <ele>94.9</ele>
        <time>2016-05-03T11:09:25Z</time>
      </trkpt>
      <trkpt lat="43.63941" lon="3.80665">
        <ele>95</ele>
        <time>2016-05-03T11:09:29Z</time>
      </trkpt>
      <trkpt lat="43.63948" lon="3.80661">
        <ele>95.4</ele>
        <time>2016-05-03T11:09:33Z</time>
      </trkpt>
      <trkpt lat="43.63956" lon="3.80656">
        <ele>95.6</ele>
        <time>2016-05-03T11:09:38Z</time>
      </trkpt>
      <trkpt lat="43.63965" lon="3.80654">
        <ele>95.9</ele>
        <time>2016-05-03T11:09:41Z</time>
      </trkpt>
      <trkpt lat="43.63974" lon="3.80651">
        <ele>96.1</ele>
        <time>2016-05-03T11:09:45Z</time>
      </trkpt>
      <trkpt lat="43.63982" lon="3.80649">
        <ele>96.2</ele>
        <time>2016-05-03T11:09:49Z</time>
      </trkpt>
      <trkpt lat="43.6399" lon="3.80646">
        <ele>96.5</ele>
        <time>2016-05-03T11:09:53Z</time>
      </trkpt>
      <trkpt lat="43.63999" lon="3.80641">
        <ele>97</ele>
        <time>2016-05-03T11:09:57Z</time>
      </trkpt>
      <trkpt lat="43.64007" lon="3.80637">
        <ele>98.1</ele>
        <time>2016-05-03T11:10:02Z</time>
      </trkpt>
      <trkpt lat="43.64014" lon="3.80634">
        <ele>98.5</ele>
        <time>2016-05-03T11:10:05Z</time>
      </trkpt>
      <trkpt lat="43.64022" lon="3.80631">
        <ele>98.9</ele>
        <time>2016-05-03T11:10:09Z</time>
      </trkpt>
      <trkpt lat="43.64031" lon="3.80626">
        <ele>99.3</ele>
        <time>2016-05-03T11:10:13Z</time>
      </trkpt>
      <trkpt lat="43.64039" lon="3.80621">
        <ele>100.3</ele>
        <time>2016-05-03T11:10:18Z</time>
      </trkpt>
      <trkpt lat="43.64047" lon="3.80622">
        <ele>100.7</ele>
        <time>2016-05-03T11:10:22Z</time>
      </trkpt>
      <trkpt lat="43.64054" lon="3.80624">
        <ele>101.4</ele>
        <time>2016-05-03T11:10:25Z</time>
      </trkpt>
      <trkpt lat="43.64062" lon="3.80631">
        <ele>102.3</ele>
        <time>2016-05-03T11:10:29Z</time>
      </trkpt>
      <trkpt lat="43.64071" lon="3.80635">
        <ele>105</ele>
        <time>2016-05-03T11:10:43Z</time>
      </trkpt>
      <trkpt lat="43.64074" lon="3.80633">
        <ele>106.9</ele>
        <time>2016-05-03T11:11:05Z</time>
      </trkpt>
      <trkpt lat="43.64079" lon="3.80631">
        <ele>108.8</ele>
        <time>2016-05-03T11:11:19Z</time>
      </trkpt>
      <trkpt lat="43.64081" lon="3.80631">
        <ele>108.3</ele>
        <time>2016-05-03T11:11:26Z</time>
      </trkpt>
      <trkpt lat="43.64086" lon="3.80628">
        <ele>109</ele>
        <time>2016-05-03T11:11:38Z</time>
      </trkpt>
      <trkpt lat="43.64088" lon="3.80623">
        <ele>109.9</ele>
        <time>2016-05-03T11:11:45Z</time>
      </trkpt>
      <trkpt lat="43.64087" lon="3.8062">
        <ele>110.1</ele>
        <time>2016-05-03T11:11:52Z</time>
      </trkpt>
      <trkpt lat="43.64088" lon="3.8062">
        <ele>110.2</ele>
        <time>2016-05-03T11:11:59Z</time>
      </trkpt>
      <trkpt lat="43.64094" lon="3.8061">
        <ele>111.6</ele>
        <time>2016-05-03T11:12:48Z</time>
      </trkpt>
      <trkpt lat="43.64097" lon="3.806">
        <ele>112</ele>
        <time>2016-05-03T11:12:53Z</time>
      </trkpt>
      <trkpt lat="43.641" lon="3.80589">
        <ele>112.2</ele>
        <time>2016-05-03T11:12:57Z</time>
      </trkpt>
      <trkpt lat="43.64106" lon="3.80585">
        <ele>112.7</ele>
        <time>2016-05-03T11:13:01Z</time>
      </trkpt>
      <trkpt lat="43.64111" lon="3.80592">
        <ele>113.4</ele>
        <time>2016-05-03T11:13:06Z</time>
      </trkpt>
      <trkpt lat="43.64114" lon="3.80602">
        <ele>114.2</ele>
        <time>2016-05-03T11:13:10Z</time>
      </trkpt>
      <trkpt lat="43.64121" lon="3.8061">
        <ele>115</ele>
        <time>2016-05-03T11:13:14Z</time>
      </trkpt>
      <trkpt lat="43.64127" lon="3.80614">
        <ele>116</ele>
        <time>2016-05-03T11:13:18Z</time>
      </trkpt>
      <trkpt lat="43.64135" lon="3.80618">
        <ele>117.7</ele>
        <time>2016-05-03T11:13:24Z</time>
      </trkpt>
      <trkpt lat="43.64142" lon="3.80623">
        <ele>119</ele>
        <time>2016-05-03T11:13:29Z</time>
      </trkpt>
      <trkpt lat="43.64148" lon="3.8063">
        <ele>120.1</ele>
        <time>2016-05-03T11:13:34Z</time>
      </trkpt>
      <trkpt lat="43.64152" lon="3.80639">
        <ele>121.5</ele>
        <time>2016-05-03T11:13:40Z</time>
      </trkpt>
      <trkpt lat="43.64155" lon="3.80648">
        <ele>122.3</ele>
        <time>2016-05-03T11:13:44Z</time>
      </trkpt>
      <trkpt lat="43.64155" lon="3.8066">
        <ele>123.1</ele>
        <time>2016-05-03T11:13:48Z</time>
      </trkpt>
      <trkpt lat="43.64157" lon="3.8067">
        <ele>123.7</ele>
        <time>2016-05-03T11:13:51Z</time>
      </trkpt>
      <trkpt lat="43.64159" lon="3.80681">
        <ele>124.8</ele>
        <time>2016-05-03T11:13:56Z</time>
      </trkpt>
      <trkpt lat="43.64161" lon="3.80692">
        <ele>125.5</ele>
        <time>2016-05-03T11:13:59Z</time>
      </trkpt>
      <trkpt lat="43.64164" lon="3.80702">
        <ele>126.8</ele>
        <time>2016-05-03T11:14:05Z</time>
      </trkpt>
      <trkpt lat="43.64164" lon="3.80714">
        <ele>127.6</ele>
        <time>2016-05-03T11:14:09Z</time>
      </trkpt>
      <trkpt lat="43.64165" lon="3.80726">
        <ele>128.3</ele>
        <time>2016-05-03T11:14:13Z</time>
      </trkpt>
      <trkpt lat="43.64166" lon="3.80738">
        <ele>129.4</ele>
        <time>2016-05-03T11:14:18Z</time>
      </trkpt>
      <trkpt lat="43.64166" lon="3.8075">
        <ele>130.8</ele>
        <time>2016-05-03T11:14:23Z</time>
      </trkpt>
      <trkpt lat="43.64167" lon="3.80761">
        <ele>132</ele>
        <time>2016-05-03T11:14:27Z</time>
      </trkpt>
      <trkpt lat="43.6417" lon="3.80771">
        <ele>133.9</ele>
        <time>2016-05-03T11:14:33Z</time>
      </trkpt>
      <trkpt lat="43.64171" lon="3.80779">
        <ele>136</ele>
        <time>2016-05-03T11:14:40Z</time>
      </trkpt>
      <trkpt lat="43.64169" lon="3.80789">
        <ele>137.7</ele>
        <time>2016-05-03T11:14:47Z</time>
      </trkpt>
      <trkpt lat="43.64167" lon="3.80793">
        <ele>138.8</ele>
        <time>2016-05-03T11:14:54Z</time>
      </trkpt>
      <trkpt lat="43.64167" lon="3.80798">
        <ele>139.5</ele>
        <time>2016-05-03T11:15:01Z</time>
      </trkpt>
      <trkpt lat="43.64168" lon="3.80805">
        <ele>140.2</ele>
        <time>2016-05-03T11:15:08Z</time>
      </trkpt>
      <trkpt lat="43.64169" lon="3.8081">
        <ele>141</ele>
        <time>2016-05-03T11:15:15Z</time>
      </trkpt>
      <trkpt lat="43.64171" lon="3.80821">
        <ele>141.9</ele>
        <time>2016-05-03T11:15:21Z</time>
      </trkpt>
      <trkpt lat="43.64173" lon="3.80835">
        <ele>142.3</ele>
        <time>2016-05-03T11:15:24Z</time>
      </trkpt>
      <trkpt lat="43.64174" lon="3.80846">
        <ele>142.6</ele>
        <time>2016-05-03T11:15:26Z</time>
      </trkpt>
      <trkpt lat="43.64177" lon="3.80856">
        <ele>142.8</ele>
        <time>2016-05-03T11:15:29Z</time>
      </trkpt>
      <trkpt lat="43.6418" lon="3.80867">
        <ele>143.7</ele>
        <time>2016-05-03T11:15:35Z</time>
      </trkpt>
      <trkpt lat="43.64183" lon="3.80878">
        <ele>144.5</ele>
        <time>2016-05-03T11:15:40Z</time>
      </trkpt>
      <trkpt lat="43.64186" lon="3.8089">
        <ele>145.3</ele>
        <time>2016-05-03T11:15:45Z</time>
      </trkpt>
      <trkpt lat="43.64186" lon="3.809">
        <ele>146.3</ele>
        <time>2016-05-03T11:15:50Z</time>
      </trkpt>
      <trkpt lat="43.64181" lon="3.80909">
        <ele>147.1</ele>
        <time>2016-05-03T11:15:56Z</time>
      </trkpt>
      <trkpt lat="43.64177" lon="3.80919">
        <ele>147.4</ele>
        <time>2016-05-03T11:16:02Z</time>
      </trkpt>
      <trkpt lat="43.64173" lon="3.80927">
        <ele>148.1</ele>
        <time>2016-05-03T11:16:08Z</time>
      </trkpt>
      <trkpt lat="43.64167" lon="3.80937">
        <ele>148.6</ele>
        <time>2016-05-03T11:16:14Z</time>
      </trkpt>
      <trkpt lat="43.64161" lon="3.80946">
        <ele>149</ele>
        <time>2016-05-03T11:16:18Z</time>
      </trkpt>
      <trkpt lat="43.64154" lon="3.80957">
        <ele>149.8</ele>
        <time>2016-05-03T11:16:20Z</time>
      </trkpt>
      <trkpt lat="43.64146" lon="3.80973">
        <ele>150</ele>
        <time>2016-05-03T11:16:22Z</time>
      </trkpt>
      <trkpt lat="43.64139" lon="3.80988">
        <ele>149.6</ele>
        <time>2016-05-03T11:16:24Z</time>
      </trkpt>
      <trkpt lat="43.64133" lon="3.80995">
        <ele>149.6</ele>
        <time>2016-05-03T11:16:26Z</time>
      </trkpt>
      <trkpt lat="43.64127" lon="3.81003">
        <ele>149.5</ele>
        <time>2016-05-03T11:16:28Z</time>
      </trkpt>
      <trkpt lat="43.64122" lon="3.81013">
        <ele>149.2</ele>
        <time>2016-05-03T11:16:32Z</time>
      </trkpt>
      <trkpt lat="43.64119" lon="3.81022">
        <ele>149.1</ele>
        <time>2016-05-03T11:16:36Z</time>
      </trkpt>
      <trkpt lat="43.64116" lon="3.81033">
        <ele>149.2</ele>
        <time>2016-05-03T11:16:40Z</time>
      </trkpt>
      <trkpt lat="43.64116" lon="3.81043">
        <ele>149.2</ele>
        <time>2016-05-03T11:16:43Z</time>
      </trkpt>
      <trkpt lat="43.64113" lon="3.81054">
        <ele>149.6</ele>
        <time>2016-05-03T11:16:47Z</time>
      </trkpt>
      <trkpt lat="43.64108" lon="3.81062">
        <ele>149.8</ele>
        <time>2016-05-03T11:16:50Z</time>
      </trkpt>
      <trkpt lat="43.64101" lon="3.81071">
        <ele>150.2</ele>
        <time>2016-05-03T11:16:54Z</time>
      </trkpt>
      <trkpt lat="43.64095" lon="3.81077">
        <ele>150.8</ele>
        <time>2016-05-03T11:16:58Z</time>
      </trkpt>
      <trkpt lat="43.64091" lon="3.81087">
        <ele>151.6</ele>
        <time>2016-05-03T11:17:03Z</time>
      </trkpt>
      <trkpt lat="43.64091" lon="3.81098">
        <ele>152.6</ele>
        <time>2016-05-03T11:17:08Z</time>
      </trkpt>
      <trkpt lat="43.64093" lon="3.81103">
        <ele>153.9</ele>
        <time>2016-05-03T11:17:15Z</time>
      </trkpt>
      <trkpt lat="43.64098" lon="3.81111">
        <ele>154.8</ele>
        <time>2016-05-03T11:17:21Z</time>
      </trkpt>
      <trkpt lat="43.64105" lon="3.81119">
        <ele>155.4</ele>
        <time>2016-05-03T11:17:26Z</time>
      </trkpt>
      <trkpt lat="43.64111" lon="3.81128">
        <ele>155.9</ele>
        <time>2016-05-03T11:17:30Z</time>
      </trkpt>
      <trkpt lat="43.64116" lon="3.81135">
        <ele>156.5</ele>
        <time>2016-05-03T11:17:34Z</time>
      </trkpt>
      <trkpt lat="43.64119" lon="3.81142">
        <ele>156.8</ele>
        <time>2016-05-03T11:17:41Z</time>
      </trkpt>
      <trkpt lat="43.64125" lon="3.81146">
        <ele>157.4</ele>
        <time>2016-05-03T11:17:48Z</time>
      </trkpt>
      <trkpt lat="43.64132" lon="3.81153">
        <ele>158.1</ele>
        <time>2016-05-03T11:17:55Z</time>
      </trkpt>
      <trkpt lat="43.64139" lon="3.81161">
        <ele>158.5</ele>
        <time>2016-05-03T11:17:59Z</time>
      </trkpt>
      <trkpt lat="43.64146" lon="3.81167">
        <ele>159.1</ele>
        <time>2016-05-03T11:18:04Z</time>
      </trkpt>
      <trkpt lat="43.64152" lon="3.81174">
        <ele>159.5</ele>
        <time>2016-05-03T11:18:08Z</time>
      </trkpt>
      <trkpt lat="43.64159" lon="3.81182">
        <ele>159.9</ele>
        <time>2016-05-03T11:18:12Z</time>
      </trkpt>
      <trkpt lat="43.64164" lon="3.81189">
        <ele>160.2</ele>
        <time>2016-05-03T11:18:16Z</time>
      </trkpt>
      <trkpt lat="43.6417" lon="3.81197">
        <ele>160.3</ele>
        <time>2016-05-03T11:18:20Z</time>
      </trkpt>
      <trkpt lat="43.64175" lon="3.81203">
        <ele>160.5</ele>
        <time>2016-05-03T11:18:23Z</time>
      </trkpt>
      <trkpt lat="43.64182" lon="3.81211">
        <ele>160.9</ele>
        <time>2016-05-03T11:18:27Z</time>
      </trkpt>
      <trkpt lat="43.64187" lon="3.81221">
        <ele>161.1</ele>
        <time>2016-05-03T11:18:31Z</time>
      </trkpt>
      <trkpt lat="43.64191" lon="3.81228">
        <ele>161.4</ele>
        <time>2016-05-03T11:18:34Z</time>
      </trkpt>
      <trkpt lat="43.64196" lon="3.81237">
        <ele>161.6</ele>
        <time>2016-05-03T11:18:38Z</time>
      </trkpt>
      <trkpt lat="43.64201" lon="3.81244">
        <ele>161.6</ele>
        <time>2016-05-03T11:18:41Z</time>
      </trkpt>
      <trkpt lat="43.64215" lon="3.81244">
        <ele>161.9</ele>
        <time>2016-05-03T11:19:16Z</time>
      </trkpt>
      <trkpt lat="43.64221" lon="3.81239">
        <ele>161.8</ele>
        <time>2016-05-03T11:19:19Z</time>
      </trkpt>
      <trkpt lat="43.6423" lon="3.81229">
        <ele>159.8</ele>
        <time>2016-05-03T11:19:21Z</time>
      </trkpt>
      <trkpt lat="43.64238" lon="3.8122">
        <ele>156.8</ele>
        <time>2016-05-03T11:19:23Z</time>
      </trkpt>
      <trkpt lat="43.64245" lon="3.81211">
        <ele>154</ele>
        <time>2016-05-03T11:19:25Z</time>
      </trkpt>
      <trkpt lat="43.64252" lon="3.81206">
        <ele>153.9</ele>
        <time>2016-05-03T11:19:27Z</time>
      </trkpt>
      <trkpt lat="43.64257" lon="3.81206">
        <ele>153.8</ele>
        <time>2016-05-03T11:19:34Z</time>
      </trkpt>
      <trkpt lat="43.64264" lon="3.81208">
        <ele>152.5</ele>
        <time>2016-05-03T11:19:46Z</time>
      </trkpt>
      <trkpt lat="43.64272" lon="3.8121">
        <ele>152.2</ele>
        <time>2016-05-03T11:19:50Z</time>
      </trkpt>
      <trkpt lat="43.6428" lon="3.81211">
        <ele>151.9</ele>
        <time>2016-05-03T11:19:54Z</time>
      </trkpt>
      <trkpt lat="43.64288" lon="3.81215">
        <ele>151.7</ele>
        <time>2016-05-03T11:19:58Z</time>
      </trkpt>
      <trkpt lat="43.64295" lon="3.81222">
        <ele>151.1</ele>
        <time>2016-05-03T11:20:01Z</time>
      </trkpt>
      <trkpt lat="43.64303" lon="3.81227">
        <ele>150.3</ele>
        <time>2016-05-03T11:20:04Z</time>
      </trkpt>
      <trkpt lat="43.64307" lon="3.81237">
        <ele>149.5</ele>
        <time>2016-05-03T11:20:07Z</time>
      </trkpt>
      <trkpt lat="43.64311" lon="3.81248">
        <ele>148.8</ele>
        <time>2016-05-03T11:20:09Z</time>
      </trkpt>
      <trkpt lat="43.64314" lon="3.81261">
        <ele>148</ele>
        <time>2016-05-03T11:20:12Z</time>
      </trkpt>
      <trkpt lat="43.64317" lon="3.81271">
        <ele>147.2</ele>
        <time>2016-05-03T11:20:17Z</time>
      </trkpt>
      <trkpt lat="43.64321" lon="3.81282">
        <ele>146.7</ele>
        <time>2016-05-03T11:20:21Z</time>
      </trkpt>
      <trkpt lat="43.64325" lon="3.8129">
        <ele>146.5</ele>
        <time>2016-05-03T11:20:25Z</time>
      </trkpt>
      <trkpt lat="43.6433" lon="3.81299">
        <ele>146.1</ele>
        <time>2016-05-03T11:20:30Z</time>
      </trkpt>
      <trkpt lat="43.64334" lon="3.8131">
        <ele>145.9</ele>
        <time>2016-05-03T11:20:33Z</time>
      </trkpt>
      <trkpt lat="43.64339" lon="3.8132">
        <ele>144.8</ele>
        <time>2016-05-03T11:20:40Z</time>
      </trkpt>
      <trkpt lat="43.64343" lon="3.8133">
        <ele>143.8</ele>
        <time>2016-05-03T11:20:45Z</time>
      </trkpt>
      <trkpt lat="43.64346" lon="3.81342">
        <ele>143</ele>
        <time>2016-05-03T11:20:50Z</time>
      </trkpt>
      <trkpt lat="43.64351" lon="3.81351">
        <ele>142.5</ele>
        <time>2016-05-03T11:20:54Z</time>
      </trkpt>
      <trkpt lat="43.64357" lon="3.8136">
        <ele>142.4</ele>
        <time>2016-05-03T11:20:58Z</time>
      </trkpt>
      <trkpt lat="43.64362" lon="3.8137">
        <ele>142</ele>
        <time>2016-05-03T11:21:02Z</time>
      </trkpt>
      <trkpt lat="43.64368" lon="3.81377">
        <ele>141.9</ele>
        <time>2016-05-03T11:21:06Z</time>
      </trkpt>
      <trkpt lat="43.64374" lon="3.81386">
        <ele>142</ele>
        <time>2016-05-03T11:21:11Z</time>
      </trkpt>
      <trkpt lat="43.64378" lon="3.81396">
        <ele>142.1</ele>
        <time>2016-05-03T11:21:15Z</time>
      </trkpt>
      <trkpt lat="43.64384" lon="3.81404">
        <ele>141.8</ele>
        <time>2016-05-03T11:21:19Z</time>
      </trkpt>
      <trkpt lat="43.64384" lon="3.81415">
        <ele>141.6</ele>
        <time>2016-05-03T11:21:23Z</time>
      </trkpt>
      <trkpt lat="43.64386" lon="3.81424">
        <ele>141.7</ele>
        <time>2016-05-03T11:21:27Z</time>
      </trkpt>
      <trkpt lat="43.6439" lon="3.81433">
        <ele>141.9</ele>
        <time>2016-05-03T11:21:32Z</time>
      </trkpt>
      <trkpt lat="43.64394" lon="3.81443">
        <ele>142</ele>
        <time>2016-05-03T11:21:37Z</time>
      </trkpt>
      <trkpt lat="43.64398" lon="3.81452">
        <ele>142.3</ele>
        <time>2016-05-03T11:21:41Z</time>
      </trkpt>
      <trkpt lat="43.64404" lon="3.81459">
        <ele>142.2</ele>
        <time>2016-05-03T11:21:45Z</time>
      </trkpt>
      <trkpt lat="43.64409" lon="3.81466">
        <ele>141.9</ele>
        <time>2016-05-03T11:21:47Z</time>
      </trkpt>
      <trkpt lat="43.64413" lon="3.81476">
        <ele>141.8</ele>
        <time>2016-05-03T11:21:49Z</time>
      </trkpt>
      <trkpt lat="43.64419" lon="3.81488">
        <ele>141.7</ele>
        <time>2016-05-03T11:21:52Z</time>
      </trkpt>
      <trkpt lat="43.64426" lon="3.81497">
        <ele>141.7</ele>
        <time>2016-05-03T11:21:54Z</time>
      </trkpt>
      <trkpt lat="43.64435" lon="3.81507">
        <ele>141</ele>
        <time>2016-05-03T11:21:56Z</time>
      </trkpt>
      <trkpt lat="43.64444" lon="3.81519">
        <ele>140</ele>
        <time>2016-05-03T11:21:58Z</time>
      </trkpt>
      <trkpt lat="43.64448" lon="3.81533">
        <ele>140</ele>
        <time>2016-05-03T11:22:00Z</time>
      </trkpt>
      <trkpt lat="43.64448" lon="3.81537">
        <ele>139.6</ele>
        <time>2016-05-03T11:22:07Z</time>
      </trkpt>
      <trkpt lat="43.64448" lon="3.81544">
        <ele>138.4</ele>
        <time>2016-05-03T11:22:14Z</time>
      </trkpt>
      <trkpt lat="43.64447" lon="3.81547">
        <ele>137.5</ele>
        <time>2016-05-03T11:22:21Z</time>
      </trkpt>
      <trkpt lat="43.64447" lon="3.81552">
        <ele>136.6</ele>
        <time>2016-05-03T11:22:28Z</time>
      </trkpt>
      <trkpt lat="43.64448" lon="3.81554">
        <ele>135.5</ele>
        <time>2016-05-03T11:22:35Z</time>
      </trkpt>
      <trkpt lat="43.6445" lon="3.81558">
        <ele>134.1</ele>
        <time>2016-05-03T11:22:46Z</time>
      </trkpt>
      <trkpt lat="43.64451" lon="3.81555">
        <ele>132.2</ele>
        <time>2016-05-03T11:22:53Z</time>
      </trkpt>
      <trkpt lat="43.64456" lon="3.81565">
        <ele>131.5</ele>
        <time>2016-05-03T11:22:59Z</time>
      </trkpt>
      <trkpt lat="43.64459" lon="3.81574">
        <ele>131.4</ele>
        <time>2016-05-03T11:23:02Z</time>
      </trkpt>
      <trkpt lat="43.64463" lon="3.81583">
        <ele>131.8</ele>
        <time>2016-05-03T11:23:06Z</time>
      </trkpt>
      <trkpt lat="43.64467" lon="3.81593">
        <ele>132.1</ele>
        <time>2016-05-03T11:23:10Z</time>
      </trkpt>
      <trkpt lat="43.6447" lon="3.81604">
        <ele>132.3</ele>
        <time>2016-05-03T11:23:13Z</time>
      </trkpt>
      <trkpt lat="43.64472" lon="3.81614">
        <ele>132.5</ele>
        <time>2016-05-03T11:23:18Z</time>
      </trkpt>
      <trkpt lat="43.64475" lon="3.81625">
        <ele>133</ele>
        <time>2016-05-03T11:23:23Z</time>
      </trkpt>
      <trkpt lat="43.64477" lon="3.81637">
        <ele>133.5</ele>
        <time>2016-05-03T11:23:28Z</time>
      </trkpt>
      <trkpt lat="43.6448" lon="3.81648">
        <ele>134</ele>
        <time>2016-05-03T11:23:32Z</time>
      </trkpt>
      <trkpt lat="43.64483" lon="3.81659">
        <ele>134.6</ele>
        <time>2016-05-03T11:23:37Z</time>
      </trkpt>
      <trkpt lat="43.64484" lon="3.81669">
        <ele>134.8</ele>
        <time>2016-05-03T11:23:41Z</time>
      </trkpt>
      <trkpt lat="43.64486" lon="3.81679">
        <ele>135.1</ele>
        <time>2016-05-03T11:23:46Z</time>
      </trkpt>
      <trkpt lat="43.64491" lon="3.8169">
        <ele>135.8</ele>
        <time>2016-05-03T11:23:51Z</time>
      </trkpt>
      <trkpt lat="43.64495" lon="3.81701">
        <ele>136.5</ele>
        <time>2016-05-03T11:23:55Z</time>
      </trkpt>
      <trkpt lat="43.64497" lon="3.81711">
        <ele>137.7</ele>
        <time>2016-05-03T11:24:00Z</time>
      </trkpt>
      <trkpt lat="43.64498" lon="3.81724">
        <ele>138.3</ele>
        <time>2016-05-03T11:24:03Z</time>
      </trkpt>
      <trkpt lat="43.64497" lon="3.81737">
        <ele>138.8</ele>
        <time>2016-05-03T11:24:06Z</time>
      </trkpt>
      <trkpt lat="43.64495" lon="3.81749">
        <ele>139.4</ele>
        <time>2016-05-03T11:24:09Z</time>
      </trkpt>
      <trkpt lat="43.64494" lon="3.8176">
        <ele>140.2</ele>
        <time>2016-05-03T11:24:13Z</time>
      </trkpt>
      <trkpt lat="43.64493" lon="3.81771">
        <ele>141.2</ele>
        <time>2016-05-03T11:24:17Z</time>
      </trkpt>
      <trkpt lat="43.64492" lon="3.81782">
        <ele>141.5</ele>
        <time>2016-05-03T11:24:21Z</time>
      </trkpt>
      <trkpt lat="43.6449" lon="3.81793">
        <ele>141.6</ele>
        <time>2016-05-03T11:24:24Z</time>
      </trkpt>
      <trkpt lat="43.6449" lon="3.81804">
        <ele>141.8</ele>
        <time>2016-05-03T11:24:27Z</time>
      </trkpt>
      <trkpt lat="43.64488" lon="3.81817">
        <ele>142.1</ele>
        <time>2016-05-03T11:24:30Z</time>
      </trkpt>
      <trkpt lat="43.64486" lon="3.81831">
        <ele>142.7</ele>
        <time>2016-05-03T11:24:34Z</time>
      </trkpt>
      <trkpt lat="43.64483" lon="3.81844">
        <ele>143.1</ele>
        <time>2016-05-03T11:24:37Z</time>
      </trkpt>
      <trkpt lat="43.64482" lon="3.81854">
        <ele>143.6</ele>
        <time>2016-05-03T11:24:40Z</time>
      </trkpt>
      <trkpt lat="43.6448" lon="3.81868">
        <ele>144.2</ele>
        <time>2016-05-03T11:24:43Z</time>
      </trkpt>
      <trkpt lat="43.64478" lon="3.81879">
        <ele>144.8</ele>
        <time>2016-05-03T11:24:46Z</time>
      </trkpt>
      <trkpt lat="43.64474" lon="3.81889">
        <ele>145.4</ele>
        <time>2016-05-03T11:24:50Z</time>
      </trkpt>
      <trkpt lat="43.64473" lon="3.81901">
        <ele>145.7</ele>
        <time>2016-05-03T11:24:53Z</time>
      </trkpt>
      <trkpt lat="43.64471" lon="3.81912">
        <ele>146</ele>
        <time>2016-05-03T11:24:56Z</time>
      </trkpt>
      <trkpt lat="43.64465" lon="3.81921">
        <ele>146.3</ele>
        <time>2016-05-03T11:25:00Z</time>
      </trkpt>
      <trkpt lat="43.64465" lon="3.81931">
        <ele>146.4</ele>
        <time>2016-05-03T11:25:03Z</time>
      </trkpt>
      <trkpt lat="43.64461" lon="3.81942">
        <ele>146.2</ele>
        <time>2016-05-03T11:25:05Z</time>
      </trkpt>
      <trkpt lat="43.64455" lon="3.8195">
        <ele>146.2</ele>
        <time>2016-05-03T11:25:07Z</time>
      </trkpt>
      <trkpt lat="43.64448" lon="3.81962">
        <ele>146.3</ele>
        <time>2016-05-03T11:25:10Z</time>
      </trkpt>
      <trkpt lat="43.64443" lon="3.81969">
        <ele>147.3</ele>
        <time>2016-05-03T11:25:12Z</time>
      </trkpt>
      <trkpt lat="43.64439" lon="3.81978">
        <ele>147.3</ele>
        <time>2016-05-03T11:25:14Z</time>
      </trkpt>
      <trkpt lat="43.64433" lon="3.81988">
        <ele>146.5</ele>
        <time>2016-05-03T11:25:16Z</time>
      </trkpt>
      <trkpt lat="43.64429" lon="3.81999">
        <ele>145.5</ele>
        <time>2016-05-03T11:25:18Z</time>
      </trkpt>
      <trkpt lat="43.64423" lon="3.82007">
        <ele>145.7</ele>
        <time>2016-05-03T11:25:20Z</time>
      </trkpt>
      <trkpt lat="43.64417" lon="3.82015">
        <ele>145.8</ele>
        <time>2016-05-03T11:25:22Z</time>
      </trkpt>
      <trkpt lat="43.6441" lon="3.82025">
        <ele>146.1</ele>
        <time>2016-05-03T11:25:25Z</time>
      </trkpt>
      <trkpt lat="43.64403" lon="3.82037">
        <ele>146</ele>
        <time>2016-05-03T11:25:28Z</time>
      </trkpt>
      <trkpt lat="43.64398" lon="3.82047">
        <ele>145.5</ele>
        <time>2016-05-03T11:25:30Z</time>
      </trkpt>
      <trkpt lat="43.64392" lon="3.82056">
        <ele>145.3</ele>
        <time>2016-05-03T11:25:32Z</time>
      </trkpt>
      <trkpt lat="43.64388" lon="3.82065">
        <ele>145.1</ele>
        <time>2016-05-03T11:25:34Z</time>
      </trkpt>
      <trkpt lat="43.64383" lon="3.82075">
        <ele>146.6</ele>
        <time>2016-05-03T11:25:36Z</time>
      </trkpt>
      <trkpt lat="43.64375" lon="3.82088">
        <ele>147.7</ele>
        <time>2016-05-03T11:25:38Z</time>
      </trkpt>
      <trkpt lat="43.64369" lon="3.82099">
        <ele>148.2</ele>
        <time>2016-05-03T11:25:40Z</time>
      </trkpt>
      <trkpt lat="43.64362" lon="3.82111">
        <ele>148.3</ele>
        <time>2016-05-03T11:25:42Z</time>
      </trkpt>
      <trkpt lat="43.64356" lon="3.82121">
        <ele>147.3</ele>
        <time>2016-05-03T11:25:44Z</time>
      </trkpt>
      <trkpt lat="43.64353" lon="3.82134">
        <ele>145.2</ele>
        <time>2016-05-03T11:25:46Z</time>
      </trkpt>
      <trkpt lat="43.64351" lon="3.82147">
        <ele>145.1</ele>
        <time>2016-05-03T11:25:49Z</time>
      </trkpt>
      <trkpt lat="43.64347" lon="3.82156">
        <ele>145.1</ele>
        <time>2016-05-03T11:25:52Z</time>
      </trkpt>
      <trkpt lat="43.64344" lon="3.82169">
        <ele>145.2</ele>
        <time>2016-05-03T11:25:58Z</time>
      </trkpt>
      <trkpt lat="43.6434" lon="3.82177">
        <ele>145.2</ele>
        <time>2016-05-03T11:26:00Z</time>
      </trkpt>
      <trkpt lat="43.64341" lon="3.82188">
        <ele>145.4</ele>
        <time>2016-05-03T11:26:04Z</time>
      </trkpt>
      <trkpt lat="43.64341" lon="3.82201">
        <ele>145.5</ele>
        <time>2016-05-03T11:26:07Z</time>
      </trkpt>
      <trkpt lat="43.64341" lon="3.82212">
        <ele>145.3</ele>
        <time>2016-05-03T11:26:09Z</time>
      </trkpt>
      <trkpt lat="43.6434" lon="3.82223">
        <ele>145.2</ele>
        <time>2016-05-03T11:26:11Z</time>
      </trkpt>
      <trkpt lat="43.64342" lon="3.82235">
        <ele>145.1</ele>
        <time>2016-05-03T11:26:14Z</time>
      </trkpt>
      <trkpt lat="43.64342" lon="3.82245">
        <ele>145.1</ele>
        <time>2016-05-03T11:26:17Z</time>
      </trkpt>
      <trkpt lat="43.64343" lon="3.82256">
        <ele>145.3</ele>
        <time>2016-05-03T11:26:20Z</time>
      </trkpt>
      <trkpt lat="43.64342" lon="3.82269">
        <ele>145.3</ele>
        <time>2016-05-03T11:26:23Z</time>
      </trkpt>
      <trkpt lat="43.64342" lon="3.82282">
        <ele>145.5</ele>
        <time>2016-05-03T11:26:26Z</time>
      </trkpt>
      <trkpt lat="43.64336" lon="3.8229">
        <ele>146</ele>
        <time>2016-05-03T11:26:28Z</time>
      </trkpt>
      <trkpt lat="43.64327" lon="3.82293">
        <ele>145.9</ele>
        <time>2016-05-03T11:26:30Z</time>
      </trkpt>
      <trkpt lat="43.6432" lon="3.82297">
        <ele>145.8</ele>
        <time>2016-05-03T11:26:32Z</time>
      </trkpt>
      <trkpt lat="43.64313" lon="3.823">
        <ele>145.2</ele>
        <time>2016-05-03T11:26:34Z</time>
      </trkpt>
      <trkpt lat="43.64304" lon="3.82299">
        <ele>144.1</ele>
        <time>2016-05-03T11:26:36Z</time>
      </trkpt>
      <trkpt lat="43.64296" lon="3.82301">
        <ele>143.9</ele>
        <time>2016-05-03T11:26:39Z</time>
      </trkpt>
      <trkpt lat="43.6429" lon="3.8231">
        <ele>143.9</ele>
        <time>2016-05-03T11:26:41Z</time>
      </trkpt>
      <trkpt lat="43.64281" lon="3.82313">
        <ele>144.4</ele>
        <time>2016-05-03T11:26:43Z</time>
      </trkpt>
      <trkpt lat="43.64272" lon="3.82313">
        <ele>144.4</ele>
        <time>2016-05-03T11:26:45Z</time>
      </trkpt>
      <trkpt lat="43.64265" lon="3.82309">
        <ele>144.3</ele>
        <time>2016-05-03T11:26:47Z</time>
      </trkpt>
      <trkpt lat="43.64254" lon="3.82305">
        <ele>144.5</ele>
        <time>2016-05-03T11:26:50Z</time>
      </trkpt>
      <trkpt lat="43.64247" lon="3.82307">
        <ele>144.6</ele>
        <time>2016-05-03T11:26:52Z</time>
      </trkpt>
      <trkpt lat="43.64239" lon="3.82305">
        <ele>144.8</ele>
        <time>2016-05-03T11:26:55Z</time>
      </trkpt>
      <trkpt lat="43.64232" lon="3.82307">
        <ele>144.8</ele>
        <time>2016-05-03T11:26:57Z</time>
      </trkpt>
      <trkpt lat="43.64225" lon="3.82307">
        <ele>144.8</ele>
        <time>2016-05-03T11:26:59Z</time>
      </trkpt>
      <trkpt lat="43.64217" lon="3.82309">
        <ele>144.9</ele>
        <time>2016-05-03T11:27:02Z</time>
      </trkpt>
      <trkpt lat="43.64206" lon="3.82314">
        <ele>144.9</ele>
        <time>2016-05-03T11:27:05Z</time>
      </trkpt>
      <trkpt lat="43.642" lon="3.82318">
        <ele>144.9</ele>
        <time>2016-05-03T11:27:07Z</time>
      </trkpt>
      <trkpt lat="43.64192" lon="3.82327">
        <ele>144.8</ele>
        <time>2016-05-03T11:27:10Z</time>
      </trkpt>
      <trkpt lat="43.64188" lon="3.82335">
        <ele>144.7</ele>
        <time>2016-05-03T11:27:12Z</time>
      </trkpt>
      <trkpt lat="43.64185" lon="3.82347">
        <ele>144.9</ele>
        <time>2016-05-03T11:27:15Z</time>
      </trkpt>
      <trkpt lat="43.64182" lon="3.82359">
        <ele>145.4</ele>
        <time>2016-05-03T11:27:18Z</time>
      </trkpt>
      <trkpt lat="43.64178" lon="3.82369">
        <ele>145.5</ele>
        <time>2016-05-03T11:27:20Z</time>
      </trkpt>
      <trkpt lat="43.64171" lon="3.82373">
        <ele>145.7</ele>
        <time>2016-05-03T11:27:23Z</time>
      </trkpt>
      <trkpt lat="43.64167" lon="3.82384">
        <ele>145.8</ele>
        <time>2016-05-03T11:27:26Z</time>
      </trkpt>
      <trkpt lat="43.64163" lon="3.82397">
        <ele>146</ele>
        <time>2016-05-03T11:27:28Z</time>
      </trkpt>
      <trkpt lat="43.64157" lon="3.82412">
        <ele>146.4</ele>
        <time>2016-05-03T11:27:30Z</time>
      </trkpt>
      <trkpt lat="43.64154" lon="3.82424">
        <ele>146.3</ele>
        <time>2016-05-03T11:27:32Z</time>
      </trkpt>
      <trkpt lat="43.64153" lon="3.82434">
        <ele>146.3</ele>
        <time>2016-05-03T11:27:34Z</time>
      </trkpt>
      <trkpt lat="43.6415" lon="3.8245">
        <ele>147.9</ele>
        <time>2016-05-03T11:27:37Z</time>
      </trkpt>
      <trkpt lat="43.64144" lon="3.82463">
        <ele>147.5</ele>
        <time>2016-05-03T11:27:39Z</time>
      </trkpt>
      <trkpt lat="43.64139" lon="3.8247">
        <ele>146.9</ele>
        <time>2016-05-03T11:27:40Z</time>
      </trkpt>
      <trkpt lat="43.64136" lon="3.82486">
        <ele>145.8</ele>
        <time>2016-05-03T11:27:42Z</time>
      </trkpt>
      <trkpt lat="43.64125" lon="3.82506">
        <ele>143.2</ele>
        <time>2016-05-03T11:27:46Z</time>
      </trkpt>
      <trkpt lat="43.64116" lon="3.82518">
        <ele>142.4</ele>
        <time>2016-05-03T11:27:47Z</time>
      </trkpt>
      <trkpt lat="43.64108" lon="3.82534">
        <ele>142.4</ele>
        <time>2016-05-03T11:27:49Z</time>
      </trkpt>
      <trkpt lat="43.64105" lon="3.82547">
        <ele>142</ele>
        <time>2016-05-03T11:27:50Z</time>
      </trkpt>
      <trkpt lat="43.64103" lon="3.82558">
        <ele>141.3</ele>
        <time>2016-05-03T11:27:51Z</time>
      </trkpt>
      <trkpt lat="43.641" lon="3.82568">
        <ele>140.3</ele>
        <time>2016-05-03T11:27:52Z</time>
      </trkpt>
      <trkpt lat="43.64096" lon="3.82578">
        <ele>139.4</ele>
        <time>2016-05-03T11:27:53Z</time>
      </trkpt>
      <trkpt lat="43.64092" lon="3.82588">
        <ele>138.4</ele>
        <time>2016-05-03T11:27:54Z</time>
      </trkpt>
      <trkpt lat="43.6409" lon="3.82597">
        <ele>138.2</ele>
        <time>2016-05-03T11:27:55Z</time>
      </trkpt>
      <trkpt lat="43.64085" lon="3.82617">
        <ele>137.5</ele>
        <time>2016-05-03T11:27:57Z</time>
      </trkpt>
      <trkpt lat="43.64082" lon="3.82628">
        <ele>137.5</ele>
        <time>2016-05-03T11:27:58Z</time>
      </trkpt>
      <trkpt lat="43.6408" lon="3.82646">
        <ele>136.3</ele>
        <time>2016-05-03T11:28:00Z</time>
      </trkpt>
      <trkpt lat="43.64076" lon="3.82656">
        <ele>135.7</ele>
        <time>2016-05-03T11:28:01Z</time>
      </trkpt>
      <trkpt lat="43.64072" lon="3.82665">
        <ele>135.5</ele>
        <time>2016-05-03T11:28:02Z</time>
      </trkpt>
      <trkpt lat="43.64067" lon="3.82675">
        <ele>135.2</ele>
        <time>2016-05-03T11:28:03Z</time>
      </trkpt>
      <trkpt lat="43.64064" lon="3.82685">
        <ele>134.8</ele>
        <time>2016-05-03T11:28:04Z</time>
      </trkpt>
      <trkpt lat="43.64062" lon="3.82696">
        <ele>135</ele>
        <time>2016-05-03T11:28:05Z</time>
      </trkpt>
      <trkpt lat="43.64057" lon="3.82706">
        <ele>135.2</ele>
        <time>2016-05-03T11:28:06Z</time>
      </trkpt>
      <trkpt lat="43.64053" lon="3.82717">
        <ele>134.7</ele>
        <time>2016-05-03T11:28:07Z</time>
      </trkpt>
      <trkpt lat="43.64048" lon="3.82727">
        <ele>134.1</ele>
        <time>2016-05-03T11:28:08Z</time>
      </trkpt>
      <trkpt lat="43.64043" lon="3.82735">
        <ele>133.4</ele>
        <time>2016-05-03T11:28:09Z</time>
      </trkpt>
      <trkpt lat="43.64038" lon="3.82744">
        <ele>132.6</ele>
        <time>2016-05-03T11:28:10Z</time>
      </trkpt>
      <trkpt lat="43.6403" lon="3.82762">
        <ele>132.3</ele>
        <time>2016-05-03T11:28:12Z</time>
      </trkpt>
      <trkpt lat="43.64024" lon="3.82768">
        <ele>132.2</ele>
        <time>2016-05-03T11:28:13Z</time>
      </trkpt>
      <trkpt lat="43.64021" lon="3.82783">
        <ele>131.1</ele>
        <time>2016-05-03T11:28:15Z</time>
      </trkpt>
      <trkpt lat="43.64009" lon="3.82793">
        <ele>130.4</ele>
        <time>2016-05-03T11:28:17Z</time>
      </trkpt>
      <trkpt lat="43.63995" lon="3.82796">
        <ele>129.8</ele>
        <time>2016-05-03T11:28:19Z</time>
      </trkpt>
      <trkpt lat="43.63982" lon="3.828">
        <ele>128.1</ele>
        <time>2016-05-03T11:28:21Z</time>
      </trkpt>
      <trkpt lat="43.63972" lon="3.82804">
        <ele>126.5</ele>
        <time>2016-05-03T11:28:23Z</time>
      </trkpt>
      <trkpt lat="43.63966" lon="3.82812">
        <ele>126.1</ele>
        <time>2016-05-03T11:28:25Z</time>
      </trkpt>
      <trkpt lat="43.63959" lon="3.82817">
        <ele>126.3</ele>
        <time>2016-05-03T11:28:27Z</time>
      </trkpt>
      <trkpt lat="43.63951" lon="3.82823">
        <ele>126.2</ele>
        <time>2016-05-03T11:28:30Z</time>
      </trkpt>
      <trkpt lat="43.63942" lon="3.82823">
        <ele>125.7</ele>
        <time>2016-05-03T11:28:36Z</time>
      </trkpt>
      <trkpt lat="43.6394" lon="3.82822">
        <ele>125.3</ele>
        <time>2016-05-03T11:28:43Z</time>
      </trkpt>
      <trkpt lat="43.63929" lon="3.8283">
        <ele>125.2</ele>
        <time>2016-05-03T11:28:45Z</time>
      </trkpt>
      <trkpt lat="43.6392" lon="3.82828">
        <ele>124.2</ele>
        <time>2016-05-03T11:28:47Z</time>
      </trkpt>
      <trkpt lat="43.63913" lon="3.82823">
        <ele>123.9</ele>
        <time>2016-05-03T11:28:49Z</time>
      </trkpt>
      <trkpt lat="43.63908" lon="3.82813">
        <ele>123.5</ele>
        <time>2016-05-03T11:28:52Z</time>
      </trkpt>
      <trkpt lat="43.63899" lon="3.82812">
        <ele>123.1</ele>
        <time>2016-05-03T11:28:56Z</time>
      </trkpt>
      <trkpt lat="43.63891" lon="3.8281">
        <ele>123.1</ele>
        <time>2016-05-03T11:28:59Z</time>
      </trkpt>
      <trkpt lat="43.63883" lon="3.82802">
        <ele>123.1</ele>
        <time>2016-05-03T11:29:02Z</time>
      </trkpt>
      <trkpt lat="43.63875" lon="3.82794">
        <ele>123.4</ele>
        <time>2016-05-03T11:29:05Z</time>
      </trkpt>
      <trkpt lat="43.63866" lon="3.82798">
        <ele>123.9</ele>
        <time>2016-05-03T11:29:10Z</time>
      </trkpt>
      <trkpt lat="43.63853" lon="3.82804">
        <ele>121.3</ele>
        <time>2016-05-03T11:29:12Z</time>
      </trkpt>
      <trkpt lat="43.63846" lon="3.82806">
        <ele>120.5</ele>
        <time>2016-05-03T11:29:13Z</time>
      </trkpt>
      <trkpt lat="43.63832" lon="3.82809">
        <ele>119.2</ele>
        <time>2016-05-03T11:29:15Z</time>
      </trkpt>
      <trkpt lat="43.63817" lon="3.82811">
        <ele>118.6</ele>
        <time>2016-05-03T11:29:17Z</time>
      </trkpt>
      <trkpt lat="43.63808" lon="3.82812">
        <ele>117.9</ele>
        <time>2016-05-03T11:29:18Z</time>
      </trkpt>
      <trkpt lat="43.63796" lon="3.82816">
        <ele>117.5</ele>
        <time>2016-05-03T11:29:20Z</time>
      </trkpt>
      <trkpt lat="43.63785" lon="3.82819">
        <ele>117.9</ele>
        <time>2016-05-03T11:29:22Z</time>
      </trkpt>
      <trkpt lat="43.6378" lon="3.82832">
        <ele>117.8</ele>
        <time>2016-05-03T11:29:26Z</time>
      </trkpt>
      <trkpt lat="43.63781" lon="3.82844">
        <ele>116.9</ele>
        <time>2016-05-03T11:29:28Z</time>
      </trkpt>
      <trkpt lat="43.63775" lon="3.82855">
        <ele>117.3</ele>
        <time>2016-05-03T11:29:31Z</time>
      </trkpt>
      <trkpt lat="43.63769" lon="3.82849">
        <ele>117.4</ele>
        <time>2016-05-03T11:29:34Z</time>
      </trkpt>
      <trkpt lat="43.63766" lon="3.8285">
        <ele>117.4</ele>
        <time>2016-05-03T11:29:41Z</time>
      </trkpt>
    </trkseg>
  </trk>
</gpx>